<?xml version="1.0" encoding="UTF-8" standalone="no" ?>
<gpx xmlns="http://www.topografix.com/GPX/1/1" xmlns:xsi="http://www.w3.org/2001/XMLSchema-instance" xsi:schemaLocation="http://www.topografix.com/GPX/1/1 http://www.topografix.com/GPX/1/1/gpx.xsd" version="1.1" creator="VisuGPX - https://www.visugpx.com">
  <metadata>
    <name>Le Quartier</name>
    <desc><![CDATA[Randonnée La Quartier 2014]]></desc>
  </metadata>
  <trk>
    <name><![CDATA[22-JUIN-14 16:03:11]]></name>
    <trkseg>
      <trkpt lat="46.12314" lon="2.76229">
        <ele>635.57</ele>
        <time>2014-06-22T06:43:08Z</time>
      </trkpt>
      <trkpt lat="46.12315" lon="2.76234">
        <ele>655.28</ele>
        <time>2014-06-22T06:43:40Z</time>
      </trkpt>
      <trkpt lat="46.12318" lon="2.76237">
        <ele>654.8</ele>
        <time>2014-06-22T06:44:03Z</time>
      </trkpt>
      <trkpt lat="46.12319" lon="2.76234">
        <ele>655.28</ele>
        <time>2014-06-22T06:44:21Z</time>
      </trkpt>
      <trkpt lat="46.12318" lon="2.76233">
        <ele>654.8</ele>
        <time>2014-06-22T06:44:41Z</time>
      </trkpt>
      <trkpt lat="46.12318" lon="2.7623">
        <ele>655.28</ele>
        <time>2014-06-22T06:45:07Z</time>
      </trkpt>
      <trkpt lat="46.12318" lon="2.76231">
        <ele>655.76</ele>
        <time>2014-06-22T06:45:34Z</time>
      </trkpt>
      <trkpt lat="46.12318" lon="2.76231">
        <ele>655.76</ele>
        <time>2014-06-22T06:46:05Z</time>
      </trkpt>
      <trkpt lat="46.12318" lon="2.76233">
        <ele>656.72</ele>
        <time>2014-06-22T06:46:29Z</time>
      </trkpt>
      <trkpt lat="46.12318" lon="2.76235">
        <ele>656.72</ele>
        <time>2014-06-22T06:46:45Z</time>
      </trkpt>
      <trkpt lat="46.12318" lon="2.76235">
        <ele>656.24</ele>
        <time>2014-06-22T06:47:05Z</time>
      </trkpt>
      <trkpt lat="46.12318" lon="2.76234">
        <ele>656.24</ele>
        <time>2014-06-22T06:47:26Z</time>
      </trkpt>
      <trkpt lat="46.12317" lon="2.76233">
        <ele>656.24</ele>
        <time>2014-06-22T06:47:57Z</time>
      </trkpt>
      <trkpt lat="46.12316" lon="2.76222">
        <ele>655.76</ele>
        <time>2014-06-22T06:48:14Z</time>
      </trkpt>
      <trkpt lat="46.12318" lon="2.76208">
        <ele>656.72</ele>
        <time>2014-06-22T06:48:27Z</time>
      </trkpt>
      <trkpt lat="46.12316" lon="2.76202">
        <ele>656.24</ele>
        <time>2014-06-22T06:48:41Z</time>
      </trkpt>
      <trkpt lat="46.12316" lon="2.76199">
        <ele>655.76</ele>
        <time>2014-06-22T06:48:53Z</time>
      </trkpt>
      <trkpt lat="46.12316" lon="2.76183">
        <ele>653.83</ele>
        <time>2014-06-22T06:49:08Z</time>
      </trkpt>
      <trkpt lat="46.12317" lon="2.7618">
        <ele>653.35</ele>
        <time>2014-06-22T06:49:10Z</time>
      </trkpt>
      <trkpt lat="46.12318" lon="2.76169">
        <ele>652.87</ele>
        <time>2014-06-22T06:49:14Z</time>
      </trkpt>
      <trkpt lat="46.12323" lon="2.76138">
        <ele>650.95</ele>
        <time>2014-06-22T06:49:29Z</time>
      </trkpt>
      <trkpt lat="46.1233" lon="2.76105">
        <ele>651.43</ele>
        <time>2014-06-22T06:49:44Z</time>
      </trkpt>
      <trkpt lat="46.12336" lon="2.76072">
        <ele>648.55</ele>
        <time>2014-06-22T06:49:59Z</time>
      </trkpt>
      <trkpt lat="46.12351" lon="2.76042">
        <ele>647.59</ele>
        <time>2014-06-22T06:50:15Z</time>
      </trkpt>
      <trkpt lat="46.12355" lon="2.76033">
        <ele>646.62</ele>
        <time>2014-06-22T06:50:20Z</time>
      </trkpt>
      <trkpt lat="46.12367" lon="2.76008">
        <ele>644.22</ele>
        <time>2014-06-22T06:50:35Z</time>
      </trkpt>
      <trkpt lat="46.12372" lon="2.75975">
        <ele>643.74</ele>
        <time>2014-06-22T06:50:50Z</time>
      </trkpt>
      <trkpt lat="46.12375" lon="2.7594">
        <ele>640.86</ele>
        <time>2014-06-22T06:51:06Z</time>
      </trkpt>
      <trkpt lat="46.12384" lon="2.75908">
        <ele>638.45</ele>
        <time>2014-06-22T06:51:22Z</time>
      </trkpt>
      <trkpt lat="46.124" lon="2.75879">
        <ele>636.53</ele>
        <time>2014-06-22T06:51:38Z</time>
      </trkpt>
      <trkpt lat="46.12405" lon="2.75845">
        <ele>634.61</ele>
        <time>2014-06-22T06:51:52Z</time>
      </trkpt>
      <trkpt lat="46.12411" lon="2.75809">
        <ele>630.76</ele>
        <time>2014-06-22T06:52:07Z</time>
      </trkpt>
      <trkpt lat="46.12419" lon="2.75774">
        <ele>628.84</ele>
        <time>2014-06-22T06:52:22Z</time>
      </trkpt>
      <trkpt lat="46.12422" lon="2.75744">
        <ele>625.47</ele>
        <time>2014-06-22T06:52:34Z</time>
      </trkpt>
      <trkpt lat="46.12423" lon="2.75702">
        <ele>622.59</ele>
        <time>2014-06-22T06:52:51Z</time>
      </trkpt>
      <trkpt lat="46.12427" lon="2.75663">
        <ele>620.67</ele>
        <time>2014-06-22T06:53:06Z</time>
      </trkpt>
      <trkpt lat="46.12431" lon="2.75627">
        <ele>621.15</ele>
        <time>2014-06-22T06:53:21Z</time>
      </trkpt>
      <trkpt lat="46.12433" lon="2.75586">
        <ele>624.03</ele>
        <time>2014-06-22T06:53:36Z</time>
      </trkpt>
      <trkpt lat="46.12433" lon="2.75554">
        <ele>624.03</ele>
        <time>2014-06-22T06:53:49Z</time>
      </trkpt>
      <trkpt lat="46.12429" lon="2.75513">
        <ele>623.07</ele>
        <time>2014-06-22T06:54:06Z</time>
      </trkpt>
      <trkpt lat="46.12425" lon="2.75481">
        <ele>621.63</ele>
        <time>2014-06-22T06:54:19Z</time>
      </trkpt>
      <trkpt lat="46.12423" lon="2.75464">
        <ele>621.15</ele>
        <time>2014-06-22T06:54:26Z</time>
      </trkpt>
      <trkpt lat="46.1242" lon="2.75424">
        <ele>621.15</ele>
        <time>2014-06-22T06:54:42Z</time>
      </trkpt>
      <trkpt lat="46.12418" lon="2.7539">
        <ele>618.75</ele>
        <time>2014-06-22T06:54:56Z</time>
      </trkpt>
      <trkpt lat="46.12422" lon="2.75357">
        <ele>617.78</ele>
        <time>2014-06-22T06:55:10Z</time>
      </trkpt>
      <trkpt lat="46.12426" lon="2.75334">
        <ele>618.75</ele>
        <time>2014-06-22T06:55:20Z</time>
      </trkpt>
      <trkpt lat="46.12428" lon="2.75325">
        <ele>618.26</ele>
        <time>2014-06-22T06:55:24Z</time>
      </trkpt>
      <trkpt lat="46.1243" lon="2.75291">
        <ele>617.78</ele>
        <time>2014-06-22T06:55:38Z</time>
      </trkpt>
      <trkpt lat="46.12438" lon="2.75262">
        <ele>619.23</ele>
        <time>2014-06-22T06:55:52Z</time>
      </trkpt>
      <trkpt lat="46.12439" lon="2.7526">
        <ele>618.75</ele>
        <time>2014-06-22T06:55:53Z</time>
      </trkpt>
      <trkpt lat="46.12446" lon="2.7525">
        <ele>619.71</ele>
        <time>2014-06-22T06:55:59Z</time>
      </trkpt>
      <trkpt lat="46.12461" lon="2.75225">
        <ele>624.99</ele>
        <time>2014-06-22T06:56:13Z</time>
      </trkpt>
      <trkpt lat="46.1248" lon="2.75195">
        <ele>628.36</ele>
        <time>2014-06-22T06:56:29Z</time>
      </trkpt>
      <trkpt lat="46.12495" lon="2.75161">
        <ele>626.92</ele>
        <time>2014-06-22T06:56:45Z</time>
      </trkpt>
      <trkpt lat="46.12499" lon="2.75138">
        <ele>625.47</ele>
        <time>2014-06-22T06:56:55Z</time>
      </trkpt>
      <trkpt lat="46.12504" lon="2.75097">
        <ele>622.11</ele>
        <time>2014-06-22T06:57:11Z</time>
      </trkpt>
      <trkpt lat="46.12508" lon="2.75064">
        <ele>616.82</ele>
        <time>2014-06-22T06:57:25Z</time>
      </trkpt>
      <trkpt lat="46.12514" lon="2.75042">
        <ele>612.98</ele>
        <time>2014-06-22T06:57:36Z</time>
      </trkpt>
      <trkpt lat="46.12516" lon="2.75032">
        <ele>612.02</ele>
        <time>2014-06-22T06:57:40Z</time>
      </trkpt>
      <trkpt lat="46.12523" lon="2.75001">
        <ele>610.09</ele>
        <time>2014-06-22T06:57:53Z</time>
      </trkpt>
      <trkpt lat="46.12525" lon="2.74994">
        <ele>609.61</ele>
        <time>2014-06-22T06:57:56Z</time>
      </trkpt>
      <trkpt lat="46.12525" lon="2.74962">
        <ele>607.21</ele>
        <time>2014-06-22T06:58:10Z</time>
      </trkpt>
      <trkpt lat="46.12529" lon="2.74932">
        <ele>605.29</ele>
        <time>2014-06-22T06:58:23Z</time>
      </trkpt>
      <trkpt lat="46.12535" lon="2.74895">
        <ele>605.77</ele>
        <time>2014-06-22T06:58:37Z</time>
      </trkpt>
      <trkpt lat="46.12538" lon="2.74858">
        <ele>607.69</ele>
        <time>2014-06-22T06:58:52Z</time>
      </trkpt>
      <trkpt lat="46.12538" lon="2.74831">
        <ele>607.21</ele>
        <time>2014-06-22T06:59:04Z</time>
      </trkpt>
      <trkpt lat="46.12536" lon="2.74792">
        <ele>604.33</ele>
        <time>2014-06-22T06:59:20Z</time>
      </trkpt>
      <trkpt lat="46.1253" lon="2.74753">
        <ele>602.4</ele>
        <time>2014-06-22T06:59:36Z</time>
      </trkpt>
      <trkpt lat="46.12532" lon="2.7471">
        <ele>606.25</ele>
        <time>2014-06-22T06:59:52Z</time>
      </trkpt>
      <trkpt lat="46.12534" lon="2.74687">
        <ele>607.69</ele>
        <time>2014-06-22T07:00:02Z</time>
      </trkpt>
      <trkpt lat="46.12533" lon="2.74652">
        <ele>609.13</ele>
        <time>2014-06-22T07:00:16Z</time>
      </trkpt>
      <trkpt lat="46.12534" lon="2.7462">
        <ele>609.13</ele>
        <time>2014-06-22T07:00:29Z</time>
      </trkpt>
      <trkpt lat="46.12533" lon="2.74586">
        <ele>608.65</ele>
        <time>2014-06-22T07:00:43Z</time>
      </trkpt>
      <trkpt lat="46.12533" lon="2.74544">
        <ele>607.69</ele>
        <time>2014-06-22T07:01:00Z</time>
      </trkpt>
      <trkpt lat="46.12532" lon="2.74512">
        <ele>605.29</ele>
        <time>2014-06-22T07:01:14Z</time>
      </trkpt>
      <trkpt lat="46.12539" lon="2.74482">
        <ele>604.81</ele>
        <time>2014-06-22T07:01:28Z</time>
      </trkpt>
      <trkpt lat="46.1255" lon="2.74473">
        <ele>606.25</ele>
        <time>2014-06-22T07:01:35Z</time>
      </trkpt>
      <trkpt lat="46.12555" lon="2.7447">
        <ele>606.73</ele>
        <time>2014-06-22T07:01:39Z</time>
      </trkpt>
      <trkpt lat="46.1257" lon="2.7447">
        <ele>607.69</ele>
        <time>2014-06-22T07:01:46Z</time>
      </trkpt>
      <trkpt lat="46.12594" lon="2.74471">
        <ele>605.77</ele>
        <time>2014-06-22T07:02:00Z</time>
      </trkpt>
      <trkpt lat="46.1261" lon="2.74466">
        <ele>605.29</ele>
        <time>2014-06-22T07:02:13Z</time>
      </trkpt>
      <trkpt lat="46.1263" lon="2.74461">
        <ele>606.25</ele>
        <time>2014-06-22T07:02:26Z</time>
      </trkpt>
      <trkpt lat="46.1265" lon="2.74454">
        <ele>612.98</ele>
        <time>2014-06-22T07:02:38Z</time>
      </trkpt>
      <trkpt lat="46.12669" lon="2.74423">
        <ele>615.38</ele>
        <time>2014-06-22T07:02:52Z</time>
      </trkpt>
      <trkpt lat="46.12681" lon="2.74392">
        <ele>616.82</ele>
        <time>2014-06-22T07:03:05Z</time>
      </trkpt>
      <trkpt lat="46.12688" lon="2.74371">
        <ele>616.34</ele>
        <time>2014-06-22T07:03:16Z</time>
      </trkpt>
      <trkpt lat="46.127" lon="2.74335">
        <ele>614.9</ele>
        <time>2014-06-22T07:03:33Z</time>
      </trkpt>
      <trkpt lat="46.12715" lon="2.74303">
        <ele>610.57</ele>
        <time>2014-06-22T07:03:49Z</time>
      </trkpt>
      <trkpt lat="46.12719" lon="2.74263">
        <ele>608.65</ele>
        <time>2014-06-22T07:04:06Z</time>
      </trkpt>
      <trkpt lat="46.12725" lon="2.74228">
        <ele>608.17</ele>
        <time>2014-06-22T07:04:20Z</time>
      </trkpt>
      <trkpt lat="46.12738" lon="2.74204">
        <ele>610.09</ele>
        <time>2014-06-22T07:04:33Z</time>
      </trkpt>
      <trkpt lat="46.12742" lon="2.742">
        <ele>610.57</ele>
        <time>2014-06-22T07:04:36Z</time>
      </trkpt>
      <trkpt lat="46.12745" lon="2.74204">
        <ele>611.06</ele>
        <time>2014-06-22T07:04:41Z</time>
      </trkpt>
      <trkpt lat="46.1274" lon="2.7424">
        <ele>615.38</ele>
        <time>2014-06-22T07:04:56Z</time>
      </trkpt>
      <trkpt lat="46.12738" lon="2.74248">
        <ele>616.34</ele>
        <time>2014-06-22T07:04:59Z</time>
      </trkpt>
      <trkpt lat="46.1274" lon="2.74274">
        <ele>618.75</ele>
        <time>2014-06-22T07:05:11Z</time>
      </trkpt>
      <trkpt lat="46.12739" lon="2.74281">
        <ele>619.23</ele>
        <time>2014-06-22T07:05:14Z</time>
      </trkpt>
      <trkpt lat="46.12738" lon="2.74294">
        <ele>619.71</ele>
        <time>2014-06-22T07:05:19Z</time>
      </trkpt>
      <trkpt lat="46.12739" lon="2.74314">
        <ele>621.15</ele>
        <time>2014-06-22T07:05:27Z</time>
      </trkpt>
      <trkpt lat="46.12742" lon="2.74336">
        <ele>623.55</ele>
        <time>2014-06-22T07:05:36Z</time>
      </trkpt>
      <trkpt lat="46.12741" lon="2.74344">
        <ele>624.03</ele>
        <time>2014-06-22T07:05:39Z</time>
      </trkpt>
      <trkpt lat="46.12744" lon="2.74354">
        <ele>624.03</ele>
        <time>2014-06-22T07:05:43Z</time>
      </trkpt>
      <trkpt lat="46.12757" lon="2.74389">
        <ele>619.71</ele>
        <time>2014-06-22T07:05:59Z</time>
      </trkpt>
      <trkpt lat="46.12759" lon="2.74398">
        <ele>618.75</ele>
        <time>2014-06-22T07:06:03Z</time>
      </trkpt>
      <trkpt lat="46.12763" lon="2.74408">
        <ele>618.26</ele>
        <time>2014-06-22T07:06:08Z</time>
      </trkpt>
      <trkpt lat="46.12768" lon="2.74417">
        <ele>616.82</ele>
        <time>2014-06-22T07:06:13Z</time>
      </trkpt>
      <trkpt lat="46.12783" lon="2.74445">
        <ele>613.94</ele>
        <time>2014-06-22T07:06:28Z</time>
      </trkpt>
      <trkpt lat="46.12803" lon="2.74468">
        <ele>613.94</ele>
        <time>2014-06-22T07:06:45Z</time>
      </trkpt>
      <trkpt lat="46.12829" lon="2.7449">
        <ele>619.23</ele>
        <time>2014-06-22T07:07:02Z</time>
      </trkpt>
      <trkpt lat="46.12851" lon="2.74507">
        <ele>622.59</ele>
        <time>2014-06-22T07:07:18Z</time>
      </trkpt>
      <trkpt lat="46.12873" lon="2.74525">
        <ele>624.99</ele>
        <time>2014-06-22T07:07:34Z</time>
      </trkpt>
      <trkpt lat="46.12888" lon="2.74547">
        <ele>630.76</ele>
        <time>2014-06-22T07:07:49Z</time>
      </trkpt>
      <trkpt lat="46.12904" lon="2.74565">
        <ele>632.68</ele>
        <time>2014-06-22T07:08:04Z</time>
      </trkpt>
      <trkpt lat="46.12919" lon="2.74582">
        <ele>635.09</ele>
        <time>2014-06-22T07:08:19Z</time>
      </trkpt>
      <trkpt lat="46.12937" lon="2.74604">
        <ele>637.01</ele>
        <time>2014-06-22T07:08:36Z</time>
      </trkpt>
      <trkpt lat="46.12953" lon="2.74625">
        <ele>637.49</ele>
        <time>2014-06-22T07:08:52Z</time>
      </trkpt>
      <trkpt lat="46.12972" lon="2.7465">
        <ele>635.09</ele>
        <time>2014-06-22T07:09:07Z</time>
      </trkpt>
      <trkpt lat="46.12992" lon="2.74673">
        <ele>636.05</ele>
        <time>2014-06-22T07:09:24Z</time>
      </trkpt>
      <trkpt lat="46.1301" lon="2.74701">
        <ele>634.61</ele>
        <time>2014-06-22T07:09:42Z</time>
      </trkpt>
      <trkpt lat="46.13026" lon="2.74728">
        <ele>632.2</ele>
        <time>2014-06-22T07:09:59Z</time>
      </trkpt>
      <trkpt lat="46.13032" lon="2.74744">
        <ele>629.32</ele>
        <time>2014-06-22T07:10:08Z</time>
      </trkpt>
      <trkpt lat="46.13038" lon="2.74757">
        <ele>628.36</ele>
        <time>2014-06-22T07:10:16Z</time>
      </trkpt>
      <trkpt lat="46.13054" lon="2.74784">
        <ele>627.88</ele>
        <time>2014-06-22T07:10:32Z</time>
      </trkpt>
      <trkpt lat="46.13072" lon="2.74814">
        <ele>629.8</ele>
        <time>2014-06-22T07:10:48Z</time>
      </trkpt>
      <trkpt lat="46.13093" lon="2.74839">
        <ele>633.17</ele>
        <time>2014-06-22T07:11:06Z</time>
      </trkpt>
      <trkpt lat="46.13111" lon="2.7487">
        <ele>638.93</ele>
        <time>2014-06-22T07:11:23Z</time>
      </trkpt>
      <trkpt lat="46.13129" lon="2.74897">
        <ele>640.38</ele>
        <time>2014-06-22T07:11:41Z</time>
      </trkpt>
      <trkpt lat="46.13155" lon="2.74927">
        <ele>643.74</ele>
        <time>2014-06-22T07:11:58Z</time>
      </trkpt>
      <trkpt lat="46.13157" lon="2.7493">
        <ele>644.22</ele>
        <time>2014-06-22T07:11:59Z</time>
      </trkpt>
      <trkpt lat="46.13161" lon="2.74937">
        <ele>645.18</ele>
        <time>2014-06-22T07:12:02Z</time>
      </trkpt>
      <trkpt lat="46.13193" lon="2.74969">
        <ele>658.64</ele>
        <time>2014-06-22T07:12:20Z</time>
      </trkpt>
      <trkpt lat="46.13205" lon="2.75001">
        <ele>661.04</ele>
        <time>2014-06-22T07:12:36Z</time>
      </trkpt>
      <trkpt lat="46.13207" lon="2.75016">
        <ele>662.01</ele>
        <time>2014-06-22T07:12:42Z</time>
      </trkpt>
      <trkpt lat="46.13205" lon="2.75025">
        <ele>662.49</ele>
        <time>2014-06-22T07:12:45Z</time>
      </trkpt>
      <trkpt lat="46.13204" lon="2.75059">
        <ele>665.37</ele>
        <time>2014-06-22T07:12:57Z</time>
      </trkpt>
      <trkpt lat="46.13202" lon="2.7509">
        <ele>668.73</ele>
        <time>2014-06-22T07:13:11Z</time>
      </trkpt>
      <trkpt lat="46.13201" lon="2.75128">
        <ele>670.66</ele>
        <time>2014-06-22T07:13:28Z</time>
      </trkpt>
      <trkpt lat="46.13199" lon="2.75139">
        <ele>671.62</ele>
        <time>2014-06-22T07:13:33Z</time>
      </trkpt>
      <trkpt lat="46.132" lon="2.7515">
        <ele>672.1</ele>
        <time>2014-06-22T07:13:38Z</time>
      </trkpt>
      <trkpt lat="46.13192" lon="2.75192">
        <ele>675.46</ele>
        <time>2014-06-22T07:13:55Z</time>
      </trkpt>
      <trkpt lat="46.13188" lon="2.75219">
        <ele>677.87</ele>
        <time>2014-06-22T07:14:06Z</time>
      </trkpt>
      <trkpt lat="46.13184" lon="2.7525">
        <ele>682.19</ele>
        <time>2014-06-22T07:14:19Z</time>
      </trkpt>
      <trkpt lat="46.13184" lon="2.75259">
        <ele>682.67</ele>
        <time>2014-06-22T07:14:23Z</time>
      </trkpt>
      <trkpt lat="46.13182" lon="2.75269">
        <ele>683.63</ele>
        <time>2014-06-22T07:14:27Z</time>
      </trkpt>
      <trkpt lat="46.1318" lon="2.75303">
        <ele>687</ele>
        <time>2014-06-22T07:14:42Z</time>
      </trkpt>
      <trkpt lat="46.13178" lon="2.75331">
        <ele>690.84</ele>
        <time>2014-06-22T07:14:54Z</time>
      </trkpt>
      <trkpt lat="46.13177" lon="2.75341">
        <ele>691.81</ele>
        <time>2014-06-22T07:14:58Z</time>
      </trkpt>
      <trkpt lat="46.13177" lon="2.75353">
        <ele>692.29</ele>
        <time>2014-06-22T07:15:03Z</time>
      </trkpt>
      <trkpt lat="46.13176" lon="2.75364">
        <ele>693.73</ele>
        <time>2014-06-22T07:15:07Z</time>
      </trkpt>
      <trkpt lat="46.13178" lon="2.75374">
        <ele>695.65</ele>
        <time>2014-06-22T07:15:12Z</time>
      </trkpt>
      <trkpt lat="46.13176" lon="2.75383">
        <ele>697.57</ele>
        <time>2014-06-22T07:15:16Z</time>
      </trkpt>
      <trkpt lat="46.13178" lon="2.75401">
        <ele>699.5</ele>
        <time>2014-06-22T07:15:23Z</time>
      </trkpt>
      <trkpt lat="46.1318" lon="2.75436">
        <ele>701.9</ele>
        <time>2014-06-22T07:15:37Z</time>
      </trkpt>
      <trkpt lat="46.13181" lon="2.75441">
        <ele>701.9</ele>
        <time>2014-06-22T07:15:39Z</time>
      </trkpt>
      <trkpt lat="46.13179" lon="2.75448">
        <ele>702.38</ele>
        <time>2014-06-22T07:15:42Z</time>
      </trkpt>
      <trkpt lat="46.1318" lon="2.75457">
        <ele>702.38</ele>
        <time>2014-06-22T07:15:46Z</time>
      </trkpt>
      <trkpt lat="46.13184" lon="2.75482">
        <ele>701.42</ele>
        <time>2014-06-22T07:15:57Z</time>
      </trkpt>
      <trkpt lat="46.13186" lon="2.75506">
        <ele>698.05</ele>
        <time>2014-06-22T07:16:07Z</time>
      </trkpt>
      <trkpt lat="46.13188" lon="2.75541">
        <ele>695.65</ele>
        <time>2014-06-22T07:16:21Z</time>
      </trkpt>
      <trkpt lat="46.13189" lon="2.75546">
        <ele>695.17</ele>
        <time>2014-06-22T07:16:23Z</time>
      </trkpt>
      <trkpt lat="46.13189" lon="2.75561">
        <ele>694.21</ele>
        <time>2014-06-22T07:16:29Z</time>
      </trkpt>
      <trkpt lat="46.1319" lon="2.75569">
        <ele>693.73</ele>
        <time>2014-06-22T07:16:32Z</time>
      </trkpt>
      <trkpt lat="46.1319" lon="2.75579">
        <ele>693.73</ele>
        <time>2014-06-22T07:16:36Z</time>
      </trkpt>
      <trkpt lat="46.13191" lon="2.75584">
        <ele>693.73</ele>
        <time>2014-06-22T07:16:38Z</time>
      </trkpt>
      <trkpt lat="46.13194" lon="2.75595">
        <ele>693.25</ele>
        <time>2014-06-22T07:16:43Z</time>
      </trkpt>
      <trkpt lat="46.13196" lon="2.75603">
        <ele>693.25</ele>
        <time>2014-06-22T07:16:46Z</time>
      </trkpt>
      <trkpt lat="46.13198" lon="2.7562">
        <ele>693.73</ele>
        <time>2014-06-22T07:16:53Z</time>
      </trkpt>
      <trkpt lat="46.13199" lon="2.75638">
        <ele>694.21</ele>
        <time>2014-06-22T07:17:00Z</time>
      </trkpt>
      <trkpt lat="46.13199" lon="2.75652">
        <ele>693.73</ele>
        <time>2014-06-22T07:17:05Z</time>
      </trkpt>
      <trkpt lat="46.13203" lon="2.75676">
        <ele>693.25</ele>
        <time>2014-06-22T07:17:15Z</time>
      </trkpt>
      <trkpt lat="46.13202" lon="2.75684">
        <ele>692.77</ele>
        <time>2014-06-22T07:17:18Z</time>
      </trkpt>
      <trkpt lat="46.13207" lon="2.75719">
        <ele>694.69</ele>
        <time>2014-06-22T07:17:32Z</time>
      </trkpt>
      <trkpt lat="46.13213" lon="2.75752">
        <ele>699.98</ele>
        <time>2014-06-22T07:17:47Z</time>
      </trkpt>
      <trkpt lat="46.13214" lon="2.75769">
        <ele>700.46</ele>
        <time>2014-06-22T07:17:54Z</time>
      </trkpt>
      <trkpt lat="46.13215" lon="2.75779">
        <ele>700.94</ele>
        <time>2014-06-22T07:17:58Z</time>
      </trkpt>
      <trkpt lat="46.13218" lon="2.75813">
        <ele>699.02</ele>
        <time>2014-06-22T07:18:12Z</time>
      </trkpt>
      <trkpt lat="46.13219" lon="2.75845">
        <ele>699.5</ele>
        <time>2014-06-22T07:18:25Z</time>
      </trkpt>
      <trkpt lat="46.13219" lon="2.75857">
        <ele>699.98</ele>
        <time>2014-06-22T07:18:30Z</time>
      </trkpt>
      <trkpt lat="46.13219" lon="2.75864">
        <ele>699.98</ele>
        <time>2014-06-22T07:18:33Z</time>
      </trkpt>
      <trkpt lat="46.1322" lon="2.75899">
        <ele>701.9</ele>
        <time>2014-06-22T07:18:48Z</time>
      </trkpt>
      <trkpt lat="46.13217" lon="2.75936">
        <ele>705.26</ele>
        <time>2014-06-22T07:19:03Z</time>
      </trkpt>
      <trkpt lat="46.13213" lon="2.75973">
        <ele>705.75</ele>
        <time>2014-06-22T07:19:19Z</time>
      </trkpt>
      <trkpt lat="46.13209" lon="2.76012">
        <ele>701.9</ele>
        <time>2014-06-22T07:19:36Z</time>
      </trkpt>
      <trkpt lat="46.13204" lon="2.76044">
        <ele>700.46</ele>
        <time>2014-06-22T07:19:50Z</time>
      </trkpt>
      <trkpt lat="46.13203" lon="2.76046">
        <ele>700.94</ele>
        <time>2014-06-22T07:19:51Z</time>
      </trkpt>
      <trkpt lat="46.13197" lon="2.76083">
        <ele>704.3</ele>
        <time>2014-06-22T07:20:08Z</time>
      </trkpt>
      <trkpt lat="46.13197" lon="2.76086">
        <ele>704.78</ele>
        <time>2014-06-22T07:20:10Z</time>
      </trkpt>
      <trkpt lat="46.13194" lon="2.76117">
        <ele>709.11</ele>
        <time>2014-06-22T07:20:27Z</time>
      </trkpt>
      <trkpt lat="46.13191" lon="2.76158">
        <ele>704.78</ele>
        <time>2014-06-22T07:20:44Z</time>
      </trkpt>
      <trkpt lat="46.13192" lon="2.76174">
        <ele>704.3</ele>
        <time>2014-06-22T07:20:51Z</time>
      </trkpt>
      <trkpt lat="46.132" lon="2.76211">
        <ele>702.86</ele>
        <time>2014-06-22T07:21:08Z</time>
      </trkpt>
      <trkpt lat="46.13206" lon="2.76252">
        <ele>703.82</ele>
        <time>2014-06-22T07:21:22Z</time>
      </trkpt>
      <trkpt lat="46.13218" lon="2.76276">
        <ele>705.75</ele>
        <time>2014-06-22T07:21:36Z</time>
      </trkpt>
      <trkpt lat="46.13229" lon="2.76311">
        <ele>703.82</ele>
        <time>2014-06-22T07:21:52Z</time>
      </trkpt>
      <trkpt lat="46.13242" lon="2.76339">
        <ele>703.82</ele>
        <time>2014-06-22T07:22:08Z</time>
      </trkpt>
      <trkpt lat="46.13247" lon="2.76359">
        <ele>703.82</ele>
        <time>2014-06-22T07:22:20Z</time>
      </trkpt>
      <trkpt lat="46.1326" lon="2.76391">
        <ele>701.9</ele>
        <time>2014-06-22T07:22:37Z</time>
      </trkpt>
      <trkpt lat="46.13263" lon="2.76398">
        <ele>701.42</ele>
        <time>2014-06-22T07:22:41Z</time>
      </trkpt>
      <trkpt lat="46.13277" lon="2.76438">
        <ele>706.23</ele>
        <time>2014-06-22T07:22:57Z</time>
      </trkpt>
      <trkpt lat="46.13283" lon="2.76452">
        <ele>706.71</ele>
        <time>2014-06-22T07:23:04Z</time>
      </trkpt>
      <trkpt lat="46.13289" lon="2.76468">
        <ele>706.23</ele>
        <time>2014-06-22T07:23:12Z</time>
      </trkpt>
      <trkpt lat="46.133" lon="2.76495">
        <ele>705.75</ele>
        <time>2014-06-22T07:23:29Z</time>
      </trkpt>
      <trkpt lat="46.13302" lon="2.765">
        <ele>705.75</ele>
        <time>2014-06-22T07:23:31Z</time>
      </trkpt>
      <trkpt lat="46.13306" lon="2.76538">
        <ele>710.07</ele>
        <time>2014-06-22T07:23:44Z</time>
      </trkpt>
      <trkpt lat="46.13307" lon="2.76569">
        <ele>718.72</ele>
        <time>2014-06-22T07:23:57Z</time>
      </trkpt>
      <trkpt lat="46.13311" lon="2.76599">
        <ele>724.01</ele>
        <time>2014-06-22T07:24:11Z</time>
      </trkpt>
      <trkpt lat="46.13315" lon="2.76634">
        <ele>731.7</ele>
        <time>2014-06-22T07:24:28Z</time>
      </trkpt>
      <trkpt lat="46.13324" lon="2.76663">
        <ele>730.26</ele>
        <time>2014-06-22T07:24:39Z</time>
      </trkpt>
      <trkpt lat="46.13327" lon="2.76675">
        <ele>729.3</ele>
        <time>2014-06-22T07:24:45Z</time>
      </trkpt>
      <trkpt lat="46.13343" lon="2.76707">
        <ele>727.37</ele>
        <time>2014-06-22T07:25:01Z</time>
      </trkpt>
      <trkpt lat="46.13354" lon="2.76738">
        <ele>724.01</ele>
        <time>2014-06-22T07:25:16Z</time>
      </trkpt>
      <trkpt lat="46.13367" lon="2.76774">
        <ele>724.01</ele>
        <time>2014-06-22T07:25:32Z</time>
      </trkpt>
      <trkpt lat="46.13378" lon="2.76803">
        <ele>720.65</ele>
        <time>2014-06-22T07:25:46Z</time>
      </trkpt>
      <trkpt lat="46.13396" lon="2.76832">
        <ele>714.4</ele>
        <time>2014-06-22T07:26:05Z</time>
      </trkpt>
      <trkpt lat="46.13408" lon="2.76865">
        <ele>715.36</ele>
        <time>2014-06-22T07:26:21Z</time>
      </trkpt>
      <trkpt lat="46.1341" lon="2.76867">
        <ele>715.36</ele>
        <time>2014-06-22T07:26:22Z</time>
      </trkpt>
      <trkpt lat="46.13425" lon="2.7689">
        <ele>716.32</ele>
        <time>2014-06-22T07:26:36Z</time>
      </trkpt>
      <trkpt lat="46.13441" lon="2.76915">
        <ele>712.47</ele>
        <time>2014-06-22T07:26:52Z</time>
      </trkpt>
      <trkpt lat="46.13457" lon="2.76946">
        <ele>712.47</ele>
        <time>2014-06-22T07:27:09Z</time>
      </trkpt>
      <trkpt lat="46.13474" lon="2.76973">
        <ele>710.07</ele>
        <time>2014-06-22T07:27:25Z</time>
      </trkpt>
      <trkpt lat="46.13489" lon="2.77012">
        <ele>716.8</ele>
        <time>2014-06-22T07:27:40Z</time>
      </trkpt>
      <trkpt lat="46.13504" lon="2.77043">
        <ele>724.01</ele>
        <time>2014-06-22T07:27:55Z</time>
      </trkpt>
      <trkpt lat="46.13517" lon="2.77072">
        <ele>726.41</ele>
        <time>2014-06-22T07:28:09Z</time>
      </trkpt>
      <trkpt lat="46.13527" lon="2.77101">
        <ele>734.1</ele>
        <time>2014-06-22T07:28:22Z</time>
      </trkpt>
      <trkpt lat="46.1354" lon="2.77125">
        <ele>739.87</ele>
        <time>2014-06-22T07:28:37Z</time>
      </trkpt>
      <trkpt lat="46.13558" lon="2.77149">
        <ele>743.72</ele>
        <time>2014-06-22T07:28:52Z</time>
      </trkpt>
      <trkpt lat="46.13575" lon="2.77175">
        <ele>743.72</ele>
        <time>2014-06-22T07:29:10Z</time>
      </trkpt>
      <trkpt lat="46.13597" lon="2.7721">
        <ele>744.2</ele>
        <time>2014-06-22T07:29:27Z</time>
      </trkpt>
      <trkpt lat="46.13617" lon="2.77236">
        <ele>744.2</ele>
        <time>2014-06-22T07:29:45Z</time>
      </trkpt>
      <trkpt lat="46.1364" lon="2.77273">
        <ele>737.95</ele>
        <time>2014-06-22T07:30:02Z</time>
      </trkpt>
      <trkpt lat="46.13655" lon="2.77295">
        <ele>735.55</ele>
        <time>2014-06-22T07:30:16Z</time>
      </trkpt>
      <trkpt lat="46.13669" lon="2.77322">
        <ele>735.55</ele>
        <time>2014-06-22T07:30:31Z</time>
      </trkpt>
      <trkpt lat="46.13672" lon="2.77329">
        <ele>735.07</ele>
        <time>2014-06-22T07:30:34Z</time>
      </trkpt>
      <trkpt lat="46.13691" lon="2.77357">
        <ele>733.14</ele>
        <time>2014-06-22T07:30:49Z</time>
      </trkpt>
      <trkpt lat="46.13701" lon="2.77381">
        <ele>731.22</ele>
        <time>2014-06-22T07:31:02Z</time>
      </trkpt>
      <trkpt lat="46.13718" lon="2.77413">
        <ele>731.22</ele>
        <time>2014-06-22T07:31:18Z</time>
      </trkpt>
      <trkpt lat="46.13735" lon="2.77439">
        <ele>733.14</ele>
        <time>2014-06-22T07:31:33Z</time>
      </trkpt>
      <trkpt lat="46.13742" lon="2.77457">
        <ele>737.95</ele>
        <time>2014-06-22T07:31:43Z</time>
      </trkpt>
      <trkpt lat="46.13754" lon="2.77497">
        <ele>746.12</ele>
        <time>2014-06-22T07:32:01Z</time>
      </trkpt>
      <trkpt lat="46.13757" lon="2.77505">
        <ele>748.04</ele>
        <time>2014-06-22T07:32:06Z</time>
      </trkpt>
      <trkpt lat="46.1376" lon="2.77513">
        <ele>750.93</ele>
        <time>2014-06-22T07:32:11Z</time>
      </trkpt>
      <trkpt lat="46.1377" lon="2.77571">
        <ele>757.66</ele>
        <time>2014-06-22T07:32:31Z</time>
      </trkpt>
      <trkpt lat="46.13778" lon="2.77605">
        <ele>758.14</ele>
        <time>2014-06-22T07:32:46Z</time>
      </trkpt>
      <trkpt lat="46.13789" lon="2.77631">
        <ele>761.02</ele>
        <time>2014-06-22T07:33:00Z</time>
      </trkpt>
      <trkpt lat="46.13809" lon="2.77668">
        <ele>759.1</ele>
        <time>2014-06-22T07:33:19Z</time>
      </trkpt>
      <trkpt lat="46.13826" lon="2.77694">
        <ele>751.89</ele>
        <time>2014-06-22T07:33:33Z</time>
      </trkpt>
      <trkpt lat="46.13836" lon="2.77712">
        <ele>744.68</ele>
        <time>2014-06-22T07:33:44Z</time>
      </trkpt>
      <trkpt lat="46.13837" lon="2.7772">
        <ele>743.24</ele>
        <time>2014-06-22T07:33:47Z</time>
      </trkpt>
      <trkpt lat="46.13854" lon="2.77754">
        <ele>736.99</ele>
        <time>2014-06-22T07:34:05Z</time>
      </trkpt>
      <trkpt lat="46.13872" lon="2.77782">
        <ele>732.18</ele>
        <time>2014-06-22T07:34:20Z</time>
      </trkpt>
      <trkpt lat="46.13878" lon="2.77797">
        <ele>729.78</ele>
        <time>2014-06-22T07:34:29Z</time>
      </trkpt>
      <trkpt lat="46.13882" lon="2.77815">
        <ele>728.82</ele>
        <time>2014-06-22T07:34:35Z</time>
      </trkpt>
      <trkpt lat="46.1389" lon="2.77833">
        <ele>724.49</ele>
        <time>2014-06-22T07:34:43Z</time>
      </trkpt>
      <trkpt lat="46.13904" lon="2.77861">
        <ele>719.2</ele>
        <time>2014-06-22T07:35:00Z</time>
      </trkpt>
      <trkpt lat="46.13918" lon="2.77892">
        <ele>715.84</ele>
        <time>2014-06-22T07:35:15Z</time>
      </trkpt>
      <trkpt lat="46.1392" lon="2.77898">
        <ele>715.36</ele>
        <time>2014-06-22T07:35:19Z</time>
      </trkpt>
      <trkpt lat="46.13919" lon="2.7793">
        <ele>714.88</ele>
        <time>2014-06-22T07:35:33Z</time>
      </trkpt>
      <trkpt lat="46.13923" lon="2.77963">
        <ele>714.4</ele>
        <time>2014-06-22T07:35:46Z</time>
      </trkpt>
      <trkpt lat="46.13926" lon="2.78001">
        <ele>714.4</ele>
        <time>2014-06-22T07:36:01Z</time>
      </trkpt>
      <trkpt lat="46.13937" lon="2.78038">
        <ele>711.51</ele>
        <time>2014-06-22T07:36:18Z</time>
      </trkpt>
      <trkpt lat="46.1395" lon="2.78074">
        <ele>707.67</ele>
        <time>2014-06-22T07:36:35Z</time>
      </trkpt>
      <trkpt lat="46.13961" lon="2.78107">
        <ele>702.86</ele>
        <time>2014-06-22T07:36:51Z</time>
      </trkpt>
      <trkpt lat="46.13967" lon="2.78145">
        <ele>699.5</ele>
        <time>2014-06-22T07:37:08Z</time>
      </trkpt>
      <trkpt lat="46.13956" lon="2.78166">
        <ele>698.53</ele>
        <time>2014-06-22T07:37:20Z</time>
      </trkpt>
      <trkpt lat="46.13939" lon="2.78191">
        <ele>696.13</ele>
        <time>2014-06-22T07:37:35Z</time>
      </trkpt>
      <trkpt lat="46.13911" lon="2.78202">
        <ele>696.61</ele>
        <time>2014-06-22T07:37:52Z</time>
      </trkpt>
      <trkpt lat="46.13885" lon="2.78203">
        <ele>695.17</ele>
        <time>2014-06-22T07:38:08Z</time>
      </trkpt>
      <trkpt lat="46.13861" lon="2.78204">
        <ele>695.17</ele>
        <time>2014-06-22T07:38:23Z</time>
      </trkpt>
      <trkpt lat="46.13841" lon="2.78211">
        <ele>695.65</ele>
        <time>2014-06-22T07:38:36Z</time>
      </trkpt>
      <trkpt lat="46.13814" lon="2.7823">
        <ele>694.69</ele>
        <time>2014-06-22T07:38:54Z</time>
      </trkpt>
      <trkpt lat="46.13792" lon="2.78248">
        <ele>691.33</ele>
        <time>2014-06-22T07:39:10Z</time>
      </trkpt>
      <trkpt lat="46.13773" lon="2.78268">
        <ele>685.56</ele>
        <time>2014-06-22T07:39:27Z</time>
      </trkpt>
      <trkpt lat="46.1375" lon="2.78297">
        <ele>681.71</ele>
        <time>2014-06-22T07:39:44Z</time>
      </trkpt>
      <trkpt lat="46.13726" lon="2.78323">
        <ele>680.27</ele>
        <time>2014-06-22T07:40:01Z</time>
      </trkpt>
      <trkpt lat="46.13708" lon="2.78338">
        <ele>678.83</ele>
        <time>2014-06-22T07:40:15Z</time>
      </trkpt>
      <trkpt lat="46.13706" lon="2.78339">
        <ele>678.83</ele>
        <time>2014-06-22T07:40:16Z</time>
      </trkpt>
      <trkpt lat="46.13682" lon="2.78361">
        <ele>677.87</ele>
        <time>2014-06-22T07:40:33Z</time>
      </trkpt>
      <trkpt lat="46.13661" lon="2.78378">
        <ele>678.35</ele>
        <time>2014-06-22T07:40:47Z</time>
      </trkpt>
      <trkpt lat="46.13635" lon="2.78399">
        <ele>680.75</ele>
        <time>2014-06-22T07:41:03Z</time>
      </trkpt>
      <trkpt lat="46.1362" lon="2.7841">
        <ele>681.71</ele>
        <time>2014-06-22T07:41:18Z</time>
      </trkpt>
      <trkpt lat="46.1362" lon="2.7841">
        <ele>681.71</ele>
        <time>2014-06-22T07:41:39Z</time>
      </trkpt>
      <trkpt lat="46.1362" lon="2.7841">
        <ele>681.71</ele>
        <time>2014-06-22T07:42:10Z</time>
      </trkpt>
      <trkpt lat="46.1362" lon="2.7841">
        <ele>681.71</ele>
        <time>2014-06-22T07:42:37Z</time>
      </trkpt>
      <trkpt lat="46.13619" lon="2.7841">
        <ele>681.71</ele>
        <time>2014-06-22T07:43:03Z</time>
      </trkpt>
      <trkpt lat="46.13619" lon="2.7841">
        <ele>682.19</ele>
        <time>2014-06-22T07:43:22Z</time>
      </trkpt>
      <trkpt lat="46.13619" lon="2.7841">
        <ele>682.19</ele>
        <time>2014-06-22T07:43:44Z</time>
      </trkpt>
      <trkpt lat="46.136" lon="2.78412">
        <ele>680.27</ele>
        <time>2014-06-22T07:43:57Z</time>
      </trkpt>
      <trkpt lat="46.13576" lon="2.78405">
        <ele>681.23</ele>
        <time>2014-06-22T07:44:13Z</time>
      </trkpt>
      <trkpt lat="46.13542" lon="2.78398">
        <ele>682.67</ele>
        <time>2014-06-22T07:44:31Z</time>
      </trkpt>
      <trkpt lat="46.13506" lon="2.78386">
        <ele>683.63</ele>
        <time>2014-06-22T07:44:50Z</time>
      </trkpt>
      <trkpt lat="46.13479" lon="2.78373">
        <ele>682.19</ele>
        <time>2014-06-22T07:45:07Z</time>
      </trkpt>
      <trkpt lat="46.13448" lon="2.78356">
        <ele>683.63</ele>
        <time>2014-06-22T07:45:27Z</time>
      </trkpt>
      <trkpt lat="46.13419" lon="2.78348">
        <ele>684.12</ele>
        <time>2014-06-22T07:45:44Z</time>
      </trkpt>
      <trkpt lat="46.13387" lon="2.78343">
        <ele>687</ele>
        <time>2014-06-22T07:46:02Z</time>
      </trkpt>
      <trkpt lat="46.13359" lon="2.78343">
        <ele>687.96</ele>
        <time>2014-06-22T07:46:18Z</time>
      </trkpt>
      <trkpt lat="46.13329" lon="2.78341">
        <ele>687</ele>
        <time>2014-06-22T07:46:35Z</time>
      </trkpt>
      <trkpt lat="46.13302" lon="2.78332">
        <ele>686.52</ele>
        <time>2014-06-22T07:46:50Z</time>
      </trkpt>
      <trkpt lat="46.13273" lon="2.78319">
        <ele>684.6</ele>
        <time>2014-06-22T07:47:07Z</time>
      </trkpt>
      <trkpt lat="46.13243" lon="2.78306">
        <ele>683.15</ele>
        <time>2014-06-22T07:47:25Z</time>
      </trkpt>
      <trkpt lat="46.13214" lon="2.78296">
        <ele>683.15</ele>
        <time>2014-06-22T07:47:43Z</time>
      </trkpt>
      <trkpt lat="46.13186" lon="2.78288">
        <ele>682.67</ele>
        <time>2014-06-22T07:47:59Z</time>
      </trkpt>
      <trkpt lat="46.13159" lon="2.78281">
        <ele>682.19</ele>
        <time>2014-06-22T07:48:15Z</time>
      </trkpt>
      <trkpt lat="46.13133" lon="2.78276">
        <ele>683.15</ele>
        <time>2014-06-22T07:48:30Z</time>
      </trkpt>
      <trkpt lat="46.13107" lon="2.78268">
        <ele>682.67</ele>
        <time>2014-06-22T07:48:45Z</time>
      </trkpt>
      <trkpt lat="46.13076" lon="2.78258">
        <ele>681.71</ele>
        <time>2014-06-22T07:49:04Z</time>
      </trkpt>
      <trkpt lat="46.13047" lon="2.78249">
        <ele>681.71</ele>
        <time>2014-06-22T07:49:22Z</time>
      </trkpt>
      <trkpt lat="46.13017" lon="2.78241">
        <ele>685.08</ele>
        <time>2014-06-22T07:49:40Z</time>
      </trkpt>
      <trkpt lat="46.12993" lon="2.78237">
        <ele>687</ele>
        <time>2014-06-22T07:49:55Z</time>
      </trkpt>
      <trkpt lat="46.12959" lon="2.78226">
        <ele>689.88</ele>
        <time>2014-06-22T07:50:16Z</time>
      </trkpt>
      <trkpt lat="46.12933" lon="2.78215">
        <ele>691.33</ele>
        <time>2014-06-22T07:50:33Z</time>
      </trkpt>
      <trkpt lat="46.129" lon="2.78201">
        <ele>691.81</ele>
        <time>2014-06-22T07:50:53Z</time>
      </trkpt>
      <trkpt lat="46.12876" lon="2.78192">
        <ele>691.33</ele>
        <time>2014-06-22T07:51:08Z</time>
      </trkpt>
      <trkpt lat="46.12848" lon="2.78183">
        <ele>691.33</ele>
        <time>2014-06-22T07:51:25Z</time>
      </trkpt>
      <trkpt lat="46.12821" lon="2.78175">
        <ele>691.81</ele>
        <time>2014-06-22T07:51:41Z</time>
      </trkpt>
      <trkpt lat="46.12794" lon="2.78168">
        <ele>690.36</ele>
        <time>2014-06-22T07:51:59Z</time>
      </trkpt>
      <trkpt lat="46.12769" lon="2.7816">
        <ele>689.88</ele>
        <time>2014-06-22T07:52:14Z</time>
      </trkpt>
      <trkpt lat="46.1274" lon="2.78152">
        <ele>689.4</ele>
        <time>2014-06-22T07:52:32Z</time>
      </trkpt>
      <trkpt lat="46.12714" lon="2.78141">
        <ele>689.4</ele>
        <time>2014-06-22T07:52:47Z</time>
      </trkpt>
      <trkpt lat="46.12686" lon="2.78138">
        <ele>690.84</ele>
        <time>2014-06-22T07:53:04Z</time>
      </trkpt>
      <trkpt lat="46.1266" lon="2.78136">
        <ele>691.81</ele>
        <time>2014-06-22T07:53:20Z</time>
      </trkpt>
      <trkpt lat="46.1263" lon="2.78132">
        <ele>693.25</ele>
        <time>2014-06-22T07:53:38Z</time>
      </trkpt>
      <trkpt lat="46.12601" lon="2.78126">
        <ele>694.21</ele>
        <time>2014-06-22T07:53:56Z</time>
      </trkpt>
      <trkpt lat="46.12574" lon="2.78116">
        <ele>698.05</ele>
        <time>2014-06-22T07:54:13Z</time>
      </trkpt>
      <trkpt lat="46.12544" lon="2.78104">
        <ele>698.53</ele>
        <time>2014-06-22T07:54:31Z</time>
      </trkpt>
      <trkpt lat="46.12516" lon="2.78096">
        <ele>699.02</ele>
        <time>2014-06-22T07:54:49Z</time>
      </trkpt>
      <trkpt lat="46.12494" lon="2.78093">
        <ele>697.09</ele>
        <time>2014-06-22T07:55:04Z</time>
      </trkpt>
      <trkpt lat="46.12464" lon="2.78096">
        <ele>698.53</ele>
        <time>2014-06-22T07:55:22Z</time>
      </trkpt>
      <trkpt lat="46.12425" lon="2.78104">
        <ele>703.82</ele>
        <time>2014-06-22T07:55:44Z</time>
      </trkpt>
      <trkpt lat="46.12396" lon="2.78118">
        <ele>707.19</ele>
        <time>2014-06-22T07:56:01Z</time>
      </trkpt>
      <trkpt lat="46.12372" lon="2.78131">
        <ele>710.07</ele>
        <time>2014-06-22T07:56:16Z</time>
      </trkpt>
      <trkpt lat="46.12346" lon="2.78138">
        <ele>711.03</ele>
        <time>2014-06-22T07:56:31Z</time>
      </trkpt>
      <trkpt lat="46.12318" lon="2.78141">
        <ele>710.07</ele>
        <time>2014-06-22T07:56:48Z</time>
      </trkpt>
      <trkpt lat="46.12288" lon="2.78136">
        <ele>708.63</ele>
        <time>2014-06-22T07:57:06Z</time>
      </trkpt>
      <trkpt lat="46.12268" lon="2.78118">
        <ele>707.19</ele>
        <time>2014-06-22T07:57:21Z</time>
      </trkpt>
      <trkpt lat="46.12245" lon="2.78094">
        <ele>705.26</ele>
        <time>2014-06-22T07:57:38Z</time>
      </trkpt>
      <trkpt lat="46.12224" lon="2.78072">
        <ele>703.82</ele>
        <time>2014-06-22T07:57:54Z</time>
      </trkpt>
      <trkpt lat="46.12205" lon="2.78055">
        <ele>700.94</ele>
        <time>2014-06-22T07:58:09Z</time>
      </trkpt>
      <trkpt lat="46.12191" lon="2.78059">
        <ele>699.02</ele>
        <time>2014-06-22T07:58:19Z</time>
      </trkpt>
      <trkpt lat="46.12189" lon="2.78066">
        <ele>699.5</ele>
        <time>2014-06-22T07:58:23Z</time>
      </trkpt>
      <trkpt lat="46.12184" lon="2.78108">
        <ele>699.5</ele>
        <time>2014-06-22T07:58:41Z</time>
      </trkpt>
      <trkpt lat="46.12186" lon="2.7815">
        <ele>699.98</ele>
        <time>2014-06-22T07:58:58Z</time>
      </trkpt>
      <trkpt lat="46.1219" lon="2.78183">
        <ele>699.98</ele>
        <time>2014-06-22T07:59:13Z</time>
      </trkpt>
      <trkpt lat="46.12194" lon="2.78227">
        <ele>702.38</ele>
        <time>2014-06-22T07:59:30Z</time>
      </trkpt>
      <trkpt lat="46.12196" lon="2.7827">
        <ele>703.34</ele>
        <time>2014-06-22T07:59:47Z</time>
      </trkpt>
      <trkpt lat="46.12201" lon="2.78309">
        <ele>703.34</ele>
        <time>2014-06-22T08:00:04Z</time>
      </trkpt>
      <trkpt lat="46.122" lon="2.78356">
        <ele>705.75</ele>
        <time>2014-06-22T08:00:23Z</time>
      </trkpt>
      <trkpt lat="46.12193" lon="2.78398">
        <ele>707.67</ele>
        <time>2014-06-22T08:00:40Z</time>
      </trkpt>
      <trkpt lat="46.12188" lon="2.78439">
        <ele>707.19</ele>
        <time>2014-06-22T08:00:58Z</time>
      </trkpt>
      <trkpt lat="46.12181" lon="2.78481">
        <ele>708.63</ele>
        <time>2014-06-22T08:01:15Z</time>
      </trkpt>
      <trkpt lat="46.12177" lon="2.78502">
        <ele>709.59</ele>
        <time>2014-06-22T08:01:24Z</time>
      </trkpt>
      <trkpt lat="46.1217" lon="2.78549">
        <ele>711.03</ele>
        <time>2014-06-22T08:01:43Z</time>
      </trkpt>
      <trkpt lat="46.12171" lon="2.78589">
        <ele>712.47</ele>
        <time>2014-06-22T08:02:00Z</time>
      </trkpt>
      <trkpt lat="46.12155" lon="2.78613">
        <ele>710.55</ele>
        <time>2014-06-22T08:02:15Z</time>
      </trkpt>
      <trkpt lat="46.12151" lon="2.78616">
        <ele>709.59</ele>
        <time>2014-06-22T08:02:18Z</time>
      </trkpt>
      <trkpt lat="46.12132" lon="2.78608">
        <ele>706.71</ele>
        <time>2014-06-22T08:02:29Z</time>
      </trkpt>
      <trkpt lat="46.12102" lon="2.78602">
        <ele>703.82</ele>
        <time>2014-06-22T08:02:48Z</time>
      </trkpt>
      <trkpt lat="46.12084" lon="2.78624">
        <ele>701.42</ele>
        <time>2014-06-22T08:03:05Z</time>
      </trkpt>
      <trkpt lat="46.12069" lon="2.78656">
        <ele>702.86</ele>
        <time>2014-06-22T08:03:19Z</time>
      </trkpt>
      <trkpt lat="46.12044" lon="2.78684">
        <ele>702.38</ele>
        <time>2014-06-22T08:03:36Z</time>
      </trkpt>
      <trkpt lat="46.12009" lon="2.78694">
        <ele>697.09</ele>
        <time>2014-06-22T08:03:54Z</time>
      </trkpt>
      <trkpt lat="46.11987" lon="2.78708">
        <ele>694.69</ele>
        <time>2014-06-22T08:04:08Z</time>
      </trkpt>
      <trkpt lat="46.11985" lon="2.78731">
        <ele>694.21</ele>
        <time>2014-06-22T08:04:26Z</time>
      </trkpt>
      <trkpt lat="46.11986" lon="2.78756">
        <ele>695.17</ele>
        <time>2014-06-22T08:04:37Z</time>
      </trkpt>
      <trkpt lat="46.12009" lon="2.78793">
        <ele>693.73</ele>
        <time>2014-06-22T08:04:56Z</time>
      </trkpt>
      <trkpt lat="46.12025" lon="2.78828">
        <ele>694.21</ele>
        <time>2014-06-22T08:05:12Z</time>
      </trkpt>
      <trkpt lat="46.12048" lon="2.78861">
        <ele>690.36</ele>
        <time>2014-06-22T08:05:29Z</time>
      </trkpt>
      <trkpt lat="46.12057" lon="2.78898">
        <ele>688.92</ele>
        <time>2014-06-22T08:05:45Z</time>
      </trkpt>
      <trkpt lat="46.12061" lon="2.78937">
        <ele>684.12</ele>
        <time>2014-06-22T08:06:03Z</time>
      </trkpt>
      <trkpt lat="46.12061" lon="2.78981">
        <ele>679.31</ele>
        <time>2014-06-22T08:06:22Z</time>
      </trkpt>
      <trkpt lat="46.1206" lon="2.7903">
        <ele>679.79</ele>
        <time>2014-06-22T08:06:38Z</time>
      </trkpt>
      <trkpt lat="46.12059" lon="2.79071">
        <ele>677.87</ele>
        <time>2014-06-22T08:06:57Z</time>
      </trkpt>
      <trkpt lat="46.12046" lon="2.79106">
        <ele>674.98</ele>
        <time>2014-06-22T08:07:13Z</time>
      </trkpt>
      <trkpt lat="46.12044" lon="2.79139">
        <ele>673.06</ele>
        <time>2014-06-22T08:07:29Z</time>
      </trkpt>
      <trkpt lat="46.12035" lon="2.79174">
        <ele>670.66</ele>
        <time>2014-06-22T08:07:44Z</time>
      </trkpt>
      <trkpt lat="46.12028" lon="2.7921">
        <ele>665.85</ele>
        <time>2014-06-22T08:08:00Z</time>
      </trkpt>
      <trkpt lat="46.1203" lon="2.7926">
        <ele>666.33</ele>
        <time>2014-06-22T08:08:16Z</time>
      </trkpt>
      <trkpt lat="46.12024" lon="2.79289">
        <ele>664.41</ele>
        <time>2014-06-22T08:08:32Z</time>
      </trkpt>
      <trkpt lat="46.12019" lon="2.79317">
        <ele>659.12</ele>
        <time>2014-06-22T08:08:47Z</time>
      </trkpt>
      <trkpt lat="46.12019" lon="2.79336">
        <ele>653.35</ele>
        <time>2014-06-22T08:09:04Z</time>
      </trkpt>
      <trkpt lat="46.12015" lon="2.79373">
        <ele>644.7</ele>
        <time>2014-06-22T08:09:22Z</time>
      </trkpt>
      <trkpt lat="46.12009" lon="2.79401">
        <ele>637.01</ele>
        <time>2014-06-22T08:09:38Z</time>
      </trkpt>
      <trkpt lat="46.12006" lon="2.7943">
        <ele>637.49</ele>
        <time>2014-06-22T08:09:52Z</time>
      </trkpt>
      <trkpt lat="46.11998" lon="2.79459">
        <ele>637.49</ele>
        <time>2014-06-22T08:10:02Z</time>
      </trkpt>
      <trkpt lat="46.11998" lon="2.79507">
        <ele>637.01</ele>
        <time>2014-06-22T08:10:20Z</time>
      </trkpt>
      <trkpt lat="46.12002" lon="2.79555">
        <ele>641.34</ele>
        <time>2014-06-22T08:10:36Z</time>
      </trkpt>
      <trkpt lat="46.11992" lon="2.79583">
        <ele>642.3</ele>
        <time>2014-06-22T08:10:49Z</time>
      </trkpt>
      <trkpt lat="46.11987" lon="2.79588">
        <ele>642.3</ele>
        <time>2014-06-22T08:10:53Z</time>
      </trkpt>
      <trkpt lat="46.11963" lon="2.79607">
        <ele>640.38</ele>
        <time>2014-06-22T08:11:08Z</time>
      </trkpt>
      <trkpt lat="46.11945" lon="2.79636">
        <ele>639.89</ele>
        <time>2014-06-22T08:11:25Z</time>
      </trkpt>
      <trkpt lat="46.11933" lon="2.7966">
        <ele>642.3</ele>
        <time>2014-06-22T08:11:37Z</time>
      </trkpt>
      <trkpt lat="46.11925" lon="2.79693">
        <ele>639.89</ele>
        <time>2014-06-22T08:11:52Z</time>
      </trkpt>
      <trkpt lat="46.11921" lon="2.79739">
        <ele>643.26</ele>
        <time>2014-06-22T08:12:08Z</time>
      </trkpt>
      <trkpt lat="46.11916" lon="2.79761">
        <ele>646.62</ele>
        <time>2014-06-22T08:12:17Z</time>
      </trkpt>
      <trkpt lat="46.11915" lon="2.79765">
        <ele>646.62</ele>
        <time>2014-06-22T08:12:19Z</time>
      </trkpt>
      <trkpt lat="46.11906" lon="2.79771">
        <ele>646.62</ele>
        <time>2014-06-22T08:12:25Z</time>
      </trkpt>
      <trkpt lat="46.11868" lon="2.79763">
        <ele>644.7</ele>
        <time>2014-06-22T08:12:43Z</time>
      </trkpt>
      <trkpt lat="46.11843" lon="2.79759">
        <ele>642.78</ele>
        <time>2014-06-22T08:12:59Z</time>
      </trkpt>
      <trkpt lat="46.11816" lon="2.7975">
        <ele>637.01</ele>
        <time>2014-06-22T08:13:19Z</time>
      </trkpt>
      <trkpt lat="46.11785" lon="2.79751">
        <ele>637.49</ele>
        <time>2014-06-22T08:13:35Z</time>
      </trkpt>
      <trkpt lat="46.11761" lon="2.79758">
        <ele>637.97</ele>
        <time>2014-06-22T08:13:51Z</time>
      </trkpt>
      <trkpt lat="46.11738" lon="2.79761">
        <ele>637.49</ele>
        <time>2014-06-22T08:14:07Z</time>
      </trkpt>
      <trkpt lat="46.11715" lon="2.79767">
        <ele>635.09</ele>
        <time>2014-06-22T08:14:22Z</time>
      </trkpt>
      <trkpt lat="46.11702" lon="2.79764">
        <ele>632.68</ele>
        <time>2014-06-22T08:14:30Z</time>
      </trkpt>
      <trkpt lat="46.11688" lon="2.79765">
        <ele>632.68</ele>
        <time>2014-06-22T08:14:37Z</time>
      </trkpt>
      <trkpt lat="46.11664" lon="2.79763">
        <ele>637.49</ele>
        <time>2014-06-22T08:14:49Z</time>
      </trkpt>
      <trkpt lat="46.11635" lon="2.79748">
        <ele>642.3</ele>
        <time>2014-06-22T08:15:06Z</time>
      </trkpt>
      <trkpt lat="46.11618" lon="2.79714">
        <ele>637.01</ele>
        <time>2014-06-22T08:15:26Z</time>
      </trkpt>
      <trkpt lat="46.11614" lon="2.79684">
        <ele>633.17</ele>
        <time>2014-06-22T08:15:46Z</time>
      </trkpt>
      <trkpt lat="46.11617" lon="2.79683">
        <ele>633.65</ele>
        <time>2014-06-22T08:15:48Z</time>
      </trkpt>
      <trkpt lat="46.11641" lon="2.79682">
        <ele>642.78</ele>
        <time>2014-06-22T08:16:05Z</time>
      </trkpt>
      <trkpt lat="46.11667" lon="2.79675">
        <ele>650.95</ele>
        <time>2014-06-22T08:16:24Z</time>
      </trkpt>
      <trkpt lat="46.11684" lon="2.79673">
        <ele>656.24</ele>
        <time>2014-06-22T08:16:41Z</time>
      </trkpt>
      <trkpt lat="46.11716" lon="2.79659">
        <ele>662.49</ele>
        <time>2014-06-22T08:17:00Z</time>
      </trkpt>
      <trkpt lat="46.11709" lon="2.79639">
        <ele>663.93</ele>
        <time>2014-06-22T08:17:16Z</time>
      </trkpt>
      <trkpt lat="46.11686" lon="2.79611">
        <ele>668.73</ele>
        <time>2014-06-22T08:17:32Z</time>
      </trkpt>
      <trkpt lat="46.11681" lon="2.79593">
        <ele>669.7</ele>
        <time>2014-06-22T08:17:42Z</time>
      </trkpt>
      <trkpt lat="46.11667" lon="2.79558">
        <ele>679.79</ele>
        <time>2014-06-22T08:18:02Z</time>
      </trkpt>
      <trkpt lat="46.1166" lon="2.79524">
        <ele>688.44</ele>
        <time>2014-06-22T08:18:22Z</time>
      </trkpt>
      <trkpt lat="46.1166" lon="2.79521">
        <ele>688.92</ele>
        <time>2014-06-22T08:18:23Z</time>
      </trkpt>
      <trkpt lat="46.11654" lon="2.79498">
        <ele>693.25</ele>
        <time>2014-06-22T08:18:36Z</time>
      </trkpt>
      <trkpt lat="46.11637" lon="2.79463">
        <ele>695.65</ele>
        <time>2014-06-22T08:18:55Z</time>
      </trkpt>
      <trkpt lat="46.11616" lon="2.7943">
        <ele>698.05</ele>
        <time>2014-06-22T08:19:14Z</time>
      </trkpt>
      <trkpt lat="46.11613" lon="2.79414">
        <ele>698.53</ele>
        <time>2014-06-22T08:19:24Z</time>
      </trkpt>
      <trkpt lat="46.11613" lon="2.794">
        <ele>699.02</ele>
        <time>2014-06-22T08:19:30Z</time>
      </trkpt>
      <trkpt lat="46.11613" lon="2.79381">
        <ele>700.46</ele>
        <time>2014-06-22T08:19:40Z</time>
      </trkpt>
      <trkpt lat="46.11611" lon="2.79368">
        <ele>700.46</ele>
        <time>2014-06-22T08:19:47Z</time>
      </trkpt>
      <trkpt lat="46.116" lon="2.79329">
        <ele>700.46</ele>
        <time>2014-06-22T08:20:07Z</time>
      </trkpt>
      <trkpt lat="46.11578" lon="2.79288">
        <ele>706.23</ele>
        <time>2014-06-22T08:20:26Z</time>
      </trkpt>
      <trkpt lat="46.11577" lon="2.79287">
        <ele>706.71</ele>
        <time>2014-06-22T08:20:47Z</time>
      </trkpt>
      <trkpt lat="46.11578" lon="2.79286">
        <ele>706.23</ele>
        <time>2014-06-22T08:21:12Z</time>
      </trkpt>
      <trkpt lat="46.11577" lon="2.79286">
        <ele>706.23</ele>
        <time>2014-06-22T08:21:36Z</time>
      </trkpt>
      <trkpt lat="46.11577" lon="2.79287">
        <ele>706.23</ele>
        <time>2014-06-22T08:22:00Z</time>
      </trkpt>
      <trkpt lat="46.11577" lon="2.79287">
        <ele>706.23</ele>
        <time>2014-06-22T08:22:25Z</time>
      </trkpt>
      <trkpt lat="46.11576" lon="2.79287">
        <ele>705.75</ele>
        <time>2014-06-22T08:22:48Z</time>
      </trkpt>
      <trkpt lat="46.11577" lon="2.79287">
        <ele>705.75</ele>
        <time>2014-06-22T08:23:10Z</time>
      </trkpt>
      <trkpt lat="46.11577" lon="2.79287">
        <ele>705.75</ele>
        <time>2014-06-22T08:23:35Z</time>
      </trkpt>
      <trkpt lat="46.11574" lon="2.7929">
        <ele>704.78</ele>
        <time>2014-06-22T08:23:58Z</time>
      </trkpt>
      <trkpt lat="46.1158" lon="2.79284">
        <ele>707.67</ele>
        <time>2014-06-22T08:24:19Z</time>
      </trkpt>
      <trkpt lat="46.11582" lon="2.79282">
        <ele>707.19</ele>
        <time>2014-06-22T08:24:43Z</time>
      </trkpt>
      <trkpt lat="46.11575" lon="2.79277">
        <ele>734.58</ele>
        <time>2014-06-22T08:25:26Z</time>
      </trkpt>
      <trkpt lat="46.11581" lon="2.79287">
        <ele>739.87</ele>
        <time>2014-06-22T08:25:46Z</time>
      </trkpt>
      <trkpt lat="46.11567" lon="2.79291">
        <ele>741.31</ele>
        <time>2014-06-22T08:26:01Z</time>
      </trkpt>
      <trkpt lat="46.11551" lon="2.79279">
        <ele>738.91</ele>
        <time>2014-06-22T08:26:17Z</time>
      </trkpt>
      <trkpt lat="46.11541" lon="2.79246">
        <ele>736.51</ele>
        <time>2014-06-22T08:26:35Z</time>
      </trkpt>
      <trkpt lat="46.11524" lon="2.79218">
        <ele>734.1</ele>
        <time>2014-06-22T08:26:51Z</time>
      </trkpt>
      <trkpt lat="46.11508" lon="2.79189">
        <ele>731.7</ele>
        <time>2014-06-22T08:27:08Z</time>
      </trkpt>
      <trkpt lat="46.11492" lon="2.79165">
        <ele>729.78</ele>
        <time>2014-06-22T08:27:24Z</time>
      </trkpt>
      <trkpt lat="46.11473" lon="2.79137">
        <ele>728.82</ele>
        <time>2014-06-22T08:27:39Z</time>
      </trkpt>
      <trkpt lat="46.11457" lon="2.79112">
        <ele>724.01</ele>
        <time>2014-06-22T08:27:58Z</time>
      </trkpt>
      <trkpt lat="46.11442" lon="2.791">
        <ele>714.4</ele>
        <time>2014-06-22T08:28:12Z</time>
      </trkpt>
      <trkpt lat="46.11427" lon="2.79089">
        <ele>710.07</ele>
        <time>2014-06-22T08:28:29Z</time>
      </trkpt>
      <trkpt lat="46.11405" lon="2.7907">
        <ele>703.34</ele>
        <time>2014-06-22T08:28:46Z</time>
      </trkpt>
      <trkpt lat="46.1139" lon="2.79048">
        <ele>696.61</ele>
        <time>2014-06-22T08:29:02Z</time>
      </trkpt>
      <trkpt lat="46.11371" lon="2.79017">
        <ele>692.29</ele>
        <time>2014-06-22T08:29:18Z</time>
      </trkpt>
      <trkpt lat="46.11365" lon="2.79009">
        <ele>691.81</ele>
        <time>2014-06-22T08:29:23Z</time>
      </trkpt>
      <trkpt lat="46.11356" lon="2.78977">
        <ele>691.81</ele>
        <time>2014-06-22T08:29:40Z</time>
      </trkpt>
      <trkpt lat="46.11342" lon="2.78942">
        <ele>689.88</ele>
        <time>2014-06-22T08:29:58Z</time>
      </trkpt>
      <trkpt lat="46.11331" lon="2.78913">
        <ele>687.48</ele>
        <time>2014-06-22T08:30:15Z</time>
      </trkpt>
      <trkpt lat="46.11315" lon="2.78877">
        <ele>684.12</ele>
        <time>2014-06-22T08:30:31Z</time>
      </trkpt>
      <trkpt lat="46.11306" lon="2.78862">
        <ele>682.67</ele>
        <time>2014-06-22T08:30:37Z</time>
      </trkpt>
      <trkpt lat="46.11269" lon="2.78865">
        <ele>710.07</ele>
        <time>2014-06-22T08:30:53Z</time>
      </trkpt>
      <trkpt lat="46.11265" lon="2.78898">
        <ele>703.34</ele>
        <time>2014-06-22T08:31:10Z</time>
      </trkpt>
      <trkpt lat="46.11254" lon="2.78935">
        <ele>704.78</ele>
        <time>2014-06-22T08:31:24Z</time>
      </trkpt>
      <trkpt lat="46.11242" lon="2.78967">
        <ele>707.67</ele>
        <time>2014-06-22T08:31:37Z</time>
      </trkpt>
      <trkpt lat="46.11222" lon="2.78991">
        <ele>704.3</ele>
        <time>2014-06-22T08:31:53Z</time>
      </trkpt>
      <trkpt lat="46.11195" lon="2.79011">
        <ele>703.34</ele>
        <time>2014-06-22T08:32:11Z</time>
      </trkpt>
      <trkpt lat="46.11183" lon="2.79017">
        <ele>700.94</ele>
        <time>2014-06-22T08:32:22Z</time>
      </trkpt>
      <trkpt lat="46.11152" lon="2.79049">
        <ele>702.38</ele>
        <time>2014-06-22T08:32:40Z</time>
      </trkpt>
      <trkpt lat="46.1113" lon="2.79087">
        <ele>707.19</ele>
        <time>2014-06-22T08:32:58Z</time>
      </trkpt>
      <trkpt lat="46.11111" lon="2.79132">
        <ele>706.23</ele>
        <time>2014-06-22T08:33:17Z</time>
      </trkpt>
      <trkpt lat="46.11096" lon="2.7917">
        <ele>702.86</ele>
        <time>2014-06-22T08:33:33Z</time>
      </trkpt>
      <trkpt lat="46.11087" lon="2.79201">
        <ele>699.98</ele>
        <time>2014-06-22T08:33:47Z</time>
      </trkpt>
      <trkpt lat="46.11086" lon="2.79205">
        <ele>699.5</ele>
        <time>2014-06-22T08:33:49Z</time>
      </trkpt>
      <trkpt lat="46.11075" lon="2.7924">
        <ele>694.69</ele>
        <time>2014-06-22T08:34:05Z</time>
      </trkpt>
      <trkpt lat="46.1107" lon="2.79274">
        <ele>690.36</ele>
        <time>2014-06-22T08:34:18Z</time>
      </trkpt>
      <trkpt lat="46.11058" lon="2.79315">
        <ele>685.08</ele>
        <time>2014-06-22T08:34:35Z</time>
      </trkpt>
      <trkpt lat="46.11046" lon="2.79338">
        <ele>680.75</ele>
        <time>2014-06-22T08:34:47Z</time>
      </trkpt>
      <trkpt lat="46.11027" lon="2.79359">
        <ele>674.98</ele>
        <time>2014-06-22T08:35:00Z</time>
      </trkpt>
      <trkpt lat="46.11017" lon="2.79368">
        <ele>665.85</ele>
        <time>2014-06-22T08:35:15Z</time>
      </trkpt>
      <trkpt lat="46.11017" lon="2.79365">
        <ele>665.37</ele>
        <time>2014-06-22T08:35:16Z</time>
      </trkpt>
      <trkpt lat="46.11029" lon="2.79325">
        <ele>660.08</ele>
        <time>2014-06-22T08:35:34Z</time>
      </trkpt>
      <trkpt lat="46.11035" lon="2.79282">
        <ele>663.45</ele>
        <time>2014-06-22T08:35:54Z</time>
      </trkpt>
      <trkpt lat="46.1104" lon="2.7924">
        <ele>668.25</ele>
        <time>2014-06-22T08:36:13Z</time>
      </trkpt>
      <trkpt lat="46.11037" lon="2.79198">
        <ele>669.7</ele>
        <time>2014-06-22T08:36:31Z</time>
      </trkpt>
      <trkpt lat="46.11038" lon="2.79155">
        <ele>672.1</ele>
        <time>2014-06-22T08:36:48Z</time>
      </trkpt>
      <trkpt lat="46.11042" lon="2.79127">
        <ele>671.62</ele>
        <time>2014-06-22T08:37:00Z</time>
      </trkpt>
      <trkpt lat="46.11049" lon="2.79092">
        <ele>671.14</ele>
        <time>2014-06-22T08:37:17Z</time>
      </trkpt>
      <trkpt lat="46.11052" lon="2.79071">
        <ele>671.14</ele>
        <time>2014-06-22T08:37:28Z</time>
      </trkpt>
      <trkpt lat="46.11066" lon="2.79042">
        <ele>670.66</ele>
        <time>2014-06-22T08:37:43Z</time>
      </trkpt>
      <trkpt lat="46.11083" lon="2.79017">
        <ele>668.73</ele>
        <time>2014-06-22T08:38:00Z</time>
      </trkpt>
      <trkpt lat="46.11092" lon="2.79006">
        <ele>668.73</ele>
        <time>2014-06-22T08:38:07Z</time>
      </trkpt>
      <trkpt lat="46.11101" lon="2.78989">
        <ele>668.73</ele>
        <time>2014-06-22T08:38:19Z</time>
      </trkpt>
      <trkpt lat="46.11116" lon="2.78964">
        <ele>667.77</ele>
        <time>2014-06-22T08:38:32Z</time>
      </trkpt>
      <trkpt lat="46.11128" lon="2.78932">
        <ele>665.37</ele>
        <time>2014-06-22T08:38:49Z</time>
      </trkpt>
      <trkpt lat="46.1113" lon="2.78929">
        <ele>664.89</ele>
        <time>2014-06-22T08:38:51Z</time>
      </trkpt>
      <trkpt lat="46.11134" lon="2.78917">
        <ele>664.41</ele>
        <time>2014-06-22T08:38:57Z</time>
      </trkpt>
      <trkpt lat="46.11146" lon="2.78894">
        <ele>662.97</ele>
        <time>2014-06-22T08:39:09Z</time>
      </trkpt>
      <trkpt lat="46.11148" lon="2.78855">
        <ele>666.33</ele>
        <time>2014-06-22T08:39:27Z</time>
      </trkpt>
      <trkpt lat="46.11147" lon="2.78852">
        <ele>667.29</ele>
        <time>2014-06-22T08:39:29Z</time>
      </trkpt>
      <trkpt lat="46.11134" lon="2.7881">
        <ele>674.02</ele>
        <time>2014-06-22T08:39:48Z</time>
      </trkpt>
      <trkpt lat="46.11123" lon="2.78778">
        <ele>676.91</ele>
        <time>2014-06-22T08:40:05Z</time>
      </trkpt>
      <trkpt lat="46.11125" lon="2.78745">
        <ele>680.27</ele>
        <time>2014-06-22T08:40:20Z</time>
      </trkpt>
      <trkpt lat="46.11123" lon="2.7871">
        <ele>686.52</ele>
        <time>2014-06-22T08:40:36Z</time>
      </trkpt>
      <trkpt lat="46.11113" lon="2.78694">
        <ele>698.05</ele>
        <time>2014-06-22T08:40:51Z</time>
      </trkpt>
      <trkpt lat="46.1108" lon="2.78697">
        <ele>708.63</ele>
        <time>2014-06-22T08:41:11Z</time>
      </trkpt>
      <trkpt lat="46.11057" lon="2.78706">
        <ele>713.44</ele>
        <time>2014-06-22T08:41:28Z</time>
      </trkpt>
      <trkpt lat="46.11032" lon="2.78717">
        <ele>715.36</ele>
        <time>2014-06-22T08:41:44Z</time>
      </trkpt>
      <trkpt lat="46.11006" lon="2.78721">
        <ele>717.76</ele>
        <time>2014-06-22T08:41:59Z</time>
      </trkpt>
      <trkpt lat="46.10974" lon="2.78728">
        <ele>719.2</ele>
        <time>2014-06-22T08:42:18Z</time>
      </trkpt>
      <trkpt lat="46.10952" lon="2.78734">
        <ele>720.65</ele>
        <time>2014-06-22T08:42:34Z</time>
      </trkpt>
      <trkpt lat="46.10931" lon="2.78736">
        <ele>722.09</ele>
        <time>2014-06-22T08:42:49Z</time>
      </trkpt>
      <trkpt lat="46.10908" lon="2.78741">
        <ele>726.41</ele>
        <time>2014-06-22T08:43:08Z</time>
      </trkpt>
      <trkpt lat="46.10902" lon="2.78743">
        <ele>726.89</ele>
        <time>2014-06-22T08:43:13Z</time>
      </trkpt>
      <trkpt lat="46.10884" lon="2.78747">
        <ele>727.37</ele>
        <time>2014-06-22T08:43:25Z</time>
      </trkpt>
      <trkpt lat="46.10853" lon="2.78753">
        <ele>729.78</ele>
        <time>2014-06-22T08:43:44Z</time>
      </trkpt>
      <trkpt lat="46.1085" lon="2.78752">
        <ele>730.26</ele>
        <time>2014-06-22T08:43:46Z</time>
      </trkpt>
      <trkpt lat="46.10817" lon="2.78757">
        <ele>734.58</ele>
        <time>2014-06-22T08:44:03Z</time>
      </trkpt>
      <trkpt lat="46.10786" lon="2.78756">
        <ele>739.87</ele>
        <time>2014-06-22T08:44:18Z</time>
      </trkpt>
      <trkpt lat="46.10752" lon="2.78735">
        <ele>741.31</ele>
        <time>2014-06-22T08:44:36Z</time>
      </trkpt>
      <trkpt lat="46.1073" lon="2.78713">
        <ele>737.95</ele>
        <time>2014-06-22T08:44:52Z</time>
      </trkpt>
      <trkpt lat="46.10708" lon="2.78697">
        <ele>738.91</ele>
        <time>2014-06-22T08:45:09Z</time>
      </trkpt>
      <trkpt lat="46.10687" lon="2.7868">
        <ele>736.99</ele>
        <time>2014-06-22T08:45:25Z</time>
      </trkpt>
      <trkpt lat="46.10662" lon="2.78663">
        <ele>738.91</ele>
        <time>2014-06-22T08:45:43Z</time>
      </trkpt>
      <trkpt lat="46.10648" lon="2.78651">
        <ele>736.03</ele>
        <time>2014-06-22T08:45:56Z</time>
      </trkpt>
      <trkpt lat="46.10622" lon="2.78629">
        <ele>731.7</ele>
        <time>2014-06-22T08:46:10Z</time>
      </trkpt>
      <trkpt lat="46.10594" lon="2.78602">
        <ele>733.62</ele>
        <time>2014-06-22T08:46:26Z</time>
      </trkpt>
      <trkpt lat="46.10574" lon="2.78598">
        <ele>729.78</ele>
        <time>2014-06-22T08:46:42Z</time>
      </trkpt>
      <trkpt lat="46.10574" lon="2.78598">
        <ele>729.3</ele>
        <time>2014-06-22T08:46:43Z</time>
      </trkpt>
      <trkpt lat="46.10546" lon="2.78591">
        <ele>727.86</ele>
        <time>2014-06-22T08:46:59Z</time>
      </trkpt>
      <trkpt lat="46.10524" lon="2.78608">
        <ele>730.26</ele>
        <time>2014-06-22T08:47:16Z</time>
      </trkpt>
      <trkpt lat="46.10504" lon="2.78637">
        <ele>733.14</ele>
        <time>2014-06-22T08:47:33Z</time>
      </trkpt>
      <trkpt lat="46.10469" lon="2.78668">
        <ele>740.83</ele>
        <time>2014-06-22T08:47:53Z</time>
      </trkpt>
      <trkpt lat="46.10463" lon="2.78669">
        <ele>740.83</ele>
        <time>2014-06-22T08:47:56Z</time>
      </trkpt>
      <trkpt lat="46.10439" lon="2.78675">
        <ele>742.28</ele>
        <time>2014-06-22T08:48:10Z</time>
      </trkpt>
      <trkpt lat="46.10413" lon="2.78696">
        <ele>736.99</ele>
        <time>2014-06-22T08:48:29Z</time>
      </trkpt>
      <trkpt lat="46.10395" lon="2.78713">
        <ele>732.18</ele>
        <time>2014-06-22T08:48:45Z</time>
      </trkpt>
      <trkpt lat="46.1037" lon="2.78729">
        <ele>724.97</ele>
        <time>2014-06-22T08:49:03Z</time>
      </trkpt>
      <trkpt lat="46.10347" lon="2.78749">
        <ele>717.28</ele>
        <time>2014-06-22T08:49:22Z</time>
      </trkpt>
      <trkpt lat="46.10311" lon="2.78781">
        <ele>706.71</ele>
        <time>2014-06-22T08:49:42Z</time>
      </trkpt>
      <trkpt lat="46.10284" lon="2.78797">
        <ele>699.02</ele>
        <time>2014-06-22T08:49:59Z</time>
      </trkpt>
      <trkpt lat="46.10256" lon="2.78822">
        <ele>692.29</ele>
        <time>2014-06-22T08:50:18Z</time>
      </trkpt>
      <trkpt lat="46.10243" lon="2.7884">
        <ele>686.52</ele>
        <time>2014-06-22T08:50:33Z</time>
      </trkpt>
      <trkpt lat="46.1024" lon="2.78853">
        <ele>684.6</ele>
        <time>2014-06-22T08:50:38Z</time>
      </trkpt>
      <trkpt lat="46.10236" lon="2.78865">
        <ele>682.67</ele>
        <time>2014-06-22T08:50:42Z</time>
      </trkpt>
      <trkpt lat="46.10233" lon="2.7887">
        <ele>682.19</ele>
        <time>2014-06-22T08:50:44Z</time>
      </trkpt>
      <trkpt lat="46.10222" lon="2.78902">
        <ele>675.94</ele>
        <time>2014-06-22T08:50:59Z</time>
      </trkpt>
      <trkpt lat="46.10208" lon="2.78925">
        <ele>672.1</ele>
        <time>2014-06-22T08:51:13Z</time>
      </trkpt>
      <trkpt lat="46.10191" lon="2.78936">
        <ele>669.22</ele>
        <time>2014-06-22T08:51:26Z</time>
      </trkpt>
      <trkpt lat="46.10173" lon="2.7894">
        <ele>667.29</ele>
        <time>2014-06-22T08:51:39Z</time>
      </trkpt>
      <trkpt lat="46.10155" lon="2.78955">
        <ele>662.49</ele>
        <time>2014-06-22T08:51:53Z</time>
      </trkpt>
      <trkpt lat="46.10144" lon="2.78974">
        <ele>659.12</ele>
        <time>2014-06-22T08:52:00Z</time>
      </trkpt>
      <trkpt lat="46.10139" lon="2.7898">
        <ele>656.72</ele>
        <time>2014-06-22T08:52:04Z</time>
      </trkpt>
      <trkpt lat="46.10135" lon="2.78995">
        <ele>655.28</ele>
        <time>2014-06-22T08:52:12Z</time>
      </trkpt>
      <trkpt lat="46.10141" lon="2.79018">
        <ele>652.87</ele>
        <time>2014-06-22T08:52:26Z</time>
      </trkpt>
      <trkpt lat="46.10142" lon="2.79026">
        <ele>651.91</ele>
        <time>2014-06-22T08:52:35Z</time>
      </trkpt>
      <trkpt lat="46.10153" lon="2.79044">
        <ele>651.43</ele>
        <time>2014-06-22T08:52:47Z</time>
      </trkpt>
      <trkpt lat="46.10172" lon="2.79062">
        <ele>649.51</ele>
        <time>2014-06-22T08:53:02Z</time>
      </trkpt>
      <trkpt lat="46.10191" lon="2.79085">
        <ele>646.14</ele>
        <time>2014-06-22T08:53:16Z</time>
      </trkpt>
      <trkpt lat="46.10191" lon="2.79094">
        <ele>644.7</ele>
        <time>2014-06-22T08:53:21Z</time>
      </trkpt>
      <trkpt lat="46.10171" lon="2.79091">
        <ele>641.34</ele>
        <time>2014-06-22T08:53:36Z</time>
      </trkpt>
      <trkpt lat="46.10144" lon="2.79081">
        <ele>635.57</ele>
        <time>2014-06-22T08:53:53Z</time>
      </trkpt>
      <trkpt lat="46.10113" lon="2.79076">
        <ele>630.76</ele>
        <time>2014-06-22T08:54:08Z</time>
      </trkpt>
      <trkpt lat="46.10087" lon="2.7907">
        <ele>624.51</ele>
        <time>2014-06-22T08:54:22Z</time>
      </trkpt>
      <trkpt lat="46.10075" lon="2.79056">
        <ele>619.23</ele>
        <time>2014-06-22T08:54:32Z</time>
      </trkpt>
      <trkpt lat="46.10067" lon="2.79015">
        <ele>613.94</ele>
        <time>2014-06-22T08:54:48Z</time>
      </trkpt>
      <trkpt lat="46.10062" lon="2.78998">
        <ele>612.98</ele>
        <time>2014-06-22T08:54:56Z</time>
      </trkpt>
      <trkpt lat="46.10034" lon="2.78992">
        <ele>612.5</ele>
        <time>2014-06-22T08:55:12Z</time>
      </trkpt>
      <trkpt lat="46.1003" lon="2.79">
        <ele>611.54</ele>
        <time>2014-06-22T08:55:17Z</time>
      </trkpt>
      <trkpt lat="46.10019" lon="2.79022">
        <ele>614.42</ele>
        <time>2014-06-22T08:55:31Z</time>
      </trkpt>
      <trkpt lat="46.10017" lon="2.79022">
        <ele>615.86</ele>
        <time>2014-06-22T08:55:33Z</time>
      </trkpt>
      <trkpt lat="46.10009" lon="2.79009">
        <ele>621.63</ele>
        <time>2014-06-22T08:55:43Z</time>
      </trkpt>
      <trkpt lat="46.10013" lon="2.78973">
        <ele>625.96</ele>
        <time>2014-06-22T08:56:03Z</time>
      </trkpt>
      <trkpt lat="46.10007" lon="2.7893">
        <ele>629.8</ele>
        <time>2014-06-22T08:56:24Z</time>
      </trkpt>
      <trkpt lat="46.09998" lon="2.78924">
        <ele>631.24</ele>
        <time>2014-06-22T08:56:31Z</time>
      </trkpt>
      <trkpt lat="46.09973" lon="2.78921">
        <ele>638.93</ele>
        <time>2014-06-22T08:56:48Z</time>
      </trkpt>
      <trkpt lat="46.09956" lon="2.78923">
        <ele>644.7</ele>
        <time>2014-06-22T08:56:59Z</time>
      </trkpt>
      <trkpt lat="46.09927" lon="2.78928">
        <ele>655.28</ele>
        <time>2014-06-22T08:57:18Z</time>
      </trkpt>
      <trkpt lat="46.09908" lon="2.78915">
        <ele>660.56</ele>
        <time>2014-06-22T08:57:32Z</time>
      </trkpt>
      <trkpt lat="46.09907" lon="2.78894">
        <ele>663.93</ele>
        <time>2014-06-22T08:57:44Z</time>
      </trkpt>
      <trkpt lat="46.09914" lon="2.78861">
        <ele>669.22</ele>
        <time>2014-06-22T08:58:02Z</time>
      </trkpt>
      <trkpt lat="46.09918" lon="2.78819">
        <ele>672.58</ele>
        <time>2014-06-22T08:58:22Z</time>
      </trkpt>
      <trkpt lat="46.0992" lon="2.78782">
        <ele>674.98</ele>
        <time>2014-06-22T08:58:38Z</time>
      </trkpt>
      <trkpt lat="46.09922" lon="2.78742">
        <ele>677.39</ele>
        <time>2014-06-22T08:58:57Z</time>
      </trkpt>
      <trkpt lat="46.09924" lon="2.78709">
        <ele>681.23</ele>
        <time>2014-06-22T08:59:14Z</time>
      </trkpt>
      <trkpt lat="46.09924" lon="2.78698">
        <ele>683.15</ele>
        <time>2014-06-22T08:59:21Z</time>
      </trkpt>
      <trkpt lat="46.09926" lon="2.78679">
        <ele>684.12</ele>
        <time>2014-06-22T08:59:32Z</time>
      </trkpt>
      <trkpt lat="46.09925" lon="2.78635">
        <ele>687.96</ele>
        <time>2014-06-22T08:59:50Z</time>
      </trkpt>
      <trkpt lat="46.09921" lon="2.78609">
        <ele>688.44</ele>
        <time>2014-06-22T09:00:08Z</time>
      </trkpt>
      <trkpt lat="46.09919" lon="2.78581">
        <ele>685.56</ele>
        <time>2014-06-22T09:00:25Z</time>
      </trkpt>
      <trkpt lat="46.09912" lon="2.78548">
        <ele>686.52</ele>
        <time>2014-06-22T09:00:42Z</time>
      </trkpt>
      <trkpt lat="46.09903" lon="2.78507">
        <ele>688.44</ele>
        <time>2014-06-22T09:01:00Z</time>
      </trkpt>
      <trkpt lat="46.09904" lon="2.78488">
        <ele>689.88</ele>
        <time>2014-06-22T09:01:07Z</time>
      </trkpt>
      <trkpt lat="46.09905" lon="2.78449">
        <ele>693.73</ele>
        <time>2014-06-22T09:01:26Z</time>
      </trkpt>
      <trkpt lat="46.09907" lon="2.78415">
        <ele>692.29</ele>
        <time>2014-06-22T09:01:46Z</time>
      </trkpt>
      <trkpt lat="46.09898" lon="2.78368">
        <ele>700.94</ele>
        <time>2014-06-22T09:02:03Z</time>
      </trkpt>
      <trkpt lat="46.09886" lon="2.78325">
        <ele>715.84</ele>
        <time>2014-06-22T09:02:20Z</time>
      </trkpt>
      <trkpt lat="46.09891" lon="2.78283">
        <ele>724.01</ele>
        <time>2014-06-22T09:02:39Z</time>
      </trkpt>
      <trkpt lat="46.09898" lon="2.78248">
        <ele>724.49</ele>
        <time>2014-06-22T09:02:56Z</time>
      </trkpt>
      <trkpt lat="46.09897" lon="2.78198">
        <ele>730.26</ele>
        <time>2014-06-22T09:03:15Z</time>
      </trkpt>
      <trkpt lat="46.099" lon="2.7816">
        <ele>733.14</ele>
        <time>2014-06-22T09:03:31Z</time>
      </trkpt>
      <trkpt lat="46.09903" lon="2.78125">
        <ele>734.58</ele>
        <time>2014-06-22T09:03:47Z</time>
      </trkpt>
      <trkpt lat="46.09895" lon="2.78097">
        <ele>732.66</ele>
        <time>2014-06-22T09:04:00Z</time>
      </trkpt>
      <trkpt lat="46.09891" lon="2.7809">
        <ele>732.66</ele>
        <time>2014-06-22T09:04:05Z</time>
      </trkpt>
      <trkpt lat="46.0988" lon="2.78085">
        <ele>736.51</ele>
        <time>2014-06-22T09:04:11Z</time>
      </trkpt>
      <trkpt lat="46.09855" lon="2.78062">
        <ele>737.47</ele>
        <time>2014-06-22T09:04:31Z</time>
      </trkpt>
      <trkpt lat="46.09831" lon="2.7805">
        <ele>738.91</ele>
        <time>2014-06-22T09:04:50Z</time>
      </trkpt>
      <trkpt lat="46.09831" lon="2.7805">
        <ele>738.91</ele>
        <time>2014-06-22T09:05:19Z</time>
      </trkpt>
      <trkpt lat="46.09831" lon="2.7805">
        <ele>738.91</ele>
        <time>2014-06-22T09:05:39Z</time>
      </trkpt>
      <trkpt lat="46.09831" lon="2.78052">
        <ele>738.91</ele>
        <time>2014-06-22T09:06:03Z</time>
      </trkpt>
      <trkpt lat="46.09831" lon="2.78052">
        <ele>738.91</ele>
        <time>2014-06-22T09:06:30Z</time>
      </trkpt>
      <trkpt lat="46.09831" lon="2.78052">
        <ele>738.43</ele>
        <time>2014-06-22T09:06:50Z</time>
      </trkpt>
      <trkpt lat="46.0983" lon="2.78054">
        <ele>739.39</ele>
        <time>2014-06-22T09:07:07Z</time>
      </trkpt>
      <trkpt lat="46.09829" lon="2.78056">
        <ele>740.35</ele>
        <time>2014-06-22T09:07:24Z</time>
      </trkpt>
      <trkpt lat="46.09829" lon="2.78056">
        <ele>740.35</ele>
        <time>2014-06-22T09:07:53Z</time>
      </trkpt>
      <trkpt lat="46.0983" lon="2.78056">
        <ele>740.83</ele>
        <time>2014-06-22T09:08:18Z</time>
      </trkpt>
      <trkpt lat="46.09829" lon="2.78056">
        <ele>740.83</ele>
        <time>2014-06-22T09:08:44Z</time>
      </trkpt>
      <trkpt lat="46.09829" lon="2.78056">
        <ele>740.83</ele>
        <time>2014-06-22T09:09:10Z</time>
      </trkpt>
      <trkpt lat="46.09829" lon="2.78056">
        <ele>740.83</ele>
        <time>2014-06-22T09:09:37Z</time>
      </trkpt>
      <trkpt lat="46.09829" lon="2.78057">
        <ele>741.31</ele>
        <time>2014-06-22T09:10:06Z</time>
      </trkpt>
      <trkpt lat="46.09829" lon="2.78057">
        <ele>741.31</ele>
        <time>2014-06-22T09:10:27Z</time>
      </trkpt>
      <trkpt lat="46.09814" lon="2.78041">
        <ele>743.72</ele>
        <time>2014-06-22T09:10:43Z</time>
      </trkpt>
      <trkpt lat="46.09795" lon="2.78022">
        <ele>746.12</ele>
        <time>2014-06-22T09:10:58Z</time>
      </trkpt>
      <trkpt lat="46.09798" lon="2.78009">
        <ele>746.12</ele>
        <time>2014-06-22T09:11:05Z</time>
      </trkpt>
      <trkpt lat="46.09804" lon="2.78006">
        <ele>745.64</ele>
        <time>2014-06-22T09:11:09Z</time>
      </trkpt>
      <trkpt lat="46.09815" lon="2.77994">
        <ele>746.12</ele>
        <time>2014-06-22T09:11:17Z</time>
      </trkpt>
      <trkpt lat="46.09828" lon="2.7797">
        <ele>746.6</ele>
        <time>2014-06-22T09:11:29Z</time>
      </trkpt>
      <trkpt lat="46.09843" lon="2.77937">
        <ele>744.2</ele>
        <time>2014-06-22T09:11:44Z</time>
      </trkpt>
      <trkpt lat="46.09855" lon="2.7791">
        <ele>743.24</ele>
        <time>2014-06-22T09:11:57Z</time>
      </trkpt>
      <trkpt lat="46.09868" lon="2.77878">
        <ele>742.76</ele>
        <time>2014-06-22T09:12:11Z</time>
      </trkpt>
      <trkpt lat="46.09883" lon="2.77847">
        <ele>742.76</ele>
        <time>2014-06-22T09:12:26Z</time>
      </trkpt>
      <trkpt lat="46.0989" lon="2.77828">
        <ele>743.72</ele>
        <time>2014-06-22T09:12:35Z</time>
      </trkpt>
      <trkpt lat="46.09903" lon="2.77808">
        <ele>745.16</ele>
        <time>2014-06-22T09:12:46Z</time>
      </trkpt>
      <trkpt lat="46.09906" lon="2.77805">
        <ele>744.68</ele>
        <time>2014-06-22T09:12:48Z</time>
      </trkpt>
      <trkpt lat="46.09931" lon="2.77785">
        <ele>745.16</ele>
        <time>2014-06-22T09:13:04Z</time>
      </trkpt>
      <trkpt lat="46.09952" lon="2.77769">
        <ele>744.2</ele>
        <time>2014-06-22T09:13:18Z</time>
      </trkpt>
      <trkpt lat="46.09974" lon="2.77744">
        <ele>743.24</ele>
        <time>2014-06-22T09:13:34Z</time>
      </trkpt>
      <trkpt lat="46.09986" lon="2.77707">
        <ele>742.28</ele>
        <time>2014-06-22T09:13:50Z</time>
      </trkpt>
      <trkpt lat="46.09996" lon="2.77673">
        <ele>744.68</ele>
        <time>2014-06-22T09:14:04Z</time>
      </trkpt>
      <trkpt lat="46.10007" lon="2.77633">
        <ele>745.16</ele>
        <time>2014-06-22T09:14:21Z</time>
      </trkpt>
      <trkpt lat="46.10019" lon="2.77602">
        <ele>743.24</ele>
        <time>2014-06-22T09:14:36Z</time>
      </trkpt>
      <trkpt lat="46.10038" lon="2.77588">
        <ele>744.2</ele>
        <time>2014-06-22T09:14:48Z</time>
      </trkpt>
      <trkpt lat="46.10058" lon="2.77574">
        <ele>743.72</ele>
        <time>2014-06-22T09:15:01Z</time>
      </trkpt>
      <trkpt lat="46.10082" lon="2.77553">
        <ele>743.72</ele>
        <time>2014-06-22T09:15:16Z</time>
      </trkpt>
      <trkpt lat="46.10099" lon="2.77535">
        <ele>743.72</ele>
        <time>2014-06-22T09:15:29Z</time>
      </trkpt>
      <trkpt lat="46.10124" lon="2.77533">
        <ele>742.76</ele>
        <time>2014-06-22T09:15:45Z</time>
      </trkpt>
      <trkpt lat="46.10152" lon="2.77524">
        <ele>741.79</ele>
        <time>2014-06-22T09:15:59Z</time>
      </trkpt>
      <trkpt lat="46.10174" lon="2.77515">
        <ele>742.28</ele>
        <time>2014-06-22T09:16:12Z</time>
      </trkpt>
      <trkpt lat="46.10195" lon="2.77509">
        <ele>740.83</ele>
        <time>2014-06-22T09:16:25Z</time>
      </trkpt>
      <trkpt lat="46.1022" lon="2.77503">
        <ele>737.95</ele>
        <time>2014-06-22T09:16:41Z</time>
      </trkpt>
      <trkpt lat="46.10249" lon="2.77494">
        <ele>735.07</ele>
        <time>2014-06-22T09:16:58Z</time>
      </trkpt>
      <trkpt lat="46.10274" lon="2.77483">
        <ele>733.14</ele>
        <time>2014-06-22T09:17:13Z</time>
      </trkpt>
      <trkpt lat="46.10302" lon="2.77484">
        <ele>730.26</ele>
        <time>2014-06-22T09:17:28Z</time>
      </trkpt>
      <trkpt lat="46.10321" lon="2.77491">
        <ele>729.3</ele>
        <time>2014-06-22T09:17:40Z</time>
      </trkpt>
      <trkpt lat="46.10346" lon="2.77498">
        <ele>728.82</ele>
        <time>2014-06-22T09:17:54Z</time>
      </trkpt>
      <trkpt lat="46.1037" lon="2.77506">
        <ele>728.82</ele>
        <time>2014-06-22T09:18:08Z</time>
      </trkpt>
      <trkpt lat="46.10389" lon="2.77516">
        <ele>726.89</ele>
        <time>2014-06-22T09:18:19Z</time>
      </trkpt>
      <trkpt lat="46.10397" lon="2.77519">
        <ele>725.93</ele>
        <time>2014-06-22T09:18:24Z</time>
      </trkpt>
      <trkpt lat="46.10404" lon="2.77521">
        <ele>725.45</ele>
        <time>2014-06-22T09:18:29Z</time>
      </trkpt>
      <trkpt lat="46.10426" lon="2.77532">
        <ele>726.41</ele>
        <time>2014-06-22T09:18:42Z</time>
      </trkpt>
      <trkpt lat="46.10443" lon="2.77546">
        <ele>726.89</ele>
        <time>2014-06-22T09:18:54Z</time>
      </trkpt>
      <trkpt lat="46.10462" lon="2.77561">
        <ele>726.89</ele>
        <time>2014-06-22T09:19:06Z</time>
      </trkpt>
      <trkpt lat="46.10482" lon="2.77578">
        <ele>729.3</ele>
        <time>2014-06-22T09:19:19Z</time>
      </trkpt>
      <trkpt lat="46.10504" lon="2.77591">
        <ele>731.7</ele>
        <time>2014-06-22T09:19:33Z</time>
      </trkpt>
      <trkpt lat="46.10511" lon="2.77595">
        <ele>732.18</ele>
        <time>2014-06-22T09:19:37Z</time>
      </trkpt>
      <trkpt lat="46.10532" lon="2.77609">
        <ele>735.07</ele>
        <time>2014-06-22T09:19:51Z</time>
      </trkpt>
      <trkpt lat="46.10556" lon="2.77623">
        <ele>739.39</ele>
        <time>2014-06-22T09:20:07Z</time>
      </trkpt>
      <trkpt lat="46.10557" lon="2.77624">
        <ele>739.87</ele>
        <time>2014-06-22T09:20:08Z</time>
      </trkpt>
      <trkpt lat="46.10563" lon="2.7763">
        <ele>741.31</ele>
        <time>2014-06-22T09:20:12Z</time>
      </trkpt>
      <trkpt lat="46.10588" lon="2.77651">
        <ele>744.68</ele>
        <time>2014-06-22T09:20:30Z</time>
      </trkpt>
      <trkpt lat="46.10605" lon="2.7767">
        <ele>747.08</ele>
        <time>2014-06-22T09:20:45Z</time>
      </trkpt>
      <trkpt lat="46.10633" lon="2.77686">
        <ele>747.08</ele>
        <time>2014-06-22T09:21:00Z</time>
      </trkpt>
      <trkpt lat="46.10658" lon="2.77701">
        <ele>746.12</ele>
        <time>2014-06-22T09:21:16Z</time>
      </trkpt>
      <trkpt lat="46.1068" lon="2.77712">
        <ele>745.64</ele>
        <time>2014-06-22T09:21:29Z</time>
      </trkpt>
      <trkpt lat="46.107" lon="2.77724">
        <ele>744.68</ele>
        <time>2014-06-22T09:21:41Z</time>
      </trkpt>
      <trkpt lat="46.10707" lon="2.77724">
        <ele>744.68</ele>
        <time>2014-06-22T09:21:45Z</time>
      </trkpt>
      <trkpt lat="46.10721" lon="2.77725">
        <ele>743.72</ele>
        <time>2014-06-22T09:21:53Z</time>
      </trkpt>
      <trkpt lat="46.10727" lon="2.77726">
        <ele>744.2</ele>
        <time>2014-06-22T09:21:57Z</time>
      </trkpt>
      <trkpt lat="46.1075" lon="2.77733">
        <ele>746.12</ele>
        <time>2014-06-22T09:22:10Z</time>
      </trkpt>
      <trkpt lat="46.10774" lon="2.77742">
        <ele>748.52</ele>
        <time>2014-06-22T09:22:24Z</time>
      </trkpt>
      <trkpt lat="46.10796" lon="2.77745">
        <ele>751.41</ele>
        <time>2014-06-22T09:22:38Z</time>
      </trkpt>
      <trkpt lat="46.10803" lon="2.7771">
        <ele>754.29</ele>
        <time>2014-06-22T09:22:53Z</time>
      </trkpt>
      <trkpt lat="46.10792" lon="2.77683">
        <ele>757.66</ele>
        <time>2014-06-22T09:23:07Z</time>
      </trkpt>
      <trkpt lat="46.10778" lon="2.77662">
        <ele>759.58</ele>
        <time>2014-06-22T09:23:19Z</time>
      </trkpt>
      <trkpt lat="46.10761" lon="2.77642">
        <ele>759.58</ele>
        <time>2014-06-22T09:23:31Z</time>
      </trkpt>
      <trkpt lat="46.10743" lon="2.77623">
        <ele>760.06</ele>
        <time>2014-06-22T09:23:44Z</time>
      </trkpt>
      <trkpt lat="46.10726" lon="2.77601">
        <ele>760.06</ele>
        <time>2014-06-22T09:23:57Z</time>
      </trkpt>
      <trkpt lat="46.10712" lon="2.77578">
        <ele>760.54</ele>
        <time>2014-06-22T09:24:11Z</time>
      </trkpt>
      <trkpt lat="46.10704" lon="2.77547">
        <ele>760.06</ele>
        <time>2014-06-22T09:24:25Z</time>
      </trkpt>
      <trkpt lat="46.10691" lon="2.77514">
        <ele>755.25</ele>
        <time>2014-06-22T09:24:40Z</time>
      </trkpt>
      <trkpt lat="46.1068" lon="2.77472">
        <ele>750.93</ele>
        <time>2014-06-22T09:24:58Z</time>
      </trkpt>
      <trkpt lat="46.10677" lon="2.77437">
        <ele>748.52</ele>
        <time>2014-06-22T09:25:12Z</time>
      </trkpt>
      <trkpt lat="46.10677" lon="2.77392">
        <ele>748.04</ele>
        <time>2014-06-22T09:25:30Z</time>
      </trkpt>
      <trkpt lat="46.10681" lon="2.77357">
        <ele>745.64</ele>
        <time>2014-06-22T09:25:44Z</time>
      </trkpt>
      <trkpt lat="46.10687" lon="2.77325">
        <ele>743.72</ele>
        <time>2014-06-22T09:25:57Z</time>
      </trkpt>
      <trkpt lat="46.10688" lon="2.77296">
        <ele>742.28</ele>
        <time>2014-06-22T09:26:10Z</time>
      </trkpt>
      <trkpt lat="46.10685" lon="2.77257">
        <ele>738.43</ele>
        <time>2014-06-22T09:26:26Z</time>
      </trkpt>
      <trkpt lat="46.10694" lon="2.77221">
        <ele>739.39</ele>
        <time>2014-06-22T09:26:42Z</time>
      </trkpt>
      <trkpt lat="46.10696" lon="2.77215">
        <ele>739.87</ele>
        <time>2014-06-22T09:26:45Z</time>
      </trkpt>
      <trkpt lat="46.10712" lon="2.77195">
        <ele>740.35</ele>
        <time>2014-06-22T09:27:00Z</time>
      </trkpt>
      <trkpt lat="46.10718" lon="2.77166">
        <ele>740.35</ele>
        <time>2014-06-22T09:27:12Z</time>
      </trkpt>
      <trkpt lat="46.10723" lon="2.77128">
        <ele>740.83</ele>
        <time>2014-06-22T09:27:26Z</time>
      </trkpt>
      <trkpt lat="46.10725" lon="2.77089">
        <ele>740.35</ele>
        <time>2014-06-22T09:27:42Z</time>
      </trkpt>
      <trkpt lat="46.10727" lon="2.77073">
        <ele>738.91</ele>
        <time>2014-06-22T09:27:48Z</time>
      </trkpt>
      <trkpt lat="46.10728" lon="2.77064">
        <ele>737.95</ele>
        <time>2014-06-22T09:27:52Z</time>
      </trkpt>
      <trkpt lat="46.10729" lon="2.77033">
        <ele>736.03</ele>
        <time>2014-06-22T09:28:04Z</time>
      </trkpt>
      <trkpt lat="46.10727" lon="2.77019">
        <ele>735.07</ele>
        <time>2014-06-22T09:28:10Z</time>
      </trkpt>
      <trkpt lat="46.10724" lon="2.77">
        <ele>734.1</ele>
        <time>2014-06-22T09:28:17Z</time>
      </trkpt>
      <trkpt lat="46.10721" lon="2.7698">
        <ele>732.18</ele>
        <time>2014-06-22T09:28:25Z</time>
      </trkpt>
      <trkpt lat="46.10713" lon="2.76947">
        <ele>727.86</ele>
        <time>2014-06-22T09:28:40Z</time>
      </trkpt>
      <trkpt lat="46.10705" lon="2.76917">
        <ele>726.89</ele>
        <time>2014-06-22T09:28:55Z</time>
      </trkpt>
      <trkpt lat="46.10694" lon="2.76883">
        <ele>725.45</ele>
        <time>2014-06-22T09:29:10Z</time>
      </trkpt>
      <trkpt lat="46.10679" lon="2.76854">
        <ele>723.05</ele>
        <time>2014-06-22T09:29:23Z</time>
      </trkpt>
      <trkpt lat="46.10666" lon="2.7683">
        <ele>720.65</ele>
        <time>2014-06-22T09:29:36Z</time>
      </trkpt>
      <trkpt lat="46.10652" lon="2.76805">
        <ele>717.76</ele>
        <time>2014-06-22T09:29:48Z</time>
      </trkpt>
      <trkpt lat="46.10645" lon="2.76798">
        <ele>716.8</ele>
        <time>2014-06-22T09:29:52Z</time>
      </trkpt>
      <trkpt lat="46.10628" lon="2.76783">
        <ele>712.47</ele>
        <time>2014-06-22T09:30:04Z</time>
      </trkpt>
      <trkpt lat="46.10619" lon="2.76766">
        <ele>710.07</ele>
        <time>2014-06-22T09:30:14Z</time>
      </trkpt>
      <trkpt lat="46.10613" lon="2.76739">
        <ele>708.15</ele>
        <time>2014-06-22T09:30:25Z</time>
      </trkpt>
      <trkpt lat="46.10623" lon="2.76695">
        <ele>704.78</ele>
        <time>2014-06-22T09:30:43Z</time>
      </trkpt>
      <trkpt lat="46.10645" lon="2.76678">
        <ele>703.82</ele>
        <time>2014-06-22T09:30:59Z</time>
      </trkpt>
      <trkpt lat="46.10667" lon="2.76667">
        <ele>699.98</ele>
        <time>2014-06-22T09:31:12Z</time>
      </trkpt>
      <trkpt lat="46.10693" lon="2.76659">
        <ele>696.61</ele>
        <time>2014-06-22T09:31:27Z</time>
      </trkpt>
      <trkpt lat="46.10697" lon="2.76653">
        <ele>693.25</ele>
        <time>2014-06-22T09:31:33Z</time>
      </trkpt>
      <trkpt lat="46.10688" lon="2.76602">
        <ele>685.08</ele>
        <time>2014-06-22T09:31:52Z</time>
      </trkpt>
      <trkpt lat="46.10678" lon="2.76571">
        <ele>682.67</ele>
        <time>2014-06-22T09:32:06Z</time>
      </trkpt>
      <trkpt lat="46.10674" lon="2.7654">
        <ele>678.35</ele>
        <time>2014-06-22T09:32:19Z</time>
      </trkpt>
      <trkpt lat="46.10674" lon="2.76503">
        <ele>673.54</ele>
        <time>2014-06-22T09:32:32Z</time>
      </trkpt>
      <trkpt lat="46.10676" lon="2.76467">
        <ele>669.7</ele>
        <time>2014-06-22T09:32:46Z</time>
      </trkpt>
      <trkpt lat="46.10677" lon="2.76451">
        <ele>668.25</ele>
        <time>2014-06-22T09:32:53Z</time>
      </trkpt>
      <trkpt lat="46.1068" lon="2.76439">
        <ele>667.29</ele>
        <time>2014-06-22T09:32:58Z</time>
      </trkpt>
      <trkpt lat="46.10685" lon="2.76409">
        <ele>665.85</ele>
        <time>2014-06-22T09:33:12Z</time>
      </trkpt>
      <trkpt lat="46.10694" lon="2.76377">
        <ele>665.85</ele>
        <time>2014-06-22T09:33:26Z</time>
      </trkpt>
      <trkpt lat="46.10706" lon="2.76342">
        <ele>664.89</ele>
        <time>2014-06-22T09:33:42Z</time>
      </trkpt>
      <trkpt lat="46.10716" lon="2.76316">
        <ele>663.45</ele>
        <time>2014-06-22T09:33:55Z</time>
      </trkpt>
      <trkpt lat="46.10725" lon="2.76284">
        <ele>663.45</ele>
        <time>2014-06-22T09:34:09Z</time>
      </trkpt>
      <trkpt lat="46.1073" lon="2.76249">
        <ele>660.08</ele>
        <time>2014-06-22T09:34:24Z</time>
      </trkpt>
      <trkpt lat="46.10735" lon="2.7622">
        <ele>655.76</ele>
        <time>2014-06-22T09:34:37Z</time>
      </trkpt>
      <trkpt lat="46.10745" lon="2.76184">
        <ele>653.35</ele>
        <time>2014-06-22T09:34:53Z</time>
      </trkpt>
      <trkpt lat="46.10755" lon="2.76157">
        <ele>651.43</ele>
        <time>2014-06-22T09:35:06Z</time>
      </trkpt>
      <trkpt lat="46.10755" lon="2.76149">
        <ele>651.43</ele>
        <time>2014-06-22T09:35:10Z</time>
      </trkpt>
      <trkpt lat="46.10747" lon="2.76141">
        <ele>651.91</ele>
        <time>2014-06-22T09:35:16Z</time>
      </trkpt>
      <trkpt lat="46.10724" lon="2.76132">
        <ele>649.51</ele>
        <time>2014-06-22T09:35:29Z</time>
      </trkpt>
      <trkpt lat="46.1072" lon="2.76131">
        <ele>649.51</ele>
        <time>2014-06-22T09:35:31Z</time>
      </trkpt>
      <trkpt lat="46.10714" lon="2.76127">
        <ele>648.55</ele>
        <time>2014-06-22T09:35:35Z</time>
      </trkpt>
      <trkpt lat="46.10704" lon="2.76124">
        <ele>647.1</ele>
        <time>2014-06-22T09:35:41Z</time>
      </trkpt>
      <trkpt lat="46.10681" lon="2.7611">
        <ele>645.66</ele>
        <time>2014-06-22T09:35:55Z</time>
      </trkpt>
      <trkpt lat="46.1066" lon="2.76086">
        <ele>643.74</ele>
        <time>2014-06-22T09:36:10Z</time>
      </trkpt>
      <trkpt lat="46.10642" lon="2.76066">
        <ele>644.22</ele>
        <time>2014-06-22T09:36:24Z</time>
      </trkpt>
      <trkpt lat="46.10631" lon="2.7605">
        <ele>645.66</ele>
        <time>2014-06-22T09:36:33Z</time>
      </trkpt>
      <trkpt lat="46.10626" lon="2.76047">
        <ele>646.14</ele>
        <time>2014-06-22T09:36:37Z</time>
      </trkpt>
      <trkpt lat="46.10607" lon="2.76025">
        <ele>644.7</ele>
        <time>2014-06-22T09:36:52Z</time>
      </trkpt>
      <trkpt lat="46.10587" lon="2.76002">
        <ele>642.78</ele>
        <time>2014-06-22T09:37:07Z</time>
      </trkpt>
      <trkpt lat="46.10563" lon="2.75978">
        <ele>640.38</ele>
        <time>2014-06-22T09:37:25Z</time>
      </trkpt>
      <trkpt lat="46.10541" lon="2.75956">
        <ele>641.34</ele>
        <time>2014-06-22T09:37:41Z</time>
      </trkpt>
      <trkpt lat="46.10522" lon="2.75937">
        <ele>642.78</ele>
        <time>2014-06-22T09:37:56Z</time>
      </trkpt>
      <trkpt lat="46.10503" lon="2.75921">
        <ele>645.18</ele>
        <time>2014-06-22T09:38:10Z</time>
      </trkpt>
      <trkpt lat="46.10475" lon="2.75918">
        <ele>646.14</ele>
        <time>2014-06-22T09:38:28Z</time>
      </trkpt>
      <trkpt lat="46.10453" lon="2.75935">
        <ele>646.62</ele>
        <time>2014-06-22T09:38:43Z</time>
      </trkpt>
      <trkpt lat="46.10437" lon="2.75927">
        <ele>648.07</ele>
        <time>2014-06-22T09:38:56Z</time>
      </trkpt>
      <trkpt lat="46.10423" lon="2.75899">
        <ele>648.55</ele>
        <time>2014-06-22T09:39:13Z</time>
      </trkpt>
      <trkpt lat="46.10412" lon="2.75867">
        <ele>650.47</ele>
        <time>2014-06-22T09:39:30Z</time>
      </trkpt>
      <trkpt lat="46.10411" lon="2.75865">
        <ele>650.47</ele>
        <time>2014-06-22T09:39:31Z</time>
      </trkpt>
      <trkpt lat="46.10399" lon="2.75834">
        <ele>650.95</ele>
        <time>2014-06-22T09:39:47Z</time>
      </trkpt>
      <trkpt lat="46.10388" lon="2.75804">
        <ele>651.43</ele>
        <time>2014-06-22T09:40:02Z</time>
      </trkpt>
      <trkpt lat="46.10378" lon="2.75777">
        <ele>651.43</ele>
        <time>2014-06-22T09:40:17Z</time>
      </trkpt>
      <trkpt lat="46.10378" lon="2.75775">
        <ele>651.91</ele>
        <time>2014-06-22T09:40:36Z</time>
      </trkpt>
      <trkpt lat="46.10378" lon="2.75774">
        <ele>651.43</ele>
        <time>2014-06-22T09:40:55Z</time>
      </trkpt>
      <trkpt lat="46.10379" lon="2.75771">
        <ele>651.91</ele>
        <time>2014-06-22T09:41:16Z</time>
      </trkpt>
      <trkpt lat="46.10374" lon="2.75764">
        <ele>653.35</ele>
        <time>2014-06-22T09:41:29Z</time>
      </trkpt>
      <trkpt lat="46.10374" lon="2.75764">
        <ele>653.35</ele>
        <time>2014-06-22T09:41:54Z</time>
      </trkpt>
      <trkpt lat="46.10374" lon="2.75764">
        <ele>653.35</ele>
        <time>2014-06-22T09:42:18Z</time>
      </trkpt>
      <trkpt lat="46.10374" lon="2.75763">
        <ele>653.35</ele>
        <time>2014-06-22T09:42:41Z</time>
      </trkpt>
      <trkpt lat="46.10369" lon="2.75755">
        <ele>652.87</ele>
        <time>2014-06-22T09:43:00Z</time>
      </trkpt>
      <trkpt lat="46.10362" lon="2.75749">
        <ele>652.39</ele>
        <time>2014-06-22T09:43:13Z</time>
      </trkpt>
      <trkpt lat="46.10361" lon="2.75752">
        <ele>651.43</ele>
        <time>2014-06-22T09:43:26Z</time>
      </trkpt>
      <trkpt lat="46.10362" lon="2.75751">
        <ele>651.43</ele>
        <time>2014-06-22T09:43:29Z</time>
      </trkpt>
      <trkpt lat="46.10365" lon="2.75755">
        <ele>650.47</ele>
        <time>2014-06-22T09:43:34Z</time>
      </trkpt>
      <trkpt lat="46.10374" lon="2.75767">
        <ele>649.03</ele>
        <time>2014-06-22T09:43:50Z</time>
      </trkpt>
      <trkpt lat="46.10368" lon="2.75753">
        <ele>649.51</ele>
        <time>2014-06-22T09:44:04Z</time>
      </trkpt>
      <trkpt lat="46.10364" lon="2.75754">
        <ele>649.03</ele>
        <time>2014-06-22T09:44:15Z</time>
      </trkpt>
      <trkpt lat="46.10364" lon="2.75754">
        <ele>649.03</ele>
        <time>2014-06-22T09:44:39Z</time>
      </trkpt>
      <trkpt lat="46.10364" lon="2.75754">
        <ele>649.03</ele>
        <time>2014-06-22T09:45:02Z</time>
      </trkpt>
      <trkpt lat="46.10364" lon="2.75754">
        <ele>649.03</ele>
        <time>2014-06-22T09:45:32Z</time>
      </trkpt>
      <trkpt lat="46.10364" lon="2.75754">
        <ele>649.03</ele>
        <time>2014-06-22T09:46:02Z</time>
      </trkpt>
      <trkpt lat="46.10364" lon="2.75755">
        <ele>649.03</ele>
        <time>2014-06-22T09:46:33Z</time>
      </trkpt>
      <trkpt lat="46.10364" lon="2.75755">
        <ele>649.03</ele>
        <time>2014-06-22T09:46:59Z</time>
      </trkpt>
      <trkpt lat="46.10363" lon="2.75755">
        <ele>649.51</ele>
        <time>2014-06-22T09:47:29Z</time>
      </trkpt>
      <trkpt lat="46.10363" lon="2.75755">
        <ele>649.51</ele>
        <time>2014-06-22T09:47:58Z</time>
      </trkpt>
      <trkpt lat="46.10364" lon="2.75754">
        <ele>649.51</ele>
        <time>2014-06-22T09:48:23Z</time>
      </trkpt>
      <trkpt lat="46.10364" lon="2.75754">
        <ele>649.51</ele>
        <time>2014-06-22T09:48:55Z</time>
      </trkpt>
      <trkpt lat="46.10363" lon="2.75755">
        <ele>650.47</ele>
        <time>2014-06-22T09:49:24Z</time>
      </trkpt>
      <trkpt lat="46.10363" lon="2.75755">
        <ele>650.47</ele>
        <time>2014-06-22T09:49:54Z</time>
      </trkpt>
      <trkpt lat="46.10363" lon="2.75755">
        <ele>650.47</ele>
        <time>2014-06-22T09:50:31Z</time>
      </trkpt>
      <trkpt lat="46.10363" lon="2.75755">
        <ele>650.47</ele>
        <time>2014-06-22T09:51:06Z</time>
      </trkpt>
      <trkpt lat="46.10363" lon="2.75755">
        <ele>650.95</ele>
        <time>2014-06-22T09:51:43Z</time>
      </trkpt>
      <trkpt lat="46.10363" lon="2.75755">
        <ele>650.95</ele>
        <time>2014-06-22T09:52:15Z</time>
      </trkpt>
      <trkpt lat="46.10363" lon="2.75755">
        <ele>650.47</ele>
        <time>2014-06-22T09:52:51Z</time>
      </trkpt>
      <trkpt lat="46.10361" lon="2.75755">
        <ele>651.43</ele>
        <time>2014-06-22T09:53:14Z</time>
      </trkpt>
      <trkpt lat="46.10361" lon="2.75755">
        <ele>651.43</ele>
        <time>2014-06-22T09:53:44Z</time>
      </trkpt>
      <trkpt lat="46.10361" lon="2.75755">
        <ele>651.43</ele>
        <time>2014-06-22T09:54:20Z</time>
      </trkpt>
      <trkpt lat="46.10363" lon="2.75753">
        <ele>650.95</ele>
        <time>2014-06-22T09:54:36Z</time>
      </trkpt>
      <trkpt lat="46.10369" lon="2.75761">
        <ele>649.03</ele>
        <time>2014-06-22T09:54:49Z</time>
      </trkpt>
      <trkpt lat="46.10375" lon="2.75766">
        <ele>647.1</ele>
        <time>2014-06-22T09:55:06Z</time>
      </trkpt>
      <trkpt lat="46.10375" lon="2.75765">
        <ele>647.1</ele>
        <time>2014-06-22T09:55:32Z</time>
      </trkpt>
      <trkpt lat="46.10372" lon="2.75767">
        <ele>649.03</ele>
        <time>2014-06-22T09:55:50Z</time>
      </trkpt>
      <trkpt lat="46.10371" lon="2.75766">
        <ele>649.03</ele>
        <time>2014-06-22T09:55:51Z</time>
      </trkpt>
      <trkpt lat="46.10364" lon="2.75756">
        <ele>651.43</ele>
        <time>2014-06-22T09:56:09Z</time>
      </trkpt>
      <trkpt lat="46.10363" lon="2.75752">
        <ele>650.95</ele>
        <time>2014-06-22T09:56:32Z</time>
      </trkpt>
      <trkpt lat="46.10363" lon="2.75752">
        <ele>650.95</ele>
        <time>2014-06-22T09:56:33Z</time>
      </trkpt>
      <trkpt lat="46.1037" lon="2.75759">
        <ele>649.51</ele>
        <time>2014-06-22T09:56:52Z</time>
      </trkpt>
      <trkpt lat="46.10371" lon="2.75758">
        <ele>649.03</ele>
        <time>2014-06-22T09:57:11Z</time>
      </trkpt>
      <trkpt lat="46.10364" lon="2.7575">
        <ele>648.07</ele>
        <time>2014-06-22T09:57:26Z</time>
      </trkpt>
      <trkpt lat="46.10364" lon="2.7575">
        <ele>648.55</ele>
        <time>2014-06-22T09:57:27Z</time>
      </trkpt>
      <trkpt lat="46.10363" lon="2.75753">
        <ele>648.55</ele>
        <time>2014-06-22T09:57:42Z</time>
      </trkpt>
      <trkpt lat="46.10363" lon="2.75753">
        <ele>648.55</ele>
        <time>2014-06-22T09:58:19Z</time>
      </trkpt>
      <trkpt lat="46.10363" lon="2.75753">
        <ele>648.55</ele>
        <time>2014-06-22T09:58:59Z</time>
      </trkpt>
      <trkpt lat="46.10363" lon="2.75753">
        <ele>648.55</ele>
        <time>2014-06-22T09:59:28Z</time>
      </trkpt>
      <trkpt lat="46.10363" lon="2.75753">
        <ele>648.55</ele>
        <time>2014-06-22T09:59:51Z</time>
      </trkpt>
      <trkpt lat="46.10363" lon="2.75753">
        <ele>648.55</ele>
        <time>2014-06-22T10:00:22Z</time>
      </trkpt>
      <trkpt lat="46.10363" lon="2.75753">
        <ele>648.55</ele>
        <time>2014-06-22T10:00:54Z</time>
      </trkpt>
      <trkpt lat="46.10363" lon="2.75753">
        <ele>648.55</ele>
        <time>2014-06-22T10:01:30Z</time>
      </trkpt>
      <trkpt lat="46.10363" lon="2.75754">
        <ele>648.55</ele>
        <time>2014-06-22T10:02:01Z</time>
      </trkpt>
      <trkpt lat="46.10363" lon="2.75754">
        <ele>648.55</ele>
        <time>2014-06-22T10:02:32Z</time>
      </trkpt>
      <trkpt lat="46.10363" lon="2.75753">
        <ele>648.07</ele>
        <time>2014-06-22T10:03:10Z</time>
      </trkpt>
      <trkpt lat="46.10363" lon="2.75753">
        <ele>647.59</ele>
        <time>2014-06-22T10:03:48Z</time>
      </trkpt>
      <trkpt lat="46.10363" lon="2.75754">
        <ele>647.59</ele>
        <time>2014-06-22T10:04:31Z</time>
      </trkpt>
      <trkpt lat="46.10363" lon="2.75754">
        <ele>647.59</ele>
        <time>2014-06-22T10:05:03Z</time>
      </trkpt>
      <trkpt lat="46.10364" lon="2.75756">
        <ele>647.1</ele>
        <time>2014-06-22T10:05:26Z</time>
      </trkpt>
      <trkpt lat="46.10361" lon="2.75755">
        <ele>649.03</ele>
        <time>2014-06-22T10:05:50Z</time>
      </trkpt>
      <trkpt lat="46.10359" lon="2.75751">
        <ele>651.43</ele>
        <time>2014-06-22T10:06:10Z</time>
      </trkpt>
      <trkpt lat="46.10362" lon="2.75754">
        <ele>651.43</ele>
        <time>2014-06-22T10:06:15Z</time>
      </trkpt>
      <trkpt lat="46.10372" lon="2.75767">
        <ele>649.99</ele>
        <time>2014-06-22T10:06:32Z</time>
      </trkpt>
      <trkpt lat="46.10376" lon="2.75767">
        <ele>649.99</ele>
        <time>2014-06-22T10:06:46Z</time>
      </trkpt>
      <trkpt lat="46.10375" lon="2.75769">
        <ele>650.47</ele>
        <time>2014-06-22T10:07:03Z</time>
      </trkpt>
      <trkpt lat="46.10377" lon="2.75779">
        <ele>651.91</ele>
        <time>2014-06-22T10:07:16Z</time>
      </trkpt>
      <trkpt lat="46.10381" lon="2.75787">
        <ele>652.39</ele>
        <time>2014-06-22T10:07:36Z</time>
      </trkpt>
      <trkpt lat="46.10392" lon="2.75814">
        <ele>652.87</ele>
        <time>2014-06-22T10:07:51Z</time>
      </trkpt>
      <trkpt lat="46.10403" lon="2.75845">
        <ele>648.55</ele>
        <time>2014-06-22T10:08:07Z</time>
      </trkpt>
      <trkpt lat="46.10406" lon="2.75849">
        <ele>649.03</ele>
        <time>2014-06-22T10:08:10Z</time>
      </trkpt>
      <trkpt lat="46.10408" lon="2.7586">
        <ele>648.07</ele>
        <time>2014-06-22T10:08:16Z</time>
      </trkpt>
      <trkpt lat="46.10412" lon="2.75862">
        <ele>648.07</ele>
        <time>2014-06-22T10:08:22Z</time>
      </trkpt>
      <trkpt lat="46.10414" lon="2.75842">
        <ele>647.59</ele>
        <time>2014-06-22T10:08:31Z</time>
      </trkpt>
      <trkpt lat="46.10407" lon="2.75811">
        <ele>646.62</ele>
        <time>2014-06-22T10:08:46Z</time>
      </trkpt>
      <trkpt lat="46.10399" lon="2.75778">
        <ele>649.03</ele>
        <time>2014-06-22T10:09:01Z</time>
      </trkpt>
      <trkpt lat="46.10393" lon="2.75745">
        <ele>649.99</ele>
        <time>2014-06-22T10:09:16Z</time>
      </trkpt>
      <trkpt lat="46.10384" lon="2.7571">
        <ele>648.55</ele>
        <time>2014-06-22T10:09:33Z</time>
      </trkpt>
      <trkpt lat="46.1038" lon="2.75697">
        <ele>649.51</ele>
        <time>2014-06-22T10:09:39Z</time>
      </trkpt>
      <trkpt lat="46.10378" lon="2.75689">
        <ele>649.51</ele>
        <time>2014-06-22T10:09:43Z</time>
      </trkpt>
      <trkpt lat="46.10374" lon="2.75655">
        <ele>647.59</ele>
        <time>2014-06-22T10:09:59Z</time>
      </trkpt>
      <trkpt lat="46.10374" lon="2.75638">
        <ele>647.1</ele>
        <time>2014-06-22T10:10:06Z</time>
      </trkpt>
      <trkpt lat="46.10374" lon="2.75622">
        <ele>647.59</ele>
        <time>2014-06-22T10:10:13Z</time>
      </trkpt>
      <trkpt lat="46.10375" lon="2.75586">
        <ele>646.62</ele>
        <time>2014-06-22T10:10:29Z</time>
      </trkpt>
      <trkpt lat="46.10377" lon="2.75554">
        <ele>646.14</ele>
        <time>2014-06-22T10:10:44Z</time>
      </trkpt>
      <trkpt lat="46.10375" lon="2.7552">
        <ele>649.51</ele>
        <time>2014-06-22T10:11:01Z</time>
      </trkpt>
      <trkpt lat="46.10367" lon="2.75483">
        <ele>657.2</ele>
        <time>2014-06-22T10:11:18Z</time>
      </trkpt>
      <trkpt lat="46.10366" lon="2.75478">
        <ele>658.16</ele>
        <time>2014-06-22T10:11:20Z</time>
      </trkpt>
      <trkpt lat="46.10363" lon="2.75471">
        <ele>658.64</ele>
        <time>2014-06-22T10:11:24Z</time>
      </trkpt>
      <trkpt lat="46.10359" lon="2.75463">
        <ele>659.6</ele>
        <time>2014-06-22T10:11:29Z</time>
      </trkpt>
      <trkpt lat="46.10341" lon="2.75429">
        <ele>663.93</ele>
        <time>2014-06-22T10:11:48Z</time>
      </trkpt>
      <trkpt lat="46.10328" lon="2.75409">
        <ele>665.85</ele>
        <time>2014-06-22T10:12:02Z</time>
      </trkpt>
      <trkpt lat="46.10311" lon="2.75388">
        <ele>665.85</ele>
        <time>2014-06-22T10:12:17Z</time>
      </trkpt>
      <trkpt lat="46.10293" lon="2.75362">
        <ele>668.25</ele>
        <time>2014-06-22T10:12:33Z</time>
      </trkpt>
      <trkpt lat="46.10278" lon="2.75338">
        <ele>669.22</ele>
        <time>2014-06-22T10:12:48Z</time>
      </trkpt>
      <trkpt lat="46.10266" lon="2.75322">
        <ele>669.22</ele>
        <time>2014-06-22T10:13:00Z</time>
      </trkpt>
      <trkpt lat="46.10243" lon="2.75312">
        <ele>670.66</ele>
        <time>2014-06-22T10:13:16Z</time>
      </trkpt>
      <trkpt lat="46.10236" lon="2.75311">
        <ele>671.62</ele>
        <time>2014-06-22T10:13:21Z</time>
      </trkpt>
      <trkpt lat="46.10209" lon="2.75302">
        <ele>675.46</ele>
        <time>2014-06-22T10:13:37Z</time>
      </trkpt>
      <trkpt lat="46.10188" lon="2.75284">
        <ele>676.91</ele>
        <time>2014-06-22T10:13:53Z</time>
      </trkpt>
      <trkpt lat="46.10171" lon="2.75252">
        <ele>677.87</ele>
        <time>2014-06-22T10:14:11Z</time>
      </trkpt>
      <trkpt lat="46.10165" lon="2.7522">
        <ele>680.27</ele>
        <time>2014-06-22T10:14:26Z</time>
      </trkpt>
      <trkpt lat="46.10161" lon="2.7519">
        <ele>681.71</ele>
        <time>2014-06-22T10:14:41Z</time>
      </trkpt>
      <trkpt lat="46.1016" lon="2.7516">
        <ele>683.15</ele>
        <time>2014-06-22T10:14:56Z</time>
      </trkpt>
      <trkpt lat="46.1016" lon="2.75131">
        <ele>687</ele>
        <time>2014-06-22T10:15:12Z</time>
      </trkpt>
      <trkpt lat="46.10159" lon="2.75096">
        <ele>689.88</ele>
        <time>2014-06-22T10:15:27Z</time>
      </trkpt>
      <trkpt lat="46.10163" lon="2.75081">
        <ele>690.84</ele>
        <time>2014-06-22T10:15:36Z</time>
      </trkpt>
      <trkpt lat="46.1019" lon="2.75076">
        <ele>693.25</ele>
        <time>2014-06-22T10:15:54Z</time>
      </trkpt>
      <trkpt lat="46.10213" lon="2.75047">
        <ele>697.09</ele>
        <time>2014-06-22T10:16:11Z</time>
      </trkpt>
      <trkpt lat="46.10229" lon="2.75013">
        <ele>701.42</ele>
        <time>2014-06-22T10:16:29Z</time>
      </trkpt>
      <trkpt lat="46.10242" lon="2.74981">
        <ele>702.86</ele>
        <time>2014-06-22T10:16:45Z</time>
      </trkpt>
      <trkpt lat="46.1025" lon="2.74948">
        <ele>704.78</ele>
        <time>2014-06-22T10:17:01Z</time>
      </trkpt>
      <trkpt lat="46.10249" lon="2.7491">
        <ele>704.3</ele>
        <time>2014-06-22T10:17:17Z</time>
      </trkpt>
      <trkpt lat="46.10243" lon="2.74888">
        <ele>704.78</ele>
        <time>2014-06-22T10:17:27Z</time>
      </trkpt>
      <trkpt lat="46.10235" lon="2.74859">
        <ele>705.75</ele>
        <time>2014-06-22T10:17:40Z</time>
      </trkpt>
      <trkpt lat="46.10233" lon="2.74836">
        <ele>707.67</ele>
        <time>2014-06-22T10:17:53Z</time>
      </trkpt>
      <trkpt lat="46.10234" lon="2.7483">
        <ele>708.15</ele>
        <time>2014-06-22T10:17:57Z</time>
      </trkpt>
      <trkpt lat="46.10234" lon="2.74821">
        <ele>708.63</ele>
        <time>2014-06-22T10:18:00Z</time>
      </trkpt>
      <trkpt lat="46.10247" lon="2.74793">
        <ele>706.23</ele>
        <time>2014-06-22T10:18:15Z</time>
      </trkpt>
      <trkpt lat="46.10263" lon="2.74765">
        <ele>705.26</ele>
        <time>2014-06-22T10:18:31Z</time>
      </trkpt>
      <trkpt lat="46.10288" lon="2.74726">
        <ele>702.38</ele>
        <time>2014-06-22T10:18:48Z</time>
      </trkpt>
      <trkpt lat="46.10296" lon="2.74698">
        <ele>699.98</ele>
        <time>2014-06-22T10:19:00Z</time>
      </trkpt>
      <trkpt lat="46.10306" lon="2.74669">
        <ele>698.53</ele>
        <time>2014-06-22T10:19:13Z</time>
      </trkpt>
      <trkpt lat="46.10313" lon="2.74641">
        <ele>697.09</ele>
        <time>2014-06-22T10:19:26Z</time>
      </trkpt>
      <trkpt lat="46.10315" lon="2.74633">
        <ele>696.61</ele>
        <time>2014-06-22T10:19:29Z</time>
      </trkpt>
      <trkpt lat="46.10318" lon="2.74626">
        <ele>695.65</ele>
        <time>2014-06-22T10:19:33Z</time>
      </trkpt>
      <trkpt lat="46.10329" lon="2.74596">
        <ele>694.69</ele>
        <time>2014-06-22T10:19:47Z</time>
      </trkpt>
      <trkpt lat="46.10336" lon="2.74577">
        <ele>694.21</ele>
        <time>2014-06-22T10:19:57Z</time>
      </trkpt>
      <trkpt lat="46.10357" lon="2.74549">
        <ele>696.13</ele>
        <time>2014-06-22T10:20:14Z</time>
      </trkpt>
      <trkpt lat="46.10365" lon="2.74542">
        <ele>696.61</ele>
        <time>2014-06-22T10:20:20Z</time>
      </trkpt>
      <trkpt lat="46.10358" lon="2.74532">
        <ele>698.53</ele>
        <time>2014-06-22T10:20:29Z</time>
      </trkpt>
      <trkpt lat="46.10332" lon="2.74533">
        <ele>701.9</ele>
        <time>2014-06-22T10:20:44Z</time>
      </trkpt>
      <trkpt lat="46.10309" lon="2.7454">
        <ele>704.3</ele>
        <time>2014-06-22T10:21:00Z</time>
      </trkpt>
      <trkpt lat="46.10293" lon="2.74552">
        <ele>706.23</ele>
        <time>2014-06-22T10:21:12Z</time>
      </trkpt>
      <trkpt lat="46.10273" lon="2.74563">
        <ele>708.63</ele>
        <time>2014-06-22T10:21:25Z</time>
      </trkpt>
      <trkpt lat="46.10249" lon="2.74561">
        <ele>713.92</ele>
        <time>2014-06-22T10:21:41Z</time>
      </trkpt>
      <trkpt lat="46.10238" lon="2.74534">
        <ele>718.72</ele>
        <time>2014-06-22T10:21:55Z</time>
      </trkpt>
      <trkpt lat="46.10223" lon="2.74498">
        <ele>722.09</ele>
        <time>2014-06-22T10:22:14Z</time>
      </trkpt>
      <trkpt lat="46.10206" lon="2.74465">
        <ele>722.09</ele>
        <time>2014-06-22T10:22:32Z</time>
      </trkpt>
      <trkpt lat="46.10191" lon="2.74434">
        <ele>727.37</ele>
        <time>2014-06-22T10:22:48Z</time>
      </trkpt>
      <trkpt lat="46.10172" lon="2.74405">
        <ele>730.26</ele>
        <time>2014-06-22T10:23:04Z</time>
      </trkpt>
      <trkpt lat="46.1015" lon="2.74398">
        <ele>731.22</ele>
        <time>2014-06-22T10:23:18Z</time>
      </trkpt>
      <trkpt lat="46.10138" lon="2.74431">
        <ele>730.74</ele>
        <time>2014-06-22T10:23:35Z</time>
      </trkpt>
      <trkpt lat="46.10125" lon="2.74465">
        <ele>733.62</ele>
        <time>2014-06-22T10:23:52Z</time>
      </trkpt>
      <trkpt lat="46.10116" lon="2.74498">
        <ele>737.47</ele>
        <time>2014-06-22T10:24:08Z</time>
      </trkpt>
      <trkpt lat="46.1011" lon="2.7452">
        <ele>739.87</ele>
        <time>2014-06-22T10:24:19Z</time>
      </trkpt>
      <trkpt lat="46.101" lon="2.74544">
        <ele>743.72</ele>
        <time>2014-06-22T10:24:33Z</time>
      </trkpt>
      <trkpt lat="46.10088" lon="2.74577">
        <ele>747.08</ele>
        <time>2014-06-22T10:24:51Z</time>
      </trkpt>
      <trkpt lat="46.10073" lon="2.74603">
        <ele>749</ele>
        <time>2014-06-22T10:25:06Z</time>
      </trkpt>
      <trkpt lat="46.10055" lon="2.74625">
        <ele>752.37</ele>
        <time>2014-06-22T10:25:21Z</time>
      </trkpt>
      <trkpt lat="46.1004" lon="2.74649">
        <ele>754.77</ele>
        <time>2014-06-22T10:25:35Z</time>
      </trkpt>
      <trkpt lat="46.10038" lon="2.7465">
        <ele>754.77</ele>
        <time>2014-06-22T10:25:36Z</time>
      </trkpt>
      <trkpt lat="46.10017" lon="2.74679">
        <ele>754.77</ele>
        <time>2014-06-22T10:25:53Z</time>
      </trkpt>
      <trkpt lat="46.10003" lon="2.74704">
        <ele>759.58</ele>
        <time>2014-06-22T10:26:07Z</time>
      </trkpt>
      <trkpt lat="46.09998" lon="2.74723">
        <ele>760.06</ele>
        <time>2014-06-22T10:26:20Z</time>
      </trkpt>
      <trkpt lat="46.09997" lon="2.74743">
        <ele>760.54</ele>
        <time>2014-06-22T10:26:30Z</time>
      </trkpt>
      <trkpt lat="46.09987" lon="2.74772">
        <ele>759.1</ele>
        <time>2014-06-22T10:26:43Z</time>
      </trkpt>
      <trkpt lat="46.09973" lon="2.74795">
        <ele>755.73</ele>
        <time>2014-06-22T10:26:56Z</time>
      </trkpt>
      <trkpt lat="46.09957" lon="2.74823">
        <ele>752.85</ele>
        <time>2014-06-22T10:27:10Z</time>
      </trkpt>
      <trkpt lat="46.09941" lon="2.74851">
        <ele>751.89</ele>
        <time>2014-06-22T10:27:24Z</time>
      </trkpt>
      <trkpt lat="46.09922" lon="2.74878">
        <ele>752.85</ele>
        <time>2014-06-22T10:27:39Z</time>
      </trkpt>
      <trkpt lat="46.09899" lon="2.74894">
        <ele>750.93</ele>
        <time>2014-06-22T10:27:54Z</time>
      </trkpt>
      <trkpt lat="46.09876" lon="2.74894">
        <ele>752.85</ele>
        <time>2014-06-22T10:28:08Z</time>
      </trkpt>
      <trkpt lat="46.09863" lon="2.74883">
        <ele>755.25</ele>
        <time>2014-06-22T10:28:17Z</time>
      </trkpt>
      <trkpt lat="46.09854" lon="2.74859">
        <ele>759.58</ele>
        <time>2014-06-22T10:28:29Z</time>
      </trkpt>
      <trkpt lat="46.09847" lon="2.74834">
        <ele>766.31</ele>
        <time>2014-06-22T10:28:43Z</time>
      </trkpt>
      <trkpt lat="46.09834" lon="2.74801">
        <ele>772.08</ele>
        <time>2014-06-22T10:28:59Z</time>
      </trkpt>
      <trkpt lat="46.09817" lon="2.7477">
        <ele>775.92</ele>
        <time>2014-06-22T10:29:15Z</time>
      </trkpt>
      <trkpt lat="46.098" lon="2.74744">
        <ele>776.4</ele>
        <time>2014-06-22T10:29:30Z</time>
      </trkpt>
      <trkpt lat="46.09786" lon="2.74718">
        <ele>777.36</ele>
        <time>2014-06-22T10:29:46Z</time>
      </trkpt>
      <trkpt lat="46.09781" lon="2.74709">
        <ele>776.88</ele>
        <time>2014-06-22T10:29:51Z</time>
      </trkpt>
      <trkpt lat="46.09775" lon="2.74679">
        <ele>773.04</ele>
        <time>2014-06-22T10:30:04Z</time>
      </trkpt>
      <trkpt lat="46.09777" lon="2.7467">
        <ele>772.08</ele>
        <time>2014-06-22T10:30:08Z</time>
      </trkpt>
      <trkpt lat="46.09793" lon="2.74642">
        <ele>768.71</ele>
        <time>2014-06-22T10:30:23Z</time>
      </trkpt>
      <trkpt lat="46.09809" lon="2.7462">
        <ele>764.39</ele>
        <time>2014-06-22T10:30:36Z</time>
      </trkpt>
      <trkpt lat="46.09827" lon="2.74592">
        <ele>759.58</ele>
        <time>2014-06-22T10:30:50Z</time>
      </trkpt>
      <trkpt lat="46.09836" lon="2.74578">
        <ele>756.21</ele>
        <time>2014-06-22T10:30:59Z</time>
      </trkpt>
      <trkpt lat="46.0984" lon="2.74567">
        <ele>753.81</ele>
        <time>2014-06-22T10:31:04Z</time>
      </trkpt>
      <trkpt lat="46.09829" lon="2.74541">
        <ele>746.12</ele>
        <time>2014-06-22T10:31:16Z</time>
      </trkpt>
      <trkpt lat="46.09811" lon="2.74521">
        <ele>742.28</ele>
        <time>2014-06-22T10:31:28Z</time>
      </trkpt>
      <trkpt lat="46.09793" lon="2.74501">
        <ele>741.31</ele>
        <time>2014-06-22T10:31:41Z</time>
      </trkpt>
      <trkpt lat="46.09769" lon="2.74482">
        <ele>741.31</ele>
        <time>2014-06-22T10:31:54Z</time>
      </trkpt>
      <trkpt lat="46.09759" lon="2.74477">
        <ele>741.31</ele>
        <time>2014-06-22T10:32:00Z</time>
      </trkpt>
      <trkpt lat="46.09734" lon="2.74473">
        <ele>741.31</ele>
        <time>2014-06-22T10:32:14Z</time>
      </trkpt>
      <trkpt lat="46.09711" lon="2.74486">
        <ele>738.91</ele>
        <time>2014-06-22T10:32:27Z</time>
      </trkpt>
      <trkpt lat="46.09689" lon="2.74501">
        <ele>737.47</ele>
        <time>2014-06-22T10:32:40Z</time>
      </trkpt>
      <trkpt lat="46.09668" lon="2.74517">
        <ele>736.51</ele>
        <time>2014-06-22T10:32:53Z</time>
      </trkpt>
      <trkpt lat="46.09654" lon="2.74527">
        <ele>736.51</ele>
        <time>2014-06-22T10:33:02Z</time>
      </trkpt>
      <trkpt lat="46.09648" lon="2.74531">
        <ele>736.99</ele>
        <time>2014-06-22T10:33:06Z</time>
      </trkpt>
      <trkpt lat="46.09632" lon="2.74551">
        <ele>736.99</ele>
        <time>2014-06-22T10:33:18Z</time>
      </trkpt>
      <trkpt lat="46.09623" lon="2.74563">
        <ele>736.03</ele>
        <time>2014-06-22T10:33:24Z</time>
      </trkpt>
      <trkpt lat="46.09607" lon="2.74592">
        <ele>733.62</ele>
        <time>2014-06-22T10:33:38Z</time>
      </trkpt>
      <trkpt lat="46.09598" lon="2.74621">
        <ele>732.66</ele>
        <time>2014-06-22T10:33:51Z</time>
      </trkpt>
      <trkpt lat="46.0959" lon="2.74652">
        <ele>729.3</ele>
        <time>2014-06-22T10:34:04Z</time>
      </trkpt>
      <trkpt lat="46.09579" lon="2.74648">
        <ele>728.34</ele>
        <time>2014-06-22T10:34:10Z</time>
      </trkpt>
      <trkpt lat="46.09565" lon="2.74618">
        <ele>727.37</ele>
        <time>2014-06-22T10:34:24Z</time>
      </trkpt>
      <trkpt lat="46.09553" lon="2.74585">
        <ele>729.3</ele>
        <time>2014-06-22T10:34:38Z</time>
      </trkpt>
      <trkpt lat="46.09549" lon="2.74551">
        <ele>725.45</ele>
        <time>2014-06-22T10:34:52Z</time>
      </trkpt>
      <trkpt lat="46.09552" lon="2.7454">
        <ele>723.53</ele>
        <time>2014-06-22T10:34:57Z</time>
      </trkpt>
      <trkpt lat="46.09555" lon="2.74532">
        <ele>722.09</ele>
        <time>2014-06-22T10:35:01Z</time>
      </trkpt>
      <trkpt lat="46.09565" lon="2.74496">
        <ele>717.76</ele>
        <time>2014-06-22T10:35:18Z</time>
      </trkpt>
      <trkpt lat="46.09565" lon="2.74495">
        <ele>717.28</ele>
        <time>2014-06-22T10:35:19Z</time>
      </trkpt>
      <trkpt lat="46.09584" lon="2.74459">
        <ele>714.4</ele>
        <time>2014-06-22T10:35:35Z</time>
      </trkpt>
      <trkpt lat="46.09599" lon="2.74437">
        <ele>711.99</ele>
        <time>2014-06-22T10:35:48Z</time>
      </trkpt>
      <trkpt lat="46.09618" lon="2.74415">
        <ele>707.19</ele>
        <time>2014-06-22T10:36:05Z</time>
      </trkpt>
      <trkpt lat="46.09648" lon="2.74392">
        <ele>705.26</ele>
        <time>2014-06-22T10:36:20Z</time>
      </trkpt>
      <trkpt lat="46.09666" lon="2.74373">
        <ele>703.82</ele>
        <time>2014-06-22T10:36:35Z</time>
      </trkpt>
      <trkpt lat="46.09687" lon="2.74352">
        <ele>697.57</ele>
        <time>2014-06-22T10:36:50Z</time>
      </trkpt>
      <trkpt lat="46.09713" lon="2.74329">
        <ele>695.17</ele>
        <time>2014-06-22T10:37:05Z</time>
      </trkpt>
      <trkpt lat="46.09735" lon="2.74302">
        <ele>691.33</ele>
        <time>2014-06-22T10:37:22Z</time>
      </trkpt>
      <trkpt lat="46.09758" lon="2.74268">
        <ele>691.33</ele>
        <time>2014-06-22T10:37:38Z</time>
      </trkpt>
      <trkpt lat="46.09776" lon="2.74244">
        <ele>687.48</ele>
        <time>2014-06-22T10:37:53Z</time>
      </trkpt>
      <trkpt lat="46.09792" lon="2.7421">
        <ele>683.15</ele>
        <time>2014-06-22T10:38:09Z</time>
      </trkpt>
      <trkpt lat="46.09793" lon="2.74202">
        <ele>683.15</ele>
        <time>2014-06-22T10:38:13Z</time>
      </trkpt>
      <trkpt lat="46.09804" lon="2.74174">
        <ele>680.75</ele>
        <time>2014-06-22T10:38:26Z</time>
      </trkpt>
      <trkpt lat="46.09815" lon="2.7414">
        <ele>676.91</ele>
        <time>2014-06-22T10:38:42Z</time>
      </trkpt>
      <trkpt lat="46.09822" lon="2.74125">
        <ele>677.39</ele>
        <time>2014-06-22T10:38:47Z</time>
      </trkpt>
      <trkpt lat="46.09833" lon="2.74092">
        <ele>672.58</ele>
        <time>2014-06-22T10:39:01Z</time>
      </trkpt>
      <trkpt lat="46.09847" lon="2.74062">
        <ele>666.81</ele>
        <time>2014-06-22T10:39:16Z</time>
      </trkpt>
      <trkpt lat="46.09859" lon="2.74031">
        <ele>659.6</ele>
        <time>2014-06-22T10:39:31Z</time>
      </trkpt>
      <trkpt lat="46.09869" lon="2.74005">
        <ele>649.03</ele>
        <time>2014-06-22T10:39:46Z</time>
      </trkpt>
      <trkpt lat="46.09875" lon="2.73976">
        <ele>645.18</ele>
        <time>2014-06-22T10:40:01Z</time>
      </trkpt>
      <trkpt lat="46.099" lon="2.73945">
        <ele>649.03</ele>
        <time>2014-06-22T10:40:17Z</time>
      </trkpt>
      <trkpt lat="46.09902" lon="2.73924">
        <ele>657.68</ele>
        <time>2014-06-22T10:40:22Z</time>
      </trkpt>
      <trkpt lat="46.09911" lon="2.73876">
        <ele>661.52</ele>
        <time>2014-06-22T10:40:37Z</time>
      </trkpt>
      <trkpt lat="46.09911" lon="2.73835">
        <ele>664.89</ele>
        <time>2014-06-22T10:40:51Z</time>
      </trkpt>
      <trkpt lat="46.09917" lon="2.73798">
        <ele>661.04</ele>
        <time>2014-06-22T10:41:07Z</time>
      </trkpt>
      <trkpt lat="46.0992" lon="2.73784">
        <ele>659.6</ele>
        <time>2014-06-22T10:41:12Z</time>
      </trkpt>
      <trkpt lat="46.09933" lon="2.73751">
        <ele>653.83</ele>
        <time>2014-06-22T10:41:28Z</time>
      </trkpt>
      <trkpt lat="46.09936" lon="2.73729">
        <ele>647.1</ele>
        <time>2014-06-22T10:41:45Z</time>
      </trkpt>
      <trkpt lat="46.09935" lon="2.7372">
        <ele>645.66</ele>
        <time>2014-06-22T10:41:50Z</time>
      </trkpt>
      <trkpt lat="46.09939" lon="2.73704">
        <ele>645.18</ele>
        <time>2014-06-22T10:41:54Z</time>
      </trkpt>
      <trkpt lat="46.09943" lon="2.73646">
        <ele>644.7</ele>
        <time>2014-06-22T10:42:10Z</time>
      </trkpt>
      <trkpt lat="46.09942" lon="2.73608">
        <ele>649.99</ele>
        <time>2014-06-22T10:42:26Z</time>
      </trkpt>
      <trkpt lat="46.09936" lon="2.73559">
        <ele>657.68</ele>
        <time>2014-06-22T10:42:42Z</time>
      </trkpt>
      <trkpt lat="46.09933" lon="2.73523">
        <ele>661.04</ele>
        <time>2014-06-22T10:42:55Z</time>
      </trkpt>
      <trkpt lat="46.09931" lon="2.73488">
        <ele>661.04</ele>
        <time>2014-06-22T10:43:10Z</time>
      </trkpt>
      <trkpt lat="46.09929" lon="2.73457">
        <ele>658.16</ele>
        <time>2014-06-22T10:43:24Z</time>
      </trkpt>
      <trkpt lat="46.09932" lon="2.73436">
        <ele>656.24</ele>
        <time>2014-06-22T10:43:32Z</time>
      </trkpt>
      <trkpt lat="46.09935" lon="2.73409">
        <ele>652.39</ele>
        <time>2014-06-22T10:43:42Z</time>
      </trkpt>
      <trkpt lat="46.09938" lon="2.73372">
        <ele>648.55</ele>
        <time>2014-06-22T10:43:55Z</time>
      </trkpt>
      <trkpt lat="46.09937" lon="2.73334">
        <ele>642.78</ele>
        <time>2014-06-22T10:44:09Z</time>
      </trkpt>
      <trkpt lat="46.09938" lon="2.7333">
        <ele>641.82</ele>
        <time>2014-06-22T10:44:11Z</time>
      </trkpt>
      <trkpt lat="46.0994" lon="2.73321">
        <ele>639.89</ele>
        <time>2014-06-22T10:44:15Z</time>
      </trkpt>
      <trkpt lat="46.09941" lon="2.73288">
        <ele>638.93</ele>
        <time>2014-06-22T10:44:27Z</time>
      </trkpt>
      <trkpt lat="46.09943" lon="2.73253">
        <ele>635.57</ele>
        <time>2014-06-22T10:44:39Z</time>
      </trkpt>
      <trkpt lat="46.09943" lon="2.73239">
        <ele>633.65</ele>
        <time>2014-06-22T10:44:44Z</time>
      </trkpt>
      <trkpt lat="46.09946" lon="2.73208">
        <ele>629.8</ele>
        <time>2014-06-22T10:44:57Z</time>
      </trkpt>
      <trkpt lat="46.09944" lon="2.7318">
        <ele>628.84</ele>
        <time>2014-06-22T10:45:08Z</time>
      </trkpt>
      <trkpt lat="46.09935" lon="2.73177">
        <ele>625.47</ele>
        <time>2014-06-22T10:45:15Z</time>
      </trkpt>
      <trkpt lat="46.09909" lon="2.73202">
        <ele>621.63</ele>
        <time>2014-06-22T10:45:33Z</time>
      </trkpt>
      <trkpt lat="46.09886" lon="2.73223">
        <ele>621.15</ele>
        <time>2014-06-22T10:45:48Z</time>
      </trkpt>
      <trkpt lat="46.09867" lon="2.73252">
        <ele>624.03</ele>
        <time>2014-06-22T10:46:05Z</time>
      </trkpt>
      <trkpt lat="46.09844" lon="2.73277">
        <ele>625.96</ele>
        <time>2014-06-22T10:46:21Z</time>
      </trkpt>
      <trkpt lat="46.09826" lon="2.73309">
        <ele>631.24</ele>
        <time>2014-06-22T10:46:38Z</time>
      </trkpt>
      <trkpt lat="46.09803" lon="2.7333">
        <ele>633.65</ele>
        <time>2014-06-22T10:46:55Z</time>
      </trkpt>
      <trkpt lat="46.09781" lon="2.73334">
        <ele>633.65</ele>
        <time>2014-06-22T10:47:09Z</time>
      </trkpt>
      <trkpt lat="46.09759" lon="2.73339">
        <ele>633.17</ele>
        <time>2014-06-22T10:47:23Z</time>
      </trkpt>
      <trkpt lat="46.09733" lon="2.7334">
        <ele>634.13</ele>
        <time>2014-06-22T10:47:38Z</time>
      </trkpt>
      <trkpt lat="46.09709" lon="2.73338">
        <ele>637.49</ele>
        <time>2014-06-22T10:47:51Z</time>
      </trkpt>
      <trkpt lat="46.09687" lon="2.73339">
        <ele>639.89</ele>
        <time>2014-06-22T10:48:05Z</time>
      </trkpt>
      <trkpt lat="46.09667" lon="2.73348">
        <ele>637.49</ele>
        <time>2014-06-22T10:48:21Z</time>
      </trkpt>
      <trkpt lat="46.09664" lon="2.73351">
        <ele>637.97</ele>
        <time>2014-06-22T10:48:23Z</time>
      </trkpt>
      <trkpt lat="46.09635" lon="2.73368">
        <ele>637.97</ele>
        <time>2014-06-22T10:48:40Z</time>
      </trkpt>
      <trkpt lat="46.09614" lon="2.73376">
        <ele>639.89</ele>
        <time>2014-06-22T10:48:54Z</time>
      </trkpt>
      <trkpt lat="46.09588" lon="2.73372">
        <ele>642.3</ele>
        <time>2014-06-22T10:49:08Z</time>
      </trkpt>
      <trkpt lat="46.09579" lon="2.7337">
        <ele>643.74</ele>
        <time>2014-06-22T10:49:12Z</time>
      </trkpt>
      <trkpt lat="46.09572" lon="2.73366">
        <ele>645.18</ele>
        <time>2014-06-22T10:49:16Z</time>
      </trkpt>
      <trkpt lat="46.09551" lon="2.73333">
        <ele>653.83</ele>
        <time>2014-06-22T10:49:33Z</time>
      </trkpt>
      <trkpt lat="46.09536" lon="2.73305">
        <ele>661.04</ele>
        <time>2014-06-22T10:49:51Z</time>
      </trkpt>
      <trkpt lat="46.09518" lon="2.73308">
        <ele>664.41</ele>
        <time>2014-06-22T10:50:01Z</time>
      </trkpt>
      <trkpt lat="46.09499" lon="2.73309">
        <ele>663.45</ele>
        <time>2014-06-22T10:50:19Z</time>
      </trkpt>
      <trkpt lat="46.09496" lon="2.73309">
        <ele>663.93</ele>
        <time>2014-06-22T10:50:23Z</time>
      </trkpt>
      <trkpt lat="46.09489" lon="2.73309">
        <ele>663.45</ele>
        <time>2014-06-22T10:50:28Z</time>
      </trkpt>
      <trkpt lat="46.09462" lon="2.73316">
        <ele>662.97</ele>
        <time>2014-06-22T10:50:45Z</time>
      </trkpt>
      <trkpt lat="46.09441" lon="2.73319">
        <ele>667.29</ele>
        <time>2014-06-22T10:51:02Z</time>
      </trkpt>
      <trkpt lat="46.09427" lon="2.73302">
        <ele>671.62</ele>
        <time>2014-06-22T10:51:17Z</time>
      </trkpt>
      <trkpt lat="46.09401" lon="2.733">
        <ele>679.31</ele>
        <time>2014-06-22T10:51:31Z</time>
      </trkpt>
      <trkpt lat="46.09394" lon="2.73303">
        <ele>681.71</ele>
        <time>2014-06-22T10:51:36Z</time>
      </trkpt>
      <trkpt lat="46.09364" lon="2.73291">
        <ele>696.13</ele>
        <time>2014-06-22T10:51:53Z</time>
      </trkpt>
      <trkpt lat="46.09339" lon="2.73308">
        <ele>699.98</ele>
        <time>2014-06-22T10:52:10Z</time>
      </trkpt>
      <trkpt lat="46.0932" lon="2.73331">
        <ele>702.86</ele>
        <time>2014-06-22T10:52:26Z</time>
      </trkpt>
      <trkpt lat="46.09315" lon="2.7334">
        <ele>703.82</ele>
        <time>2014-06-22T10:52:32Z</time>
      </trkpt>
      <trkpt lat="46.0931" lon="2.73345">
        <ele>704.78</ele>
        <time>2014-06-22T10:52:36Z</time>
      </trkpt>
      <trkpt lat="46.09304" lon="2.73351">
        <ele>706.23</ele>
        <time>2014-06-22T10:52:40Z</time>
      </trkpt>
      <trkpt lat="46.09288" lon="2.73361">
        <ele>707.19</ele>
        <time>2014-06-22T10:52:56Z</time>
      </trkpt>
      <trkpt lat="46.09289" lon="2.7335">
        <ele>706.71</ele>
        <time>2014-06-22T10:53:12Z</time>
      </trkpt>
      <trkpt lat="46.09293" lon="2.73344">
        <ele>706.23</ele>
        <time>2014-06-22T10:53:14Z</time>
      </trkpt>
      <trkpt lat="46.09314" lon="2.733">
        <ele>703.34</ele>
        <time>2014-06-22T10:53:35Z</time>
      </trkpt>
      <trkpt lat="46.09338" lon="2.73264">
        <ele>708.15</ele>
        <time>2014-06-22T10:53:48Z</time>
      </trkpt>
      <trkpt lat="46.09352" lon="2.73245">
        <ele>709.59</ele>
        <time>2014-06-22T10:54:04Z</time>
      </trkpt>
      <trkpt lat="46.09358" lon="2.73242">
        <ele>710.55</ele>
        <time>2014-06-22T10:54:11Z</time>
      </trkpt>
      <trkpt lat="46.09384" lon="2.73225">
        <ele>714.4</ele>
        <time>2014-06-22T10:54:29Z</time>
      </trkpt>
      <trkpt lat="46.09416" lon="2.73203">
        <ele>719.68</ele>
        <time>2014-06-22T10:54:47Z</time>
      </trkpt>
      <trkpt lat="46.09431" lon="2.7317">
        <ele>723.05</ele>
        <time>2014-06-22T10:55:02Z</time>
      </trkpt>
      <trkpt lat="46.09441" lon="2.73161">
        <ele>724.49</ele>
        <time>2014-06-22T10:55:08Z</time>
      </trkpt>
      <trkpt lat="46.09453" lon="2.73144">
        <ele>723.05</ele>
        <time>2014-06-22T10:55:18Z</time>
      </trkpt>
      <trkpt lat="46.09467" lon="2.73126">
        <ele>721.61</ele>
        <time>2014-06-22T10:55:32Z</time>
      </trkpt>
      <trkpt lat="46.09504" lon="2.73116">
        <ele>719.2</ele>
        <time>2014-06-22T10:55:49Z</time>
      </trkpt>
      <trkpt lat="46.09531" lon="2.73107">
        <ele>715.84</ele>
        <time>2014-06-22T10:56:06Z</time>
      </trkpt>
      <trkpt lat="46.09557" lon="2.73106">
        <ele>713.44</ele>
        <time>2014-06-22T10:56:22Z</time>
      </trkpt>
      <trkpt lat="46.09583" lon="2.73096">
        <ele>711.51</ele>
        <time>2014-06-22T10:56:40Z</time>
      </trkpt>
      <trkpt lat="46.09595" lon="2.73084">
        <ele>711.03</ele>
        <time>2014-06-22T10:56:45Z</time>
      </trkpt>
      <trkpt lat="46.09623" lon="2.73049">
        <ele>711.03</ele>
        <time>2014-06-22T10:57:01Z</time>
      </trkpt>
      <trkpt lat="46.09637" lon="2.73022">
        <ele>711.51</ele>
        <time>2014-06-22T10:57:15Z</time>
      </trkpt>
      <trkpt lat="46.09654" lon="2.72989">
        <ele>710.55</ele>
        <time>2014-06-22T10:57:30Z</time>
      </trkpt>
      <trkpt lat="46.09676" lon="2.72952">
        <ele>706.71</ele>
        <time>2014-06-22T10:57:46Z</time>
      </trkpt>
      <trkpt lat="46.09695" lon="2.7292">
        <ele>704.3</ele>
        <time>2014-06-22T10:58:01Z</time>
      </trkpt>
      <trkpt lat="46.09714" lon="2.72894">
        <ele>701.42</ele>
        <time>2014-06-22T10:58:16Z</time>
      </trkpt>
      <trkpt lat="46.09716" lon="2.72859">
        <ele>697.09</ele>
        <time>2014-06-22T10:58:30Z</time>
      </trkpt>
      <trkpt lat="46.09712" lon="2.72844">
        <ele>695.17</ele>
        <time>2014-06-22T10:58:35Z</time>
      </trkpt>
      <trkpt lat="46.09698" lon="2.72805">
        <ele>691.81</ele>
        <time>2014-06-22T10:58:50Z</time>
      </trkpt>
      <trkpt lat="46.09685" lon="2.72779">
        <ele>689.4</ele>
        <time>2014-06-22T10:59:03Z</time>
      </trkpt>
      <trkpt lat="46.09661" lon="2.7275">
        <ele>687</ele>
        <time>2014-06-22T10:59:18Z</time>
      </trkpt>
      <trkpt lat="46.09638" lon="2.72723">
        <ele>685.56</ele>
        <time>2014-06-22T10:59:34Z</time>
      </trkpt>
      <trkpt lat="46.09635" lon="2.7272">
        <ele>684.6</ele>
        <time>2014-06-22T10:59:36Z</time>
      </trkpt>
      <trkpt lat="46.0963" lon="2.72715">
        <ele>684.12</ele>
        <time>2014-06-22T10:59:40Z</time>
      </trkpt>
      <trkpt lat="46.09607" lon="2.72691">
        <ele>682.67</ele>
        <time>2014-06-22T10:59:55Z</time>
      </trkpt>
      <trkpt lat="46.09586" lon="2.72669">
        <ele>680.27</ele>
        <time>2014-06-22T11:00:08Z</time>
      </trkpt>
      <trkpt lat="46.09576" lon="2.72667">
        <ele>678.35</ele>
        <time>2014-06-22T11:00:13Z</time>
      </trkpt>
      <trkpt lat="46.09553" lon="2.72659">
        <ele>674.98</ele>
        <time>2014-06-22T11:00:26Z</time>
      </trkpt>
      <trkpt lat="46.09525" lon="2.7264">
        <ele>671.62</ele>
        <time>2014-06-22T11:00:42Z</time>
      </trkpt>
      <trkpt lat="46.095" lon="2.72622">
        <ele>669.7</ele>
        <time>2014-06-22T11:00:56Z</time>
      </trkpt>
      <trkpt lat="46.0949" lon="2.72598">
        <ele>666.81</ele>
        <time>2014-06-22T11:01:09Z</time>
      </trkpt>
      <trkpt lat="46.09488" lon="2.72589">
        <ele>664.41</ele>
        <time>2014-06-22T11:01:13Z</time>
      </trkpt>
      <trkpt lat="46.09492" lon="2.72579">
        <ele>662.97</ele>
        <time>2014-06-22T11:01:17Z</time>
      </trkpt>
      <trkpt lat="46.09507" lon="2.7258">
        <ele>657.68</ele>
        <time>2014-06-22T11:01:28Z</time>
      </trkpt>
      <trkpt lat="46.09516" lon="2.72585">
        <ele>653.83</ele>
        <time>2014-06-22T11:01:35Z</time>
      </trkpt>
      <trkpt lat="46.09524" lon="2.72582">
        <ele>650.95</ele>
        <time>2014-06-22T11:01:39Z</time>
      </trkpt>
      <trkpt lat="46.09536" lon="2.72559">
        <ele>645.66</ele>
        <time>2014-06-22T11:01:51Z</time>
      </trkpt>
      <trkpt lat="46.09531" lon="2.7253">
        <ele>639.89</ele>
        <time>2014-06-22T11:02:01Z</time>
      </trkpt>
      <trkpt lat="46.09535" lon="2.72526">
        <ele>637.97</ele>
        <time>2014-06-22T11:02:05Z</time>
      </trkpt>
      <trkpt lat="46.09561" lon="2.72526">
        <ele>631.24</ele>
        <time>2014-06-22T11:02:21Z</time>
      </trkpt>
      <trkpt lat="46.09589" lon="2.72524">
        <ele>627.88</ele>
        <time>2014-06-22T11:02:37Z</time>
      </trkpt>
      <trkpt lat="46.09613" lon="2.72513">
        <ele>626.92</ele>
        <time>2014-06-22T11:02:50Z</time>
      </trkpt>
      <trkpt lat="46.09642" lon="2.72506">
        <ele>630.28</ele>
        <time>2014-06-22T11:03:05Z</time>
      </trkpt>
      <trkpt lat="46.09666" lon="2.72499">
        <ele>631.24</ele>
        <time>2014-06-22T11:03:18Z</time>
      </trkpt>
      <trkpt lat="46.09691" lon="2.72492">
        <ele>630.76</ele>
        <time>2014-06-22T11:03:32Z</time>
      </trkpt>
      <trkpt lat="46.0972" lon="2.72483">
        <ele>630.28</ele>
        <time>2014-06-22T11:03:48Z</time>
      </trkpt>
      <trkpt lat="46.09745" lon="2.72477">
        <ele>628.36</ele>
        <time>2014-06-22T11:04:02Z</time>
      </trkpt>
      <trkpt lat="46.09773" lon="2.72467">
        <ele>624.51</ele>
        <time>2014-06-22T11:04:18Z</time>
      </trkpt>
      <trkpt lat="46.09795" lon="2.72461">
        <ele>623.55</ele>
        <time>2014-06-22T11:04:30Z</time>
      </trkpt>
      <trkpt lat="46.09821" lon="2.72457">
        <ele>623.07</ele>
        <time>2014-06-22T11:04:44Z</time>
      </trkpt>
      <trkpt lat="46.09852" lon="2.72444">
        <ele>620.67</ele>
        <time>2014-06-22T11:05:01Z</time>
      </trkpt>
      <trkpt lat="46.09877" lon="2.72442">
        <ele>620.67</ele>
        <time>2014-06-22T11:05:15Z</time>
      </trkpt>
      <trkpt lat="46.09905" lon="2.72437">
        <ele>621.63</ele>
        <time>2014-06-22T11:05:30Z</time>
      </trkpt>
      <trkpt lat="46.09933" lon="2.7244">
        <ele>623.07</ele>
        <time>2014-06-22T11:05:47Z</time>
      </trkpt>
      <trkpt lat="46.09962" lon="2.7244">
        <ele>622.59</ele>
        <time>2014-06-22T11:06:03Z</time>
      </trkpt>
      <trkpt lat="46.09994" lon="2.72447">
        <ele>620.67</ele>
        <time>2014-06-22T11:06:20Z</time>
      </trkpt>
      <trkpt lat="46.1002" lon="2.72451">
        <ele>617.78</ele>
        <time>2014-06-22T11:06:36Z</time>
      </trkpt>
      <trkpt lat="46.10049" lon="2.72456">
        <ele>614.42</ele>
        <time>2014-06-22T11:06:52Z</time>
      </trkpt>
      <trkpt lat="46.10083" lon="2.72459">
        <ele>613.94</ele>
        <time>2014-06-22T11:07:08Z</time>
      </trkpt>
      <trkpt lat="46.10107" lon="2.72465">
        <ele>612.98</ele>
        <time>2014-06-22T11:07:23Z</time>
      </trkpt>
      <trkpt lat="46.10115" lon="2.72467">
        <ele>612.98</ele>
        <time>2014-06-22T11:07:27Z</time>
      </trkpt>
      <trkpt lat="46.10145" lon="2.72465">
        <ele>613.94</ele>
        <time>2014-06-22T11:07:42Z</time>
      </trkpt>
      <trkpt lat="46.10159" lon="2.72464">
        <ele>613.46</ele>
        <time>2014-06-22T11:07:50Z</time>
      </trkpt>
      <trkpt lat="46.10187" lon="2.72458">
        <ele>612.5</ele>
        <time>2014-06-22T11:08:05Z</time>
      </trkpt>
      <trkpt lat="46.10209" lon="2.72453">
        <ele>613.94</ele>
        <time>2014-06-22T11:08:18Z</time>
      </trkpt>
      <trkpt lat="46.1023" lon="2.72445">
        <ele>613.94</ele>
        <time>2014-06-22T11:08:31Z</time>
      </trkpt>
      <trkpt lat="46.10252" lon="2.7243">
        <ele>614.42</ele>
        <time>2014-06-22T11:08:45Z</time>
      </trkpt>
      <trkpt lat="46.1028" lon="2.72412">
        <ele>612.98</ele>
        <time>2014-06-22T11:09:02Z</time>
      </trkpt>
      <trkpt lat="46.10303" lon="2.72389">
        <ele>612.02</ele>
        <time>2014-06-22T11:09:16Z</time>
      </trkpt>
      <trkpt lat="46.10324" lon="2.72366">
        <ele>611.54</ele>
        <time>2014-06-22T11:09:31Z</time>
      </trkpt>
      <trkpt lat="46.10341" lon="2.72344">
        <ele>611.06</ele>
        <time>2014-06-22T11:09:43Z</time>
      </trkpt>
      <trkpt lat="46.10355" lon="2.72314">
        <ele>612.02</ele>
        <time>2014-06-22T11:09:57Z</time>
      </trkpt>
      <trkpt lat="46.10369" lon="2.72287">
        <ele>612.02</ele>
        <time>2014-06-22T11:10:10Z</time>
      </trkpt>
      <trkpt lat="46.10373" lon="2.72282">
        <ele>612.02</ele>
        <time>2014-06-22T11:10:13Z</time>
      </trkpt>
      <trkpt lat="46.10378" lon="2.72269">
        <ele>612.5</ele>
        <time>2014-06-22T11:10:26Z</time>
      </trkpt>
      <trkpt lat="46.10376" lon="2.7227">
        <ele>612.5</ele>
        <time>2014-06-22T11:10:45Z</time>
      </trkpt>
      <trkpt lat="46.10376" lon="2.7227">
        <ele>612.5</ele>
        <time>2014-06-22T11:11:08Z</time>
      </trkpt>
      <trkpt lat="46.10376" lon="2.7227">
        <ele>612.5</ele>
        <time>2014-06-22T11:11:33Z</time>
      </trkpt>
      <trkpt lat="46.10376" lon="2.7227">
        <ele>612.5</ele>
        <time>2014-06-22T11:11:57Z</time>
      </trkpt>
      <trkpt lat="46.10376" lon="2.7227">
        <ele>612.5</ele>
        <time>2014-06-22T11:12:18Z</time>
      </trkpt>
      <trkpt lat="46.10377" lon="2.72265">
        <ele>611.54</ele>
        <time>2014-06-22T11:12:41Z</time>
      </trkpt>
      <trkpt lat="46.10389" lon="2.72221">
        <ele>607.69</ele>
        <time>2014-06-22T11:12:58Z</time>
      </trkpt>
      <trkpt lat="46.10401" lon="2.72188">
        <ele>606.73</ele>
        <time>2014-06-22T11:13:12Z</time>
      </trkpt>
      <trkpt lat="46.10413" lon="2.72151">
        <ele>604.81</ele>
        <time>2014-06-22T11:13:28Z</time>
      </trkpt>
      <trkpt lat="46.10423" lon="2.72119">
        <ele>603.36</ele>
        <time>2014-06-22T11:13:42Z</time>
      </trkpt>
      <trkpt lat="46.10435" lon="2.72085">
        <ele>602.88</ele>
        <time>2014-06-22T11:13:57Z</time>
      </trkpt>
      <trkpt lat="46.10446" lon="2.72051">
        <ele>600.96</ele>
        <time>2014-06-22T11:14:12Z</time>
      </trkpt>
      <trkpt lat="46.10462" lon="2.72018">
        <ele>599.04</ele>
        <time>2014-06-22T11:14:27Z</time>
      </trkpt>
      <trkpt lat="46.10469" lon="2.72">
        <ele>598.56</ele>
        <time>2014-06-22T11:14:35Z</time>
      </trkpt>
      <trkpt lat="46.10473" lon="2.7199">
        <ele>597.6</ele>
        <time>2014-06-22T11:14:40Z</time>
      </trkpt>
      <trkpt lat="46.1048" lon="2.71978">
        <ele>597.6</ele>
        <time>2014-06-22T11:14:46Z</time>
      </trkpt>
      <trkpt lat="46.10503" lon="2.71946">
        <ele>596.64</ele>
        <time>2014-06-22T11:15:03Z</time>
      </trkpt>
      <trkpt lat="46.10522" lon="2.71922">
        <ele>594.23</ele>
        <time>2014-06-22T11:15:18Z</time>
      </trkpt>
      <trkpt lat="46.10546" lon="2.71904">
        <ele>591.83</ele>
        <time>2014-06-22T11:15:34Z</time>
      </trkpt>
      <trkpt lat="46.10571" lon="2.71888">
        <ele>592.31</ele>
        <time>2014-06-22T11:15:50Z</time>
      </trkpt>
      <trkpt lat="46.10608" lon="2.71871">
        <ele>592.31</ele>
        <time>2014-06-22T11:16:09Z</time>
      </trkpt>
      <trkpt lat="46.10639" lon="2.71863">
        <ele>596.15</ele>
        <time>2014-06-22T11:16:26Z</time>
      </trkpt>
      <trkpt lat="46.10665" lon="2.71854">
        <ele>598.56</ele>
        <time>2014-06-22T11:16:41Z</time>
      </trkpt>
      <trkpt lat="46.1069" lon="2.71848">
        <ele>598.08</ele>
        <time>2014-06-22T11:16:56Z</time>
      </trkpt>
      <trkpt lat="46.1072" lon="2.71844">
        <ele>598.08</ele>
        <time>2014-06-22T11:17:12Z</time>
      </trkpt>
      <trkpt lat="46.10749" lon="2.71834">
        <ele>597.6</ele>
        <time>2014-06-22T11:17:28Z</time>
      </trkpt>
      <trkpt lat="46.10777" lon="2.71829">
        <ele>598.08</ele>
        <time>2014-06-22T11:17:42Z</time>
      </trkpt>
      <trkpt lat="46.10808" lon="2.71819">
        <ele>597.12</ele>
        <time>2014-06-22T11:18:01Z</time>
      </trkpt>
      <trkpt lat="46.10835" lon="2.71815">
        <ele>596.15</ele>
        <time>2014-06-22T11:18:16Z</time>
      </trkpt>
      <trkpt lat="46.10865" lon="2.71811">
        <ele>596.15</ele>
        <time>2014-06-22T11:18:34Z</time>
      </trkpt>
      <trkpt lat="46.10881" lon="2.71816">
        <ele>595.19</ele>
        <time>2014-06-22T11:18:42Z</time>
      </trkpt>
      <trkpt lat="46.10884" lon="2.71816">
        <ele>594.71</ele>
        <time>2014-06-22T11:18:44Z</time>
      </trkpt>
      <trkpt lat="46.10884" lon="2.71804">
        <ele>592.79</ele>
        <time>2014-06-22T11:18:51Z</time>
      </trkpt>
      <trkpt lat="46.10875" lon="2.71792">
        <ele>592.31</ele>
        <time>2014-06-22T11:18:58Z</time>
      </trkpt>
      <trkpt lat="46.10871" lon="2.7178">
        <ele>591.35</ele>
        <time>2014-06-22T11:19:03Z</time>
      </trkpt>
      <trkpt lat="46.10876" lon="2.71769">
        <ele>589.43</ele>
        <time>2014-06-22T11:19:10Z</time>
      </trkpt>
      <trkpt lat="46.10898" lon="2.71754">
        <ele>588.46</ele>
        <time>2014-06-22T11:19:24Z</time>
      </trkpt>
      <trkpt lat="46.10912" lon="2.71753">
        <ele>587.5</ele>
        <time>2014-06-22T11:19:32Z</time>
      </trkpt>
      <trkpt lat="46.10942" lon="2.71782">
        <ele>585.1</ele>
        <time>2014-06-22T11:19:52Z</time>
      </trkpt>
      <trkpt lat="46.10972" lon="2.71782">
        <ele>584.14</ele>
        <time>2014-06-22T11:20:07Z</time>
      </trkpt>
      <trkpt lat="46.10994" lon="2.71768">
        <ele>581.25</ele>
        <time>2014-06-22T11:20:23Z</time>
      </trkpt>
      <trkpt lat="46.11024" lon="2.7174">
        <ele>577.41</ele>
        <time>2014-06-22T11:20:43Z</time>
      </trkpt>
      <trkpt lat="46.11042" lon="2.71719">
        <ele>572.6</ele>
        <time>2014-06-22T11:20:56Z</time>
      </trkpt>
      <trkpt lat="46.11072" lon="2.71689">
        <ele>565.87</ele>
        <time>2014-06-22T11:21:14Z</time>
      </trkpt>
      <trkpt lat="46.11074" lon="2.71688">
        <ele>565.39</ele>
        <time>2014-06-22T11:21:15Z</time>
      </trkpt>
      <trkpt lat="46.11111" lon="2.71686">
        <ele>561.07</ele>
        <time>2014-06-22T11:21:32Z</time>
      </trkpt>
      <trkpt lat="46.11133" lon="2.71669">
        <ele>560.11</ele>
        <time>2014-06-22T11:21:47Z</time>
      </trkpt>
      <trkpt lat="46.11136" lon="2.71668">
        <ele>559.62</ele>
        <time>2014-06-22T11:21:49Z</time>
      </trkpt>
      <trkpt lat="46.11145" lon="2.71666">
        <ele>558.66</ele>
        <time>2014-06-22T11:21:55Z</time>
      </trkpt>
      <trkpt lat="46.11169" lon="2.71655">
        <ele>557.7</ele>
        <time>2014-06-22T11:22:10Z</time>
      </trkpt>
      <trkpt lat="46.11197" lon="2.71637">
        <ele>559.14</ele>
        <time>2014-06-22T11:22:25Z</time>
      </trkpt>
      <trkpt lat="46.11216" lon="2.71631">
        <ele>556.26</ele>
        <time>2014-06-22T11:22:40Z</time>
      </trkpt>
      <trkpt lat="46.11218" lon="2.7163">
        <ele>556.26</ele>
        <time>2014-06-22T11:22:42Z</time>
      </trkpt>
      <trkpt lat="46.1125" lon="2.71614">
        <ele>558.18</ele>
        <time>2014-06-22T11:23:01Z</time>
      </trkpt>
      <trkpt lat="46.11261" lon="2.71617">
        <ele>559.62</ele>
        <time>2014-06-22T11:23:07Z</time>
      </trkpt>
      <trkpt lat="46.11286" lon="2.7162">
        <ele>558.66</ele>
        <time>2014-06-22T11:23:24Z</time>
      </trkpt>
      <trkpt lat="46.11314" lon="2.71623">
        <ele>558.18</ele>
        <time>2014-06-22T11:23:38Z</time>
      </trkpt>
      <trkpt lat="46.1134" lon="2.71624">
        <ele>556.74</ele>
        <time>2014-06-22T11:23:53Z</time>
      </trkpt>
      <trkpt lat="46.11364" lon="2.71632">
        <ele>555.3</ele>
        <time>2014-06-22T11:24:11Z</time>
      </trkpt>
      <trkpt lat="46.11382" lon="2.71646">
        <ele>553.86</ele>
        <time>2014-06-22T11:24:21Z</time>
      </trkpt>
      <trkpt lat="46.11401" lon="2.71654">
        <ele>548.57</ele>
        <time>2014-06-22T11:24:32Z</time>
      </trkpt>
      <trkpt lat="46.11431" lon="2.71648">
        <ele>547.61</ele>
        <time>2014-06-22T11:24:47Z</time>
      </trkpt>
      <trkpt lat="46.11451" lon="2.71655">
        <ele>543.76</ele>
        <time>2014-06-22T11:25:03Z</time>
      </trkpt>
      <trkpt lat="46.11472" lon="2.71667">
        <ele>541.84</ele>
        <time>2014-06-22T11:25:14Z</time>
      </trkpt>
      <trkpt lat="46.11513" lon="2.71679">
        <ele>542.32</ele>
        <time>2014-06-22T11:25:34Z</time>
      </trkpt>
      <trkpt lat="46.11529" lon="2.71655">
        <ele>541.36</ele>
        <time>2014-06-22T11:25:47Z</time>
      </trkpt>
      <trkpt lat="46.11544" lon="2.71635">
        <ele>540.88</ele>
        <time>2014-06-22T11:26:01Z</time>
      </trkpt>
      <trkpt lat="46.11548" lon="2.71633">
        <ele>541.84</ele>
        <time>2014-06-22T11:26:03Z</time>
      </trkpt>
      <trkpt lat="46.1157" lon="2.71608">
        <ele>544.24</ele>
        <time>2014-06-22T11:26:18Z</time>
      </trkpt>
      <trkpt lat="46.11592" lon="2.71587">
        <ele>543.76</ele>
        <time>2014-06-22T11:26:34Z</time>
      </trkpt>
      <trkpt lat="46.11599" lon="2.71581">
        <ele>542.32</ele>
        <time>2014-06-22T11:26:41Z</time>
      </trkpt>
      <trkpt lat="46.11604" lon="2.71582">
        <ele>541.84</ele>
        <time>2014-06-22T11:26:45Z</time>
      </trkpt>
      <trkpt lat="46.11626" lon="2.716">
        <ele>544.24</ele>
        <time>2014-06-22T11:27:02Z</time>
      </trkpt>
      <trkpt lat="46.11635" lon="2.7163">
        <ele>548.09</ele>
        <time>2014-06-22T11:27:18Z</time>
      </trkpt>
      <trkpt lat="46.11649" lon="2.71671">
        <ele>552.9</ele>
        <time>2014-06-22T11:27:36Z</time>
      </trkpt>
      <trkpt lat="46.11662" lon="2.71704">
        <ele>558.18</ele>
        <time>2014-06-22T11:27:52Z</time>
      </trkpt>
      <trkpt lat="46.11662" lon="2.7172">
        <ele>558.18</ele>
        <time>2014-06-22T11:28:00Z</time>
      </trkpt>
      <trkpt lat="46.11683" lon="2.71733">
        <ele>562.51</ele>
        <time>2014-06-22T11:28:14Z</time>
      </trkpt>
      <trkpt lat="46.11699" lon="2.71721">
        <ele>563.47</ele>
        <time>2014-06-22T11:28:26Z</time>
      </trkpt>
      <trkpt lat="46.11709" lon="2.71723">
        <ele>563.47</ele>
        <time>2014-06-22T11:28:33Z</time>
      </trkpt>
      <trkpt lat="46.11729" lon="2.7173">
        <ele>563.47</ele>
        <time>2014-06-22T11:28:47Z</time>
      </trkpt>
      <trkpt lat="46.11757" lon="2.71732">
        <ele>566.35</ele>
        <time>2014-06-22T11:29:04Z</time>
      </trkpt>
      <trkpt lat="46.11782" lon="2.71749">
        <ele>567.8</ele>
        <time>2014-06-22T11:29:21Z</time>
      </trkpt>
      <trkpt lat="46.11783" lon="2.71778">
        <ele>567.32</ele>
        <time>2014-06-22T11:29:36Z</time>
      </trkpt>
      <trkpt lat="46.1177" lon="2.71802">
        <ele>568.28</ele>
        <time>2014-06-22T11:29:49Z</time>
      </trkpt>
      <trkpt lat="46.11754" lon="2.71829">
        <ele>570.2</ele>
        <time>2014-06-22T11:30:03Z</time>
      </trkpt>
      <trkpt lat="46.1175" lon="2.71842">
        <ele>570.2</ele>
        <time>2014-06-22T11:30:09Z</time>
      </trkpt>
      <trkpt lat="46.11751" lon="2.71878">
        <ele>572.12</ele>
        <time>2014-06-22T11:30:24Z</time>
      </trkpt>
      <trkpt lat="46.1175" lon="2.71913">
        <ele>573.56</ele>
        <time>2014-06-22T11:30:38Z</time>
      </trkpt>
      <trkpt lat="46.11747" lon="2.71952">
        <ele>579.33</ele>
        <time>2014-06-22T11:30:56Z</time>
      </trkpt>
      <trkpt lat="46.11749" lon="2.71992">
        <ele>587.02</ele>
        <time>2014-06-22T11:31:15Z</time>
      </trkpt>
      <trkpt lat="46.11752" lon="2.72026">
        <ele>592.79</ele>
        <time>2014-06-22T11:31:30Z</time>
      </trkpt>
      <trkpt lat="46.11754" lon="2.72058">
        <ele>597.12</ele>
        <time>2014-06-22T11:31:44Z</time>
      </trkpt>
      <trkpt lat="46.11754" lon="2.72075">
        <ele>598.08</ele>
        <time>2014-06-22T11:31:57Z</time>
      </trkpt>
      <trkpt lat="46.11754" lon="2.72075">
        <ele>598.08</ele>
        <time>2014-06-22T11:32:17Z</time>
      </trkpt>
      <trkpt lat="46.11752" lon="2.72076">
        <ele>598.56</ele>
        <time>2014-06-22T11:32:34Z</time>
      </trkpt>
      <trkpt lat="46.11752" lon="2.72076">
        <ele>598.56</ele>
        <time>2014-06-22T11:33:00Z</time>
      </trkpt>
      <trkpt lat="46.11752" lon="2.72078">
        <ele>598.56</ele>
        <time>2014-06-22T11:33:25Z</time>
      </trkpt>
      <trkpt lat="46.11753" lon="2.72078">
        <ele>597.6</ele>
        <time>2014-06-22T11:33:49Z</time>
      </trkpt>
      <trkpt lat="46.11752" lon="2.72078">
        <ele>597.6</ele>
        <time>2014-06-22T11:34:05Z</time>
      </trkpt>
      <trkpt lat="46.11752" lon="2.72078">
        <ele>597.6</ele>
        <time>2014-06-22T11:34:35Z</time>
      </trkpt>
      <trkpt lat="46.11752" lon="2.72079">
        <ele>597.6</ele>
        <time>2014-06-22T11:35:04Z</time>
      </trkpt>
      <trkpt lat="46.11754" lon="2.72081">
        <ele>595.19</ele>
        <time>2014-06-22T11:35:26Z</time>
      </trkpt>
      <trkpt lat="46.11762" lon="2.72108">
        <ele>594.23</ele>
        <time>2014-06-22T11:35:38Z</time>
      </trkpt>
      <trkpt lat="46.11767" lon="2.72145">
        <ele>598.56</ele>
        <time>2014-06-22T11:35:54Z</time>
      </trkpt>
      <trkpt lat="46.11768" lon="2.72175">
        <ele>606.73</ele>
        <time>2014-06-22T11:36:09Z</time>
      </trkpt>
      <trkpt lat="46.11775" lon="2.72205">
        <ele>615.86</ele>
        <time>2014-06-22T11:36:26Z</time>
      </trkpt>
      <trkpt lat="46.11784" lon="2.72235">
        <ele>621.63</ele>
        <time>2014-06-22T11:36:41Z</time>
      </trkpt>
      <trkpt lat="46.118" lon="2.7226">
        <ele>624.99</ele>
        <time>2014-06-22T11:36:56Z</time>
      </trkpt>
      <trkpt lat="46.11813" lon="2.7229">
        <ele>631.24</ele>
        <time>2014-06-22T11:37:10Z</time>
      </trkpt>
      <trkpt lat="46.11819" lon="2.72309">
        <ele>632.68</ele>
        <time>2014-06-22T11:37:20Z</time>
      </trkpt>
      <trkpt lat="46.11822" lon="2.72343">
        <ele>636.05</ele>
        <time>2014-06-22T11:37:34Z</time>
      </trkpt>
      <trkpt lat="46.11822" lon="2.72376">
        <ele>636.53</ele>
        <time>2014-06-22T11:37:47Z</time>
      </trkpt>
      <trkpt lat="46.11822" lon="2.7238">
        <ele>637.01</ele>
        <time>2014-06-22T11:37:49Z</time>
      </trkpt>
      <trkpt lat="46.1182" lon="2.72407">
        <ele>635.57</ele>
        <time>2014-06-22T11:38:02Z</time>
      </trkpt>
      <trkpt lat="46.11821" lon="2.72418">
        <ele>634.61</ele>
        <time>2014-06-22T11:38:06Z</time>
      </trkpt>
      <trkpt lat="46.11821" lon="2.72464">
        <ele>625.96</ele>
        <time>2014-06-22T11:38:24Z</time>
      </trkpt>
      <trkpt lat="46.11821" lon="2.72474">
        <ele>625.47</ele>
        <time>2014-06-22T11:38:28Z</time>
      </trkpt>
      <trkpt lat="46.11813" lon="2.72512">
        <ele>625.47</ele>
        <time>2014-06-22T11:38:43Z</time>
      </trkpt>
      <trkpt lat="46.11804" lon="2.7254">
        <ele>624.51</ele>
        <time>2014-06-22T11:38:57Z</time>
      </trkpt>
      <trkpt lat="46.11794" lon="2.72564">
        <ele>624.03</ele>
        <time>2014-06-22T11:39:10Z</time>
      </trkpt>
      <trkpt lat="46.11784" lon="2.72597">
        <ele>625.96</ele>
        <time>2014-06-22T11:39:23Z</time>
      </trkpt>
      <trkpt lat="46.11779" lon="2.72631">
        <ele>626.92</ele>
        <time>2014-06-22T11:39:36Z</time>
      </trkpt>
      <trkpt lat="46.11777" lon="2.72664">
        <ele>626.44</ele>
        <time>2014-06-22T11:39:48Z</time>
      </trkpt>
      <trkpt lat="46.11777" lon="2.72703">
        <ele>624.99</ele>
        <time>2014-06-22T11:40:02Z</time>
      </trkpt>
      <trkpt lat="46.11777" lon="2.72705">
        <ele>624.99</ele>
        <time>2014-06-22T11:40:03Z</time>
      </trkpt>
      <trkpt lat="46.11779" lon="2.72746">
        <ele>624.03</ele>
        <time>2014-06-22T11:40:19Z</time>
      </trkpt>
      <trkpt lat="46.1178" lon="2.72766">
        <ele>624.51</ele>
        <time>2014-06-22T11:40:31Z</time>
      </trkpt>
      <trkpt lat="46.11785" lon="2.72789">
        <ele>622.59</ele>
        <time>2014-06-22T11:40:42Z</time>
      </trkpt>
      <trkpt lat="46.11789" lon="2.72826">
        <ele>623.07</ele>
        <time>2014-06-22T11:40:57Z</time>
      </trkpt>
      <trkpt lat="46.11788" lon="2.72858">
        <ele>621.63</ele>
        <time>2014-06-22T11:41:10Z</time>
      </trkpt>
      <trkpt lat="46.11782" lon="2.7289">
        <ele>622.11</ele>
        <time>2014-06-22T11:41:23Z</time>
      </trkpt>
      <trkpt lat="46.11775" lon="2.7292">
        <ele>624.03</ele>
        <time>2014-06-22T11:41:36Z</time>
      </trkpt>
      <trkpt lat="46.11773" lon="2.72932">
        <ele>625.47</ele>
        <time>2014-06-22T11:41:42Z</time>
      </trkpt>
      <trkpt lat="46.11769" lon="2.72943">
        <ele>626.44</ele>
        <time>2014-06-22T11:41:47Z</time>
      </trkpt>
      <trkpt lat="46.11762" lon="2.72984">
        <ele>627.4</ele>
        <time>2014-06-22T11:42:01Z</time>
      </trkpt>
      <trkpt lat="46.11758" lon="2.72995">
        <ele>628.84</ele>
        <time>2014-06-22T11:42:07Z</time>
      </trkpt>
      <trkpt lat="46.11758" lon="2.73019">
        <ele>629.32</ele>
        <time>2014-06-22T11:42:15Z</time>
      </trkpt>
      <trkpt lat="46.11758" lon="2.73063">
        <ele>629.8</ele>
        <time>2014-06-22T11:42:32Z</time>
      </trkpt>
      <trkpt lat="46.11762" lon="2.73098">
        <ele>632.2</ele>
        <time>2014-06-22T11:42:49Z</time>
      </trkpt>
      <trkpt lat="46.11773" lon="2.73138">
        <ele>633.65</ele>
        <time>2014-06-22T11:43:06Z</time>
      </trkpt>
      <trkpt lat="46.11777" lon="2.7317">
        <ele>636.05</ele>
        <time>2014-06-22T11:43:20Z</time>
      </trkpt>
      <trkpt lat="46.11783" lon="2.73212">
        <ele>639.89</ele>
        <time>2014-06-22T11:43:35Z</time>
      </trkpt>
      <trkpt lat="46.11786" lon="2.73253">
        <ele>640.38</ele>
        <time>2014-06-22T11:43:50Z</time>
      </trkpt>
      <trkpt lat="46.11786" lon="2.73273">
        <ele>641.34</ele>
        <time>2014-06-22T11:43:58Z</time>
      </trkpt>
      <trkpt lat="46.11788" lon="2.73309">
        <ele>644.7</ele>
        <time>2014-06-22T11:44:11Z</time>
      </trkpt>
      <trkpt lat="46.11778" lon="2.73336">
        <ele>646.62</ele>
        <time>2014-06-22T11:44:24Z</time>
      </trkpt>
      <trkpt lat="46.11764" lon="2.7336">
        <ele>649.03</ele>
        <time>2014-06-22T11:44:37Z</time>
      </trkpt>
      <trkpt lat="46.11751" lon="2.73385">
        <ele>652.39</ele>
        <time>2014-06-22T11:44:51Z</time>
      </trkpt>
      <trkpt lat="46.11741" lon="2.73404">
        <ele>653.35</ele>
        <time>2014-06-22T11:44:59Z</time>
      </trkpt>
      <trkpt lat="46.11726" lon="2.73437">
        <ele>655.76</ele>
        <time>2014-06-22T11:45:14Z</time>
      </trkpt>
      <trkpt lat="46.11713" lon="2.73474">
        <ele>659.12</ele>
        <time>2014-06-22T11:45:30Z</time>
      </trkpt>
      <trkpt lat="46.11705" lon="2.73511">
        <ele>660.08</ele>
        <time>2014-06-22T11:45:45Z</time>
      </trkpt>
      <trkpt lat="46.11702" lon="2.73549">
        <ele>657.2</ele>
        <time>2014-06-22T11:46:00Z</time>
      </trkpt>
      <trkpt lat="46.11703" lon="2.73586">
        <ele>655.28</ele>
        <time>2014-06-22T11:46:14Z</time>
      </trkpt>
      <trkpt lat="46.11703" lon="2.73597">
        <ele>655.76</ele>
        <time>2014-06-22T11:46:19Z</time>
      </trkpt>
      <trkpt lat="46.11705" lon="2.73626">
        <ele>657.2</ele>
        <time>2014-06-22T11:46:32Z</time>
      </trkpt>
      <trkpt lat="46.11711" lon="2.73661">
        <ele>658.16</ele>
        <time>2014-06-22T11:46:44Z</time>
      </trkpt>
      <trkpt lat="46.11715" lon="2.73672">
        <ele>657.2</ele>
        <time>2014-06-22T11:46:48Z</time>
      </trkpt>
      <trkpt lat="46.11716" lon="2.7368">
        <ele>657.2</ele>
        <time>2014-06-22T11:46:51Z</time>
      </trkpt>
      <trkpt lat="46.11723" lon="2.73721">
        <ele>655.28</ele>
        <time>2014-06-22T11:47:07Z</time>
      </trkpt>
      <trkpt lat="46.11725" lon="2.73731">
        <ele>654.8</ele>
        <time>2014-06-22T11:47:11Z</time>
      </trkpt>
      <trkpt lat="46.11728" lon="2.73746">
        <ele>655.76</ele>
        <time>2014-06-22T11:47:17Z</time>
      </trkpt>
      <trkpt lat="46.11718" lon="2.73783">
        <ele>656.72</ele>
        <time>2014-06-22T11:47:34Z</time>
      </trkpt>
      <trkpt lat="46.11699" lon="2.73814">
        <ele>661.04</ele>
        <time>2014-06-22T11:47:51Z</time>
      </trkpt>
      <trkpt lat="46.11676" lon="2.7384">
        <ele>664.41</ele>
        <time>2014-06-22T11:48:06Z</time>
      </trkpt>
      <trkpt lat="46.11663" lon="2.73871">
        <ele>667.77</ele>
        <time>2014-06-22T11:48:20Z</time>
      </trkpt>
      <trkpt lat="46.11655" lon="2.73905">
        <ele>671.14</ele>
        <time>2014-06-22T11:48:33Z</time>
      </trkpt>
      <trkpt lat="46.1165" lon="2.73938">
        <ele>672.58</ele>
        <time>2014-06-22T11:48:46Z</time>
      </trkpt>
      <trkpt lat="46.11648" lon="2.73976">
        <ele>672.58</ele>
        <time>2014-06-22T11:49:01Z</time>
      </trkpt>
      <trkpt lat="46.11646" lon="2.74008">
        <ele>672.1</ele>
        <time>2014-06-22T11:49:13Z</time>
      </trkpt>
      <trkpt lat="46.11645" lon="2.74034">
        <ele>674.02</ele>
        <time>2014-06-22T11:49:23Z</time>
      </trkpt>
      <trkpt lat="46.1165" lon="2.74066">
        <ele>674.98</ele>
        <time>2014-06-22T11:49:36Z</time>
      </trkpt>
      <trkpt lat="46.11663" lon="2.74103">
        <ele>670.18</ele>
        <time>2014-06-22T11:49:51Z</time>
      </trkpt>
      <trkpt lat="46.11674" lon="2.74139">
        <ele>670.66</ele>
        <time>2014-06-22T11:50:07Z</time>
      </trkpt>
      <trkpt lat="46.11689" lon="2.7418">
        <ele>670.66</ele>
        <time>2014-06-22T11:50:23Z</time>
      </trkpt>
      <trkpt lat="46.1169" lon="2.74182">
        <ele>670.18</ele>
        <time>2014-06-22T11:50:24Z</time>
      </trkpt>
      <trkpt lat="46.11698" lon="2.74194">
        <ele>667.77</ele>
        <time>2014-06-22T11:50:30Z</time>
      </trkpt>
      <trkpt lat="46.11716" lon="2.74228">
        <ele>667.29</ele>
        <time>2014-06-22T11:50:47Z</time>
      </trkpt>
      <trkpt lat="46.11731" lon="2.74256">
        <ele>666.33</ele>
        <time>2014-06-22T11:51:01Z</time>
      </trkpt>
      <trkpt lat="46.11737" lon="2.74287">
        <ele>666.33</ele>
        <time>2014-06-22T11:51:15Z</time>
      </trkpt>
      <trkpt lat="46.11746" lon="2.743">
        <ele>668.73</ele>
        <time>2014-06-22T11:51:20Z</time>
      </trkpt>
      <trkpt lat="46.11759" lon="2.74332">
        <ele>669.7</ele>
        <time>2014-06-22T11:51:35Z</time>
      </trkpt>
      <trkpt lat="46.11762" lon="2.74369">
        <ele>673.54</ele>
        <time>2014-06-22T11:51:50Z</time>
      </trkpt>
      <trkpt lat="46.11757" lon="2.74403">
        <ele>675.46</ele>
        <time>2014-06-22T11:52:03Z</time>
      </trkpt>
      <trkpt lat="46.11753" lon="2.74439">
        <ele>676.42</ele>
        <time>2014-06-22T11:52:18Z</time>
      </trkpt>
      <trkpt lat="46.11757" lon="2.74473">
        <ele>676.91</ele>
        <time>2014-06-22T11:52:31Z</time>
      </trkpt>
      <trkpt lat="46.11767" lon="2.74506">
        <ele>675.94</ele>
        <time>2014-06-22T11:52:45Z</time>
      </trkpt>
      <trkpt lat="46.11781" lon="2.74535">
        <ele>674.98</ele>
        <time>2014-06-22T11:52:59Z</time>
      </trkpt>
      <trkpt lat="46.11794" lon="2.74564">
        <ele>672.58</ele>
        <time>2014-06-22T11:53:13Z</time>
      </trkpt>
      <trkpt lat="46.11798" lon="2.7458">
        <ele>674.02</ele>
        <time>2014-06-22T11:53:21Z</time>
      </trkpt>
      <trkpt lat="46.11807" lon="2.74594">
        <ele>674.5</ele>
        <time>2014-06-22T11:53:27Z</time>
      </trkpt>
      <trkpt lat="46.11828" lon="2.74618">
        <ele>668.73</ele>
        <time>2014-06-22T11:53:41Z</time>
      </trkpt>
      <trkpt lat="46.11852" lon="2.74628">
        <ele>666.33</ele>
        <time>2014-06-22T11:53:54Z</time>
      </trkpt>
      <trkpt lat="46.11868" lon="2.74637">
        <ele>664.41</ele>
        <time>2014-06-22T11:54:06Z</time>
      </trkpt>
      <trkpt lat="46.11893" lon="2.74655">
        <ele>662.01</ele>
        <time>2014-06-22T11:54:22Z</time>
      </trkpt>
      <trkpt lat="46.11906" lon="2.74675">
        <ele>662.49</ele>
        <time>2014-06-22T11:54:33Z</time>
      </trkpt>
      <trkpt lat="46.11916" lon="2.74692">
        <ele>662.01</ele>
        <time>2014-06-22T11:54:42Z</time>
      </trkpt>
      <trkpt lat="46.11921" lon="2.74703">
        <ele>661.04</ele>
        <time>2014-06-22T11:54:47Z</time>
      </trkpt>
      <trkpt lat="46.11923" lon="2.74712">
        <ele>660.08</ele>
        <time>2014-06-22T11:54:51Z</time>
      </trkpt>
      <trkpt lat="46.11925" lon="2.74748">
        <ele>657.2</ele>
        <time>2014-06-22T11:55:07Z</time>
      </trkpt>
      <trkpt lat="46.11938" lon="2.74781">
        <ele>659.12</ele>
        <time>2014-06-22T11:55:22Z</time>
      </trkpt>
      <trkpt lat="46.11943" lon="2.74794">
        <ele>658.64</ele>
        <time>2014-06-22T11:55:28Z</time>
      </trkpt>
      <trkpt lat="46.11949" lon="2.74824">
        <ele>657.2</ele>
        <time>2014-06-22T11:55:41Z</time>
      </trkpt>
      <trkpt lat="46.11953" lon="2.74852">
        <ele>654.8</ele>
        <time>2014-06-22T11:55:54Z</time>
      </trkpt>
      <trkpt lat="46.11953" lon="2.74886">
        <ele>656.24</ele>
        <time>2014-06-22T11:56:08Z</time>
      </trkpt>
      <trkpt lat="46.11948" lon="2.74923">
        <ele>657.2</ele>
        <time>2014-06-22T11:56:23Z</time>
      </trkpt>
      <trkpt lat="46.11943" lon="2.7495">
        <ele>656.24</ele>
        <time>2014-06-22T11:56:35Z</time>
      </trkpt>
      <trkpt lat="46.11945" lon="2.74984">
        <ele>654.8</ele>
        <time>2014-06-22T11:56:49Z</time>
      </trkpt>
      <trkpt lat="46.11957" lon="2.75011">
        <ele>652.39</ele>
        <time>2014-06-22T11:57:02Z</time>
      </trkpt>
      <trkpt lat="46.11973" lon="2.75033">
        <ele>652.39</ele>
        <time>2014-06-22T11:57:15Z</time>
      </trkpt>
      <trkpt lat="46.11986" lon="2.75061">
        <ele>653.35</ele>
        <time>2014-06-22T11:57:29Z</time>
      </trkpt>
      <trkpt lat="46.11995" lon="2.75093">
        <ele>653.35</ele>
        <time>2014-06-22T11:57:43Z</time>
      </trkpt>
      <trkpt lat="46.12006" lon="2.75126">
        <ele>653.83</ele>
        <time>2014-06-22T11:57:58Z</time>
      </trkpt>
      <trkpt lat="46.12015" lon="2.75158">
        <ele>651.91</ele>
        <time>2014-06-22T11:58:12Z</time>
      </trkpt>
      <trkpt lat="46.12026" lon="2.75187">
        <ele>651.91</ele>
        <time>2014-06-22T11:58:26Z</time>
      </trkpt>
      <trkpt lat="46.12036" lon="2.75222">
        <ele>652.87</ele>
        <time>2014-06-22T11:58:41Z</time>
      </trkpt>
      <trkpt lat="46.12043" lon="2.75248">
        <ele>652.87</ele>
        <time>2014-06-22T11:58:53Z</time>
      </trkpt>
      <trkpt lat="46.12047" lon="2.75286">
        <ele>654.8</ele>
        <time>2014-06-22T11:59:08Z</time>
      </trkpt>
      <trkpt lat="46.12051" lon="2.75316">
        <ele>657.2</ele>
        <time>2014-06-22T11:59:20Z</time>
      </trkpt>
      <trkpt lat="46.12055" lon="2.75349">
        <ele>658.16</ele>
        <time>2014-06-22T11:59:34Z</time>
      </trkpt>
      <trkpt lat="46.12058" lon="2.75384">
        <ele>659.6</ele>
        <time>2014-06-22T11:59:48Z</time>
      </trkpt>
      <trkpt lat="46.12064" lon="2.7542">
        <ele>660.08</ele>
        <time>2014-06-22T12:00:03Z</time>
      </trkpt>
      <trkpt lat="46.12069" lon="2.75459">
        <ele>661.04</ele>
        <time>2014-06-22T12:00:18Z</time>
      </trkpt>
      <trkpt lat="46.12073" lon="2.75492">
        <ele>659.12</ele>
        <time>2014-06-22T12:00:31Z</time>
      </trkpt>
      <trkpt lat="46.12077" lon="2.75531">
        <ele>658.64</ele>
        <time>2014-06-22T12:00:47Z</time>
      </trkpt>
      <trkpt lat="46.12082" lon="2.75566">
        <ele>658.64</ele>
        <time>2014-06-22T12:01:01Z</time>
      </trkpt>
      <trkpt lat="46.12084" lon="2.75603">
        <ele>657.2</ele>
        <time>2014-06-22T12:01:16Z</time>
      </trkpt>
      <trkpt lat="46.12086" lon="2.75644">
        <ele>658.64</ele>
        <time>2014-06-22T12:01:32Z</time>
      </trkpt>
      <trkpt lat="46.12087" lon="2.75676">
        <ele>658.64</ele>
        <time>2014-06-22T12:01:45Z</time>
      </trkpt>
      <trkpt lat="46.12087" lon="2.75712">
        <ele>659.12</ele>
        <time>2014-06-22T12:02:00Z</time>
      </trkpt>
      <trkpt lat="46.12087" lon="2.75751">
        <ele>661.04</ele>
        <time>2014-06-22T12:02:15Z</time>
      </trkpt>
      <trkpt lat="46.12087" lon="2.75785">
        <ele>662.49</ele>
        <time>2014-06-22T12:02:29Z</time>
      </trkpt>
      <trkpt lat="46.12088" lon="2.75819">
        <ele>662.97</ele>
        <time>2014-06-22T12:02:43Z</time>
      </trkpt>
      <trkpt lat="46.12092" lon="2.75855">
        <ele>663.93</ele>
        <time>2014-06-22T12:02:58Z</time>
      </trkpt>
      <trkpt lat="46.12096" lon="2.75884">
        <ele>662.01</ele>
        <time>2014-06-22T12:03:10Z</time>
      </trkpt>
      <trkpt lat="46.12097" lon="2.75896">
        <ele>661.52</ele>
        <time>2014-06-22T12:03:15Z</time>
      </trkpt>
      <trkpt lat="46.121" lon="2.75928">
        <ele>659.6</ele>
        <time>2014-06-22T12:03:29Z</time>
      </trkpt>
      <trkpt lat="46.12104" lon="2.75943">
        <ele>660.08</ele>
        <time>2014-06-22T12:03:35Z</time>
      </trkpt>
      <trkpt lat="46.12118" lon="2.75977">
        <ele>659.6</ele>
        <time>2014-06-22T12:03:51Z</time>
      </trkpt>
      <trkpt lat="46.1212" lon="2.75978">
        <ele>660.08</ele>
        <time>2014-06-22T12:03:52Z</time>
      </trkpt>
      <trkpt lat="46.12132" lon="2.76">
        <ele>660.08</ele>
        <time>2014-06-22T12:04:04Z</time>
      </trkpt>
      <trkpt lat="46.12144" lon="2.7602">
        <ele>660.08</ele>
        <time>2014-06-22T12:04:15Z</time>
      </trkpt>
      <trkpt lat="46.12155" lon="2.76046">
        <ele>660.08</ele>
        <time>2014-06-22T12:04:28Z</time>
      </trkpt>
      <trkpt lat="46.12162" lon="2.76078">
        <ele>662.49</ele>
        <time>2014-06-22T12:04:42Z</time>
      </trkpt>
      <trkpt lat="46.12166" lon="2.76114">
        <ele>664.41</ele>
        <time>2014-06-22T12:04:56Z</time>
      </trkpt>
      <trkpt lat="46.12173" lon="2.76136">
        <ele>662.97</ele>
        <time>2014-06-22T12:05:06Z</time>
      </trkpt>
      <trkpt lat="46.12177" lon="2.76143">
        <ele>662.97</ele>
        <time>2014-06-22T12:05:10Z</time>
      </trkpt>
      <trkpt lat="46.12198" lon="2.76168">
        <ele>663.45</ele>
        <time>2014-06-22T12:05:26Z</time>
      </trkpt>
      <trkpt lat="46.12216" lon="2.76187">
        <ele>662.97</ele>
        <time>2014-06-22T12:05:39Z</time>
      </trkpt>
      <trkpt lat="46.12227" lon="2.76207">
        <ele>663.45</ele>
        <time>2014-06-22T12:05:50Z</time>
      </trkpt>
      <trkpt lat="46.12244" lon="2.76234">
        <ele>663.93</ele>
        <time>2014-06-22T12:06:05Z</time>
      </trkpt>
      <trkpt lat="46.12256" lon="2.76261">
        <ele>661.52</ele>
        <time>2014-06-22T12:06:18Z</time>
      </trkpt>
      <trkpt lat="46.12267" lon="2.76285">
        <ele>659.12</ele>
        <time>2014-06-22T12:06:30Z</time>
      </trkpt>
      <trkpt lat="46.12274" lon="2.76284">
        <ele>659.12</ele>
        <time>2014-06-22T12:06:34Z</time>
      </trkpt>
      <trkpt lat="46.12291" lon="2.76262">
        <ele>658.64</ele>
        <time>2014-06-22T12:06:47Z</time>
      </trkpt>
      <trkpt lat="46.12304" lon="2.76233">
        <ele>658.64</ele>
        <time>2014-06-22T12:07:01Z</time>
      </trkpt>
      <trkpt lat="46.12311" lon="2.76217">
        <ele>657.2</ele>
        <time>2014-06-22T12:07:08Z</time>
      </trkpt>
      <trkpt lat="46.12313" lon="2.76208">
        <ele>655.76</ele>
        <time>2014-06-22T12:07:22Z</time>
      </trkpt>
      <trkpt lat="46.1231" lon="2.76204">
        <ele>653.35</ele>
        <time>2014-06-22T12:07:39Z</time>
      </trkpt>
      <trkpt lat="46.12305" lon="2.76208">
        <ele>649.99</ele>
        <time>2014-06-22T12:08:01Z</time>
      </trkpt>
      <trkpt lat="46.12304" lon="2.76207">
        <ele>649.51</ele>
        <time>2014-06-22T12:08:09Z</time>
      </trkpt>
      <trkpt lat="46.12294" lon="2.76201">
        <ele>648.55</ele>
        <time>2014-06-22T12:08:30Z</time>
      </trkpt>
      <trkpt lat="46.12292" lon="2.76201">
        <ele>648.07</ele>
        <time>2014-06-22T12:08:35Z</time>
      </trkpt>
      <trkpt lat="46.12293" lon="2.76203">
        <ele>649.99</ele>
        <time>2014-06-22T12:08:52Z</time>
      </trkpt>
      <trkpt lat="46.12293" lon="2.76203">
        <ele>649.51</ele>
        <time>2014-06-22T12:08:53Z</time>
      </trkpt>
    </trkseg>
  </trk>
</gpx>